<?xml version="1.0" encoding="UTF-8" standalone="no" ?>
<gpx xmlns="http://www.topografix.com/GPX/1/1" xmlns:xsi="http://www.w3.org/2001/XMLSchema-instance" xsi:schemaLocation="http://www.topografix.com/GPX/1/1 http://www.topografix.com/GPX/1/1/gpx.xsd" version="1.1" creator="VisuGPX - https://www.visugpx.com">
  <metadata>
    <name>RSPG Valavoire Montagne de Jouère</name>
    <desc><![CDATA[Au départ de Valavoire, prendre le sentier au dessus  du village qui monte vers le Château de la Molle et vers le sommet de la Montagne de Jouère Lacroix St Jean. descendre par le même chemin.]]></desc>
  </metadata>
  <trk>
    <name><![CDATA[Valavoire la montagne de Jouere: 06 DEC 2018 09:17]]></name>
    <trkseg>
      <trkpt lat="44.27922" lon="6.0669">
        <ele>1120.55</ele>
        <time>2018-12-06T08:17:33Z</time>
      </trkpt>
      <trkpt lat="44.27931" lon="6.06695">
        <ele>1124.4</ele>
        <time>2018-12-06T08:17:43Z</time>
      </trkpt>
      <trkpt lat="44.27938" lon="6.06694">
        <ele>1131.13</ele>
        <time>2018-12-06T08:17:52Z</time>
      </trkpt>
      <trkpt lat="44.27938" lon="6.06693">
        <ele>1131.13</ele>
        <time>2018-12-06T08:17:53Z</time>
      </trkpt>
      <trkpt lat="44.27939" lon="6.06694">
        <ele>1223.42</ele>
        <time>2018-12-06T08:17:55Z</time>
      </trkpt>
      <trkpt lat="44.27941" lon="6.06695">
        <ele>1134.97</ele>
        <time>2018-12-06T08:17:58Z</time>
      </trkpt>
      <trkpt lat="44.27941" lon="6.06695">
        <ele>1134.97</ele>
        <time>2018-12-06T08:17:59Z</time>
      </trkpt>
      <trkpt lat="44.27945" lon="6.06696">
        <ele>1134.97</ele>
        <time>2018-12-06T08:18:04Z</time>
      </trkpt>
      <trkpt lat="44.27951" lon="6.06712">
        <ele>1135.45</ele>
        <time>2018-12-06T08:18:20Z</time>
      </trkpt>
      <trkpt lat="44.27949" lon="6.06726">
        <ele>1136.9</ele>
        <time>2018-12-06T08:18:34Z</time>
      </trkpt>
      <trkpt lat="44.27949" lon="6.0673">
        <ele>1136.42</ele>
        <time>2018-12-06T08:18:37Z</time>
      </trkpt>
      <trkpt lat="44.27948" lon="6.06735">
        <ele>1135.94</ele>
        <time>2018-12-06T08:18:43Z</time>
      </trkpt>
      <trkpt lat="44.27948" lon="6.06737">
        <ele>1135.94</ele>
        <time>2018-12-06T08:18:45Z</time>
      </trkpt>
      <trkpt lat="44.27948" lon="6.06753">
        <ele>1136.42</ele>
        <time>2018-12-06T08:18:58Z</time>
      </trkpt>
      <trkpt lat="44.27948" lon="6.06773">
        <ele>1137.38</ele>
        <time>2018-12-06T08:19:13Z</time>
      </trkpt>
      <trkpt lat="44.27948" lon="6.06774">
        <ele>1137.38</ele>
        <time>2018-12-06T08:19:14Z</time>
      </trkpt>
      <trkpt lat="44.27949" lon="6.06777">
        <ele>1137.86</ele>
        <time>2018-12-06T08:19:16Z</time>
      </trkpt>
      <trkpt lat="44.27948" lon="6.0678">
        <ele>1137.86</ele>
        <time>2018-12-06T08:19:18Z</time>
      </trkpt>
      <trkpt lat="44.27948" lon="6.06793">
        <ele>1139.78</ele>
        <time>2018-12-06T08:19:30Z</time>
      </trkpt>
      <trkpt lat="44.27948" lon="6.06807">
        <ele>1142.18</ele>
        <time>2018-12-06T08:19:44Z</time>
      </trkpt>
      <trkpt lat="44.27945" lon="6.06821">
        <ele>1144.11</ele>
        <time>2018-12-06T08:19:57Z</time>
      </trkpt>
      <trkpt lat="44.2794" lon="6.06832">
        <ele>1146.99</ele>
        <time>2018-12-06T08:20:11Z</time>
      </trkpt>
      <trkpt lat="44.27935" lon="6.06843">
        <ele>1148.91</ele>
        <time>2018-12-06T08:20:25Z</time>
      </trkpt>
      <trkpt lat="44.27933" lon="6.06845">
        <ele>1148.91</ele>
        <time>2018-12-06T08:20:28Z</time>
      </trkpt>
      <trkpt lat="44.2792" lon="6.06853">
        <ele>1150.35</ele>
        <time>2018-12-06T08:20:43Z</time>
      </trkpt>
      <trkpt lat="44.27913" lon="6.06855">
        <ele>1151.32</ele>
        <time>2018-12-06T08:20:57Z</time>
      </trkpt>
      <trkpt lat="44.27902" lon="6.06859">
        <ele>1152.28</ele>
        <time>2018-12-06T08:21:14Z</time>
      </trkpt>
      <trkpt lat="44.27898" lon="6.06849">
        <ele>1153.24</ele>
        <time>2018-12-06T08:21:27Z</time>
      </trkpt>
      <trkpt lat="44.279" lon="6.06839">
        <ele>1152.28</ele>
        <time>2018-12-06T08:21:42Z</time>
      </trkpt>
      <trkpt lat="44.279" lon="6.06841">
        <ele>1152.28</ele>
        <time>2018-12-06T08:22:13Z</time>
      </trkpt>
      <trkpt lat="44.27898" lon="6.06842">
        <ele>1152.28</ele>
        <time>2018-12-06T08:22:39Z</time>
      </trkpt>
      <trkpt lat="44.27898" lon="6.06842">
        <ele>1151.8</ele>
        <time>2018-12-06T08:22:40Z</time>
      </trkpt>
      <trkpt lat="44.27895" lon="6.06841">
        <ele>1152.76</ele>
        <time>2018-12-06T08:22:43Z</time>
      </trkpt>
      <trkpt lat="44.27893" lon="6.06837">
        <ele>1152.76</ele>
        <time>2018-12-06T08:23:00Z</time>
      </trkpt>
      <trkpt lat="44.27896" lon="6.06845">
        <ele>1152.28</ele>
        <time>2018-12-06T08:23:06Z</time>
      </trkpt>
      <trkpt lat="44.27898" lon="6.06859">
        <ele>1152.76</ele>
        <time>2018-12-06T08:23:22Z</time>
      </trkpt>
      <trkpt lat="44.27896" lon="6.06861">
        <ele>1153.72</ele>
        <time>2018-12-06T08:23:35Z</time>
      </trkpt>
      <trkpt lat="44.27897" lon="6.06861">
        <ele>1153.72</ele>
        <time>2018-12-06T08:23:55Z</time>
      </trkpt>
      <trkpt lat="44.27897" lon="6.06858">
        <ele>1152.76</ele>
        <time>2018-12-06T08:24:08Z</time>
      </trkpt>
      <trkpt lat="44.27898" lon="6.06856">
        <ele>1152.28</ele>
        <time>2018-12-06T08:24:24Z</time>
      </trkpt>
      <trkpt lat="44.27897" lon="6.0686">
        <ele>1153.24</ele>
        <time>2018-12-06T08:24:34Z</time>
      </trkpt>
      <trkpt lat="44.27896" lon="6.06861">
        <ele>1153.24</ele>
        <time>2018-12-06T08:24:49Z</time>
      </trkpt>
      <trkpt lat="44.27894" lon="6.06866">
        <ele>1153.24</ele>
        <time>2018-12-06T08:25:06Z</time>
      </trkpt>
      <trkpt lat="44.2789" lon="6.06877">
        <ele>1152.76</ele>
        <time>2018-12-06T08:25:13Z</time>
      </trkpt>
      <trkpt lat="44.27889" lon="6.06878">
        <ele>1153.72</ele>
        <time>2018-12-06T08:25:15Z</time>
      </trkpt>
      <trkpt lat="44.27878" lon="6.06898">
        <ele>1154.68</ele>
        <time>2018-12-06T08:25:32Z</time>
      </trkpt>
      <trkpt lat="44.2787" lon="6.0692">
        <ele>1155.64</ele>
        <time>2018-12-06T08:25:50Z</time>
      </trkpt>
      <trkpt lat="44.27863" lon="6.0694">
        <ele>1157.56</ele>
        <time>2018-12-06T08:26:07Z</time>
      </trkpt>
      <trkpt lat="44.27861" lon="6.06958">
        <ele>1159.49</ele>
        <time>2018-12-06T08:26:21Z</time>
      </trkpt>
      <trkpt lat="44.27859" lon="6.06975">
        <ele>1160.93</ele>
        <time>2018-12-06T08:26:36Z</time>
      </trkpt>
      <trkpt lat="44.27856" lon="6.06991">
        <ele>1163.33</ele>
        <time>2018-12-06T08:26:51Z</time>
      </trkpt>
      <trkpt lat="44.27852" lon="6.07001">
        <ele>1165.26</ele>
        <time>2018-12-06T08:27:04Z</time>
      </trkpt>
      <trkpt lat="44.2785" lon="6.07005">
        <ele>1166.22</ele>
        <time>2018-12-06T08:27:09Z</time>
      </trkpt>
      <trkpt lat="44.27839" lon="6.06997">
        <ele>1167.66</ele>
        <time>2018-12-06T08:27:24Z</time>
      </trkpt>
      <trkpt lat="44.27838" lon="6.06993">
        <ele>1168.14</ele>
        <time>2018-12-06T08:27:28Z</time>
      </trkpt>
      <trkpt lat="44.27831" lon="6.06983">
        <ele>1170.06</ele>
        <time>2018-12-06T08:27:42Z</time>
      </trkpt>
      <trkpt lat="44.2782" lon="6.0698">
        <ele>1171.5</ele>
        <time>2018-12-06T08:27:57Z</time>
      </trkpt>
      <trkpt lat="44.27804" lon="6.0698">
        <ele>1171.98</ele>
        <time>2018-12-06T08:28:13Z</time>
      </trkpt>
      <trkpt lat="44.27789" lon="6.06975">
        <ele>1172.95</ele>
        <time>2018-12-06T08:28:30Z</time>
      </trkpt>
      <trkpt lat="44.27772" lon="6.06966">
        <ele>1173.91</ele>
        <time>2018-12-06T08:28:47Z</time>
      </trkpt>
      <trkpt lat="44.27759" lon="6.0696">
        <ele>1174.39</ele>
        <time>2018-12-06T08:29:01Z</time>
      </trkpt>
      <trkpt lat="44.27748" lon="6.06945">
        <ele>1175.83</ele>
        <time>2018-12-06T08:29:17Z</time>
      </trkpt>
      <trkpt lat="44.27737" lon="6.0694">
        <ele>1177.27</ele>
        <time>2018-12-06T08:29:31Z</time>
      </trkpt>
      <trkpt lat="44.27729" lon="6.06944">
        <ele>1178.23</ele>
        <time>2018-12-06T08:29:44Z</time>
      </trkpt>
      <trkpt lat="44.27727" lon="6.06944">
        <ele>1178.23</ele>
        <time>2018-12-06T08:29:46Z</time>
      </trkpt>
      <trkpt lat="44.27718" lon="6.06949">
        <ele>1180.16</ele>
        <time>2018-12-06T08:29:58Z</time>
      </trkpt>
      <trkpt lat="44.27708" lon="6.06956">
        <ele>1182.56</ele>
        <time>2018-12-06T08:30:14Z</time>
      </trkpt>
      <trkpt lat="44.27708" lon="6.06963">
        <ele>1183.04</ele>
        <time>2018-12-06T08:30:20Z</time>
      </trkpt>
      <trkpt lat="44.27712" lon="6.06971">
        <ele>1184</ele>
        <time>2018-12-06T08:30:28Z</time>
      </trkpt>
      <trkpt lat="44.27715" lon="6.06982">
        <ele>1184.48</ele>
        <time>2018-12-06T08:30:38Z</time>
      </trkpt>
      <trkpt lat="44.27716" lon="6.06998">
        <ele>1186.4</ele>
        <time>2018-12-06T08:30:51Z</time>
      </trkpt>
      <trkpt lat="44.27716" lon="6.07016">
        <ele>1187.37</ele>
        <time>2018-12-06T08:31:06Z</time>
      </trkpt>
      <trkpt lat="44.27715" lon="6.07037">
        <ele>1188.33</ele>
        <time>2018-12-06T08:31:21Z</time>
      </trkpt>
      <trkpt lat="44.27713" lon="6.07055">
        <ele>1189.77</ele>
        <time>2018-12-06T08:31:36Z</time>
      </trkpt>
      <trkpt lat="44.27714" lon="6.07075">
        <ele>1190.73</ele>
        <time>2018-12-06T08:31:51Z</time>
      </trkpt>
      <trkpt lat="44.27715" lon="6.07097">
        <ele>1191.21</ele>
        <time>2018-12-06T08:32:07Z</time>
      </trkpt>
      <trkpt lat="44.27718" lon="6.07114">
        <ele>1192.65</ele>
        <time>2018-12-06T08:32:20Z</time>
      </trkpt>
      <trkpt lat="44.27726" lon="6.07127">
        <ele>1194.09</ele>
        <time>2018-12-06T08:32:35Z</time>
      </trkpt>
      <trkpt lat="44.27734" lon="6.07132">
        <ele>1195.54</ele>
        <time>2018-12-06T08:32:45Z</time>
      </trkpt>
      <trkpt lat="44.2774" lon="6.07141">
        <ele>1197.46</ele>
        <time>2018-12-06T08:32:55Z</time>
      </trkpt>
      <trkpt lat="44.27738" lon="6.07157">
        <ele>1198.9</ele>
        <time>2018-12-06T08:33:10Z</time>
      </trkpt>
      <trkpt lat="44.27736" lon="6.07173">
        <ele>1200.82</ele>
        <time>2018-12-06T08:33:25Z</time>
      </trkpt>
      <trkpt lat="44.27739" lon="6.07188">
        <ele>1202.27</ele>
        <time>2018-12-06T08:33:39Z</time>
      </trkpt>
      <trkpt lat="44.27742" lon="6.07193">
        <ele>1202.75</ele>
        <time>2018-12-06T08:33:45Z</time>
      </trkpt>
      <trkpt lat="44.27752" lon="6.07203">
        <ele>1204.19</ele>
        <time>2018-12-06T08:33:59Z</time>
      </trkpt>
      <trkpt lat="44.27762" lon="6.07208">
        <ele>1205.63</ele>
        <time>2018-12-06T08:34:13Z</time>
      </trkpt>
      <trkpt lat="44.27762" lon="6.07209">
        <ele>1205.63</ele>
        <time>2018-12-06T08:34:14Z</time>
      </trkpt>
      <trkpt lat="44.27774" lon="6.07218">
        <ele>1206.11</ele>
        <time>2018-12-06T08:34:28Z</time>
      </trkpt>
      <trkpt lat="44.27779" lon="6.07234">
        <ele>1207.55</ele>
        <time>2018-12-06T08:34:42Z</time>
      </trkpt>
      <trkpt lat="44.27778" lon="6.0725">
        <ele>1209</ele>
        <time>2018-12-06T08:34:55Z</time>
      </trkpt>
      <trkpt lat="44.27775" lon="6.07269">
        <ele>1211.4</ele>
        <time>2018-12-06T08:35:10Z</time>
      </trkpt>
      <trkpt lat="44.27772" lon="6.07286">
        <ele>1213.32</ele>
        <time>2018-12-06T08:35:26Z</time>
      </trkpt>
      <trkpt lat="44.27767" lon="6.07301">
        <ele>1214.76</ele>
        <time>2018-12-06T08:35:41Z</time>
      </trkpt>
      <trkpt lat="44.27765" lon="6.07316">
        <ele>1216.69</ele>
        <time>2018-12-06T08:35:55Z</time>
      </trkpt>
      <trkpt lat="44.27768" lon="6.07334">
        <ele>1218.13</ele>
        <time>2018-12-06T08:36:09Z</time>
      </trkpt>
      <trkpt lat="44.27771" lon="6.07353">
        <ele>1219.57</ele>
        <time>2018-12-06T08:36:25Z</time>
      </trkpt>
      <trkpt lat="44.27771" lon="6.07364">
        <ele>1220.53</ele>
        <time>2018-12-06T08:36:34Z</time>
      </trkpt>
      <trkpt lat="44.27772" lon="6.07371">
        <ele>1221.01</ele>
        <time>2018-12-06T08:36:39Z</time>
      </trkpt>
      <trkpt lat="44.27771" lon="6.07389">
        <ele>1222.45</ele>
        <time>2018-12-06T08:36:54Z</time>
      </trkpt>
      <trkpt lat="44.2777" lon="6.07403">
        <ele>1224.38</ele>
        <time>2018-12-06T08:37:08Z</time>
      </trkpt>
      <trkpt lat="44.27765" lon="6.07422">
        <ele>1225.82</ele>
        <time>2018-12-06T08:37:25Z</time>
      </trkpt>
      <trkpt lat="44.2776" lon="6.07435">
        <ele>1227.74</ele>
        <time>2018-12-06T08:37:38Z</time>
      </trkpt>
      <trkpt lat="44.27756" lon="6.07446">
        <ele>1228.7</ele>
        <time>2018-12-06T08:37:49Z</time>
      </trkpt>
      <trkpt lat="44.27747" lon="6.07463">
        <ele>1230.62</ele>
        <time>2018-12-06T08:38:06Z</time>
      </trkpt>
      <trkpt lat="44.27743" lon="6.07475">
        <ele>1231.59</ele>
        <time>2018-12-06T08:38:17Z</time>
      </trkpt>
      <trkpt lat="44.2774" lon="6.07483">
        <ele>1232.55</ele>
        <time>2018-12-06T08:38:24Z</time>
      </trkpt>
      <trkpt lat="44.27737" lon="6.07487">
        <ele>1233.03</ele>
        <time>2018-12-06T08:38:29Z</time>
      </trkpt>
      <trkpt lat="44.27724" lon="6.07499">
        <ele>1234.95</ele>
        <time>2018-12-06T08:38:46Z</time>
      </trkpt>
      <trkpt lat="44.27715" lon="6.07511">
        <ele>1236.87</ele>
        <time>2018-12-06T08:39:01Z</time>
      </trkpt>
      <trkpt lat="44.27709" lon="6.07517">
        <ele>1237.83</ele>
        <time>2018-12-06T08:39:11Z</time>
      </trkpt>
      <trkpt lat="44.27697" lon="6.07524">
        <ele>1239.28</ele>
        <time>2018-12-06T08:39:26Z</time>
      </trkpt>
      <trkpt lat="44.27688" lon="6.07539">
        <ele>1241.2</ele>
        <time>2018-12-06T08:39:42Z</time>
      </trkpt>
      <trkpt lat="44.27693" lon="6.07551">
        <ele>1242.16</ele>
        <time>2018-12-06T08:39:55Z</time>
      </trkpt>
      <trkpt lat="44.27697" lon="6.07549">
        <ele>1242.64</ele>
        <time>2018-12-06T08:40:10Z</time>
      </trkpt>
      <trkpt lat="44.27696" lon="6.07548">
        <ele>1243.12</ele>
        <time>2018-12-06T08:40:15Z</time>
      </trkpt>
      <trkpt lat="44.27695" lon="6.07547">
        <ele>1241.68</ele>
        <time>2018-12-06T08:40:30Z</time>
      </trkpt>
      <trkpt lat="44.27694" lon="6.07547">
        <ele>1241.68</ele>
        <time>2018-12-06T08:40:57Z</time>
      </trkpt>
      <trkpt lat="44.27696" lon="6.07545">
        <ele>1242.64</ele>
        <time>2018-12-06T08:41:09Z</time>
      </trkpt>
      <trkpt lat="44.27697" lon="6.07546">
        <ele>1243.12</ele>
        <time>2018-12-06T08:41:19Z</time>
      </trkpt>
      <trkpt lat="44.27695" lon="6.07546">
        <ele>1243.12</ele>
        <time>2018-12-06T08:41:38Z</time>
      </trkpt>
      <trkpt lat="44.27694" lon="6.07545">
        <ele>1243.12</ele>
        <time>2018-12-06T08:41:56Z</time>
      </trkpt>
      <trkpt lat="44.27692" lon="6.07544">
        <ele>1243.12</ele>
        <time>2018-12-06T08:42:23Z</time>
      </trkpt>
      <trkpt lat="44.27693" lon="6.07542">
        <ele>1243.6</ele>
        <time>2018-12-06T08:42:36Z</time>
      </trkpt>
      <trkpt lat="44.27695" lon="6.07542">
        <ele>1243.6</ele>
        <time>2018-12-06T08:42:57Z</time>
      </trkpt>
      <trkpt lat="44.27698" lon="6.07539">
        <ele>1244.08</ele>
        <time>2018-12-06T08:43:18Z</time>
      </trkpt>
      <trkpt lat="44.277" lon="6.07537">
        <ele>1244.56</ele>
        <time>2018-12-06T08:43:34Z</time>
      </trkpt>
      <trkpt lat="44.27704" lon="6.07534">
        <ele>1245.04</ele>
        <time>2018-12-06T08:43:51Z</time>
      </trkpt>
      <trkpt lat="44.27712" lon="6.07529">
        <ele>1246.97</ele>
        <time>2018-12-06T08:44:04Z</time>
      </trkpt>
      <trkpt lat="44.27715" lon="6.07527">
        <ele>1246.49</ele>
        <time>2018-12-06T08:44:08Z</time>
      </trkpt>
      <trkpt lat="44.27727" lon="6.07522">
        <ele>1247.93</ele>
        <time>2018-12-06T08:44:23Z</time>
      </trkpt>
      <trkpt lat="44.27737" lon="6.07515">
        <ele>1248.89</ele>
        <time>2018-12-06T08:44:35Z</time>
      </trkpt>
      <trkpt lat="44.27749" lon="6.07508">
        <ele>1249.37</ele>
        <time>2018-12-06T08:44:50Z</time>
      </trkpt>
      <trkpt lat="44.27762" lon="6.07504">
        <ele>1250.81</ele>
        <time>2018-12-06T08:45:04Z</time>
      </trkpt>
      <trkpt lat="44.27774" lon="6.07513">
        <ele>1252.25</ele>
        <time>2018-12-06T08:45:16Z</time>
      </trkpt>
      <trkpt lat="44.27781" lon="6.07533">
        <ele>1253.22</ele>
        <time>2018-12-06T08:45:32Z</time>
      </trkpt>
      <trkpt lat="44.27786" lon="6.07549">
        <ele>1254.18</ele>
        <time>2018-12-06T08:45:47Z</time>
      </trkpt>
      <trkpt lat="44.27787" lon="6.07561">
        <ele>1256.58</ele>
        <time>2018-12-06T08:45:58Z</time>
      </trkpt>
      <trkpt lat="44.27787" lon="6.07566">
        <ele>1256.58</ele>
        <time>2018-12-06T08:46:02Z</time>
      </trkpt>
      <trkpt lat="44.27786" lon="6.07586">
        <ele>1258.5</ele>
        <time>2018-12-06T08:46:19Z</time>
      </trkpt>
      <trkpt lat="44.27784" lon="6.07603">
        <ele>1259.94</ele>
        <time>2018-12-06T08:46:33Z</time>
      </trkpt>
      <trkpt lat="44.27782" lon="6.0762">
        <ele>1260.43</ele>
        <time>2018-12-06T08:46:47Z</time>
      </trkpt>
      <trkpt lat="44.2778" lon="6.07638">
        <ele>1262.35</ele>
        <time>2018-12-06T08:47:02Z</time>
      </trkpt>
      <trkpt lat="44.27777" lon="6.07655">
        <ele>1264.27</ele>
        <time>2018-12-06T08:47:17Z</time>
      </trkpt>
      <trkpt lat="44.27776" lon="6.07674">
        <ele>1265.71</ele>
        <time>2018-12-06T08:47:32Z</time>
      </trkpt>
      <trkpt lat="44.27772" lon="6.07689">
        <ele>1267.64</ele>
        <time>2018-12-06T08:47:46Z</time>
      </trkpt>
      <trkpt lat="44.27769" lon="6.07705">
        <ele>1269.08</ele>
        <time>2018-12-06T08:48:01Z</time>
      </trkpt>
      <trkpt lat="44.27768" lon="6.0772">
        <ele>1270.52</ele>
        <time>2018-12-06T08:48:14Z</time>
      </trkpt>
      <trkpt lat="44.27766" lon="6.07735">
        <ele>1271.96</ele>
        <time>2018-12-06T08:48:28Z</time>
      </trkpt>
      <trkpt lat="44.27764" lon="6.07752">
        <ele>1273.4</ele>
        <time>2018-12-06T08:48:43Z</time>
      </trkpt>
      <trkpt lat="44.27764" lon="6.07771">
        <ele>1274.85</ele>
        <time>2018-12-06T08:48:58Z</time>
      </trkpt>
      <trkpt lat="44.27767" lon="6.07781">
        <ele>1275.81</ele>
        <time>2018-12-06T08:49:07Z</time>
      </trkpt>
      <trkpt lat="44.27779" lon="6.07794">
        <ele>1277.73</ele>
        <time>2018-12-06T08:49:26Z</time>
      </trkpt>
      <trkpt lat="44.27782" lon="6.078">
        <ele>1278.69</ele>
        <time>2018-12-06T08:49:41Z</time>
      </trkpt>
      <trkpt lat="44.27791" lon="6.07808">
        <ele>1279.65</ele>
        <time>2018-12-06T08:49:55Z</time>
      </trkpt>
      <trkpt lat="44.27804" lon="6.0782">
        <ele>1282.06</ele>
        <time>2018-12-06T08:50:12Z</time>
      </trkpt>
      <trkpt lat="44.27815" lon="6.0783">
        <ele>1283.98</ele>
        <time>2018-12-06T08:50:27Z</time>
      </trkpt>
      <trkpt lat="44.27822" lon="6.07842">
        <ele>1285.42</ele>
        <time>2018-12-06T08:50:42Z</time>
      </trkpt>
      <trkpt lat="44.27827" lon="6.07854">
        <ele>1286.38</ele>
        <time>2018-12-06T08:50:56Z</time>
      </trkpt>
      <trkpt lat="44.27833" lon="6.07867">
        <ele>1288.3</ele>
        <time>2018-12-06T08:51:09Z</time>
      </trkpt>
      <trkpt lat="44.27842" lon="6.07882">
        <ele>1290.23</ele>
        <time>2018-12-06T08:51:28Z</time>
      </trkpt>
      <trkpt lat="44.27855" lon="6.07877">
        <ele>1292.15</ele>
        <time>2018-12-06T08:51:44Z</time>
      </trkpt>
      <trkpt lat="44.27863" lon="6.07864">
        <ele>1293.11</ele>
        <time>2018-12-06T08:51:59Z</time>
      </trkpt>
      <trkpt lat="44.27877" lon="6.07864">
        <ele>1294.07</ele>
        <time>2018-12-06T08:52:14Z</time>
      </trkpt>
      <trkpt lat="44.27879" lon="6.07866">
        <ele>1294.07</ele>
        <time>2018-12-06T08:52:16Z</time>
      </trkpt>
      <trkpt lat="44.27892" lon="6.07871">
        <ele>1295.51</ele>
        <time>2018-12-06T08:52:31Z</time>
      </trkpt>
      <trkpt lat="44.27906" lon="6.07879">
        <ele>1296.96</ele>
        <time>2018-12-06T08:52:46Z</time>
      </trkpt>
      <trkpt lat="44.27917" lon="6.07891">
        <ele>1297.92</ele>
        <time>2018-12-06T08:53:01Z</time>
      </trkpt>
      <trkpt lat="44.27918" lon="6.07893">
        <ele>1298.4</ele>
        <time>2018-12-06T08:53:03Z</time>
      </trkpt>
      <trkpt lat="44.2792" lon="6.07902">
        <ele>1299.36</ele>
        <time>2018-12-06T08:53:12Z</time>
      </trkpt>
      <trkpt lat="44.27918" lon="6.07905">
        <ele>1299.84</ele>
        <time>2018-12-06T08:53:15Z</time>
      </trkpt>
      <trkpt lat="44.27916" lon="6.07907">
        <ele>1300.32</ele>
        <time>2018-12-06T08:53:17Z</time>
      </trkpt>
      <trkpt lat="44.27912" lon="6.0791">
        <ele>1300.32</ele>
        <time>2018-12-06T08:53:22Z</time>
      </trkpt>
      <trkpt lat="44.27894" lon="6.07904">
        <ele>1301.28</ele>
        <time>2018-12-06T08:53:39Z</time>
      </trkpt>
      <trkpt lat="44.2788" lon="6.079">
        <ele>1302.24</ele>
        <time>2018-12-06T08:53:54Z</time>
      </trkpt>
      <trkpt lat="44.27868" lon="6.07907">
        <ele>1303.69</ele>
        <time>2018-12-06T08:54:09Z</time>
      </trkpt>
      <trkpt lat="44.27864" lon="6.0791">
        <ele>1304.17</ele>
        <time>2018-12-06T08:54:14Z</time>
      </trkpt>
      <trkpt lat="44.27848" lon="6.07923">
        <ele>1305.13</ele>
        <time>2018-12-06T08:54:33Z</time>
      </trkpt>
      <trkpt lat="44.27834" lon="6.0792">
        <ele>1306.09</ele>
        <time>2018-12-06T08:54:47Z</time>
      </trkpt>
      <trkpt lat="44.27821" lon="6.07917">
        <ele>1307.53</ele>
        <time>2018-12-06T08:55:01Z</time>
      </trkpt>
      <trkpt lat="44.27807" lon="6.07921">
        <ele>1309.45</ele>
        <time>2018-12-06T08:55:17Z</time>
      </trkpt>
      <trkpt lat="44.27795" lon="6.07927">
        <ele>1310.9</ele>
        <time>2018-12-06T08:55:30Z</time>
      </trkpt>
      <trkpt lat="44.27781" lon="6.07935">
        <ele>1313.3</ele>
        <time>2018-12-06T08:55:46Z</time>
      </trkpt>
      <trkpt lat="44.27779" lon="6.07936">
        <ele>1313.78</ele>
        <time>2018-12-06T08:55:49Z</time>
      </trkpt>
      <trkpt lat="44.27769" lon="6.07946">
        <ele>1315.7</ele>
        <time>2018-12-06T08:56:04Z</time>
      </trkpt>
      <trkpt lat="44.27758" lon="6.07956">
        <ele>1317.14</ele>
        <time>2018-12-06T08:56:19Z</time>
      </trkpt>
      <trkpt lat="44.27747" lon="6.07965">
        <ele>1318.1</ele>
        <time>2018-12-06T08:56:33Z</time>
      </trkpt>
      <trkpt lat="44.27739" lon="6.07976">
        <ele>1319.55</ele>
        <time>2018-12-06T08:56:47Z</time>
      </trkpt>
      <trkpt lat="44.27732" lon="6.07992">
        <ele>1320.99</ele>
        <time>2018-12-06T08:57:03Z</time>
      </trkpt>
      <trkpt lat="44.27726" lon="6.08004">
        <ele>1322.43</ele>
        <time>2018-12-06T08:57:17Z</time>
      </trkpt>
      <trkpt lat="44.27723" lon="6.08007">
        <ele>1322.91</ele>
        <time>2018-12-06T08:57:30Z</time>
      </trkpt>
      <trkpt lat="44.27724" lon="6.08008">
        <ele>1322.91</ele>
        <time>2018-12-06T08:57:52Z</time>
      </trkpt>
      <trkpt lat="44.27725" lon="6.08012">
        <ele>1322.91</ele>
        <time>2018-12-06T08:58:15Z</time>
      </trkpt>
      <trkpt lat="44.2772" lon="6.08014">
        <ele>1323.39</ele>
        <time>2018-12-06T08:58:33Z</time>
      </trkpt>
      <trkpt lat="44.27718" lon="6.08015">
        <ele>1323.87</ele>
        <time>2018-12-06T08:58:49Z</time>
      </trkpt>
      <trkpt lat="44.27717" lon="6.08019">
        <ele>1323.87</ele>
        <time>2018-12-06T08:59:02Z</time>
      </trkpt>
      <trkpt lat="44.27721" lon="6.08022">
        <ele>1325.31</ele>
        <time>2018-12-06T08:59:14Z</time>
      </trkpt>
      <trkpt lat="44.27725" lon="6.08022">
        <ele>1326.76</ele>
        <time>2018-12-06T08:59:26Z</time>
      </trkpt>
      <trkpt lat="44.27726" lon="6.08026">
        <ele>1327.24</ele>
        <time>2018-12-06T08:59:42Z</time>
      </trkpt>
      <trkpt lat="44.27728" lon="6.08023">
        <ele>1327.72</ele>
        <time>2018-12-06T09:00:00Z</time>
      </trkpt>
      <trkpt lat="44.27736" lon="6.08022">
        <ele>1330.12</ele>
        <time>2018-12-06T09:00:17Z</time>
      </trkpt>
      <trkpt lat="44.27745" lon="6.0802">
        <ele>1332.52</ele>
        <time>2018-12-06T09:00:32Z</time>
      </trkpt>
      <trkpt lat="44.27753" lon="6.08014">
        <ele>1333.49</ele>
        <time>2018-12-06T09:00:46Z</time>
      </trkpt>
      <trkpt lat="44.27757" lon="6.0801">
        <ele>1333.49</ele>
        <time>2018-12-06T09:00:51Z</time>
      </trkpt>
      <trkpt lat="44.27766" lon="6.08006">
        <ele>1333.97</ele>
        <time>2018-12-06T09:01:06Z</time>
      </trkpt>
      <trkpt lat="44.27773" lon="6.08002">
        <ele>1334.45</ele>
        <time>2018-12-06T09:01:18Z</time>
      </trkpt>
      <trkpt lat="44.27781" lon="6.07999">
        <ele>1336.37</ele>
        <time>2018-12-06T09:01:31Z</time>
      </trkpt>
      <trkpt lat="44.27788" lon="6.07995">
        <ele>1337.33</ele>
        <time>2018-12-06T09:01:45Z</time>
      </trkpt>
      <trkpt lat="44.27793" lon="6.07997">
        <ele>1339.25</ele>
        <time>2018-12-06T09:02:00Z</time>
      </trkpt>
      <trkpt lat="44.27792" lon="6.08001">
        <ele>1340.22</ele>
        <time>2018-12-06T09:02:12Z</time>
      </trkpt>
      <trkpt lat="44.27789" lon="6.08006">
        <ele>1341.66</ele>
        <time>2018-12-06T09:02:25Z</time>
      </trkpt>
      <trkpt lat="44.27782" lon="6.08007">
        <ele>1341.66</ele>
        <time>2018-12-06T09:02:37Z</time>
      </trkpt>
      <trkpt lat="44.27779" lon="6.08013">
        <ele>1342.62</ele>
        <time>2018-12-06T09:02:47Z</time>
      </trkpt>
      <trkpt lat="44.27776" lon="6.08015">
        <ele>1343.1</ele>
        <time>2018-12-06T09:03:01Z</time>
      </trkpt>
      <trkpt lat="44.27773" lon="6.08018">
        <ele>1343.58</ele>
        <time>2018-12-06T09:03:15Z</time>
      </trkpt>
      <trkpt lat="44.27775" lon="6.08024">
        <ele>1345.5</ele>
        <time>2018-12-06T09:03:28Z</time>
      </trkpt>
      <trkpt lat="44.27784" lon="6.08023">
        <ele>1347.91</ele>
        <time>2018-12-06T09:03:44Z</time>
      </trkpt>
      <trkpt lat="44.27785" lon="6.08028">
        <ele>1350.79</ele>
        <time>2018-12-06T09:03:55Z</time>
      </trkpt>
      <trkpt lat="44.2778" lon="6.08034">
        <ele>1350.79</ele>
        <time>2018-12-06T09:04:06Z</time>
      </trkpt>
      <trkpt lat="44.27776" lon="6.08036">
        <ele>1351.27</ele>
        <time>2018-12-06T09:04:18Z</time>
      </trkpt>
      <trkpt lat="44.27773" lon="6.08047">
        <ele>1353.67</ele>
        <time>2018-12-06T09:04:33Z</time>
      </trkpt>
      <trkpt lat="44.27767" lon="6.08051">
        <ele>1353.67</ele>
        <time>2018-12-06T09:04:47Z</time>
      </trkpt>
      <trkpt lat="44.27764" lon="6.08058">
        <ele>1353.67</ele>
        <time>2018-12-06T09:04:54Z</time>
      </trkpt>
      <trkpt lat="44.27758" lon="6.08062">
        <ele>1354.15</ele>
        <time>2018-12-06T09:05:08Z</time>
      </trkpt>
      <trkpt lat="44.27757" lon="6.08064">
        <ele>1353.67</ele>
        <time>2018-12-06T09:05:31Z</time>
      </trkpt>
      <trkpt lat="44.27758" lon="6.08071">
        <ele>1355.6</ele>
        <time>2018-12-06T09:05:50Z</time>
      </trkpt>
      <trkpt lat="44.27755" lon="6.08069">
        <ele>1356.08</ele>
        <time>2018-12-06T09:06:08Z</time>
      </trkpt>
      <trkpt lat="44.27756" lon="6.08073">
        <ele>1357.04</ele>
        <time>2018-12-06T09:06:21Z</time>
      </trkpt>
      <trkpt lat="44.27754" lon="6.08074">
        <ele>1357.52</ele>
        <time>2018-12-06T09:06:34Z</time>
      </trkpt>
      <trkpt lat="44.27753" lon="6.08075">
        <ele>1357.52</ele>
        <time>2018-12-06T09:07:01Z</time>
      </trkpt>
      <trkpt lat="44.27755" lon="6.08074">
        <ele>1358</ele>
        <time>2018-12-06T09:07:22Z</time>
      </trkpt>
      <trkpt lat="44.27756" lon="6.08077">
        <ele>1359.92</ele>
        <time>2018-12-06T09:07:39Z</time>
      </trkpt>
      <trkpt lat="44.27754" lon="6.0808">
        <ele>1360.4</ele>
        <time>2018-12-06T09:07:54Z</time>
      </trkpt>
      <trkpt lat="44.27755" lon="6.08082">
        <ele>1361.84</ele>
        <time>2018-12-06T09:08:10Z</time>
      </trkpt>
      <trkpt lat="44.27761" lon="6.08081">
        <ele>1363.29</ele>
        <time>2018-12-06T09:08:24Z</time>
      </trkpt>
      <trkpt lat="44.27763" lon="6.08083">
        <ele>1364.73</ele>
        <time>2018-12-06T09:08:37Z</time>
      </trkpt>
      <trkpt lat="44.27766" lon="6.08084">
        <ele>1366.65</ele>
        <time>2018-12-06T09:08:51Z</time>
      </trkpt>
      <trkpt lat="44.27765" lon="6.08087">
        <ele>1367.13</ele>
        <time>2018-12-06T09:09:05Z</time>
      </trkpt>
      <trkpt lat="44.27763" lon="6.0809">
        <ele>1368.09</ele>
        <time>2018-12-06T09:09:24Z</time>
      </trkpt>
      <trkpt lat="44.27761" lon="6.08092">
        <ele>1368.57</ele>
        <time>2018-12-06T09:09:43Z</time>
      </trkpt>
      <trkpt lat="44.27759" lon="6.08095">
        <ele>1369.05</ele>
        <time>2018-12-06T09:09:56Z</time>
      </trkpt>
      <trkpt lat="44.2776" lon="6.08095">
        <ele>1370.02</ele>
        <time>2018-12-06T09:10:13Z</time>
      </trkpt>
      <trkpt lat="44.2776" lon="6.08096">
        <ele>1370.5</ele>
        <time>2018-12-06T09:10:29Z</time>
      </trkpt>
      <trkpt lat="44.27761" lon="6.08098">
        <ele>1371.46</ele>
        <time>2018-12-06T09:10:43Z</time>
      </trkpt>
      <trkpt lat="44.27761" lon="6.08095">
        <ele>1371.46</ele>
        <time>2018-12-06T09:11:02Z</time>
      </trkpt>
      <trkpt lat="44.27763" lon="6.08096">
        <ele>1372.42</ele>
        <time>2018-12-06T09:11:17Z</time>
      </trkpt>
      <trkpt lat="44.27764" lon="6.08096">
        <ele>1372.9</ele>
        <time>2018-12-06T09:11:30Z</time>
      </trkpt>
      <trkpt lat="44.27766" lon="6.08096">
        <ele>1373.86</ele>
        <time>2018-12-06T09:11:45Z</time>
      </trkpt>
      <trkpt lat="44.27767" lon="6.08099">
        <ele>1375.78</ele>
        <time>2018-12-06T09:12:04Z</time>
      </trkpt>
      <trkpt lat="44.27769" lon="6.08101">
        <ele>1377.23</ele>
        <time>2018-12-06T09:12:21Z</time>
      </trkpt>
      <trkpt lat="44.27771" lon="6.081">
        <ele>1378.67</ele>
        <time>2018-12-06T09:12:34Z</time>
      </trkpt>
      <trkpt lat="44.27775" lon="6.081">
        <ele>1380.59</ele>
        <time>2018-12-06T09:12:49Z</time>
      </trkpt>
      <trkpt lat="44.27782" lon="6.08102">
        <ele>1381.55</ele>
        <time>2018-12-06T09:13:02Z</time>
      </trkpt>
      <trkpt lat="44.27783" lon="6.0811">
        <ele>1384.44</ele>
        <time>2018-12-06T09:13:14Z</time>
      </trkpt>
      <trkpt lat="44.27789" lon="6.08113">
        <ele>1385.4</ele>
        <time>2018-12-06T09:13:27Z</time>
      </trkpt>
      <trkpt lat="44.27793" lon="6.08115">
        <ele>1385.88</ele>
        <time>2018-12-06T09:13:43Z</time>
      </trkpt>
      <trkpt lat="44.27796" lon="6.08125">
        <ele>1388.76</ele>
        <time>2018-12-06T09:13:57Z</time>
      </trkpt>
      <trkpt lat="44.27798" lon="6.0813">
        <ele>1391.17</ele>
        <time>2018-12-06T09:14:15Z</time>
      </trkpt>
      <trkpt lat="44.27801" lon="6.08135">
        <ele>1391.17</ele>
        <time>2018-12-06T09:14:35Z</time>
      </trkpt>
      <trkpt lat="44.27803" lon="6.08135">
        <ele>1390.68</ele>
        <time>2018-12-06T09:14:59Z</time>
      </trkpt>
      <trkpt lat="44.27807" lon="6.08134">
        <ele>1390.68</ele>
        <time>2018-12-06T09:15:24Z</time>
      </trkpt>
      <trkpt lat="44.2781" lon="6.08132">
        <ele>1390.68</ele>
        <time>2018-12-06T09:15:46Z</time>
      </trkpt>
      <trkpt lat="44.27809" lon="6.08133">
        <ele>1390.68</ele>
        <time>2018-12-06T09:16:14Z</time>
      </trkpt>
      <trkpt lat="44.27806" lon="6.08135">
        <ele>1390.68</ele>
        <time>2018-12-06T09:16:31Z</time>
      </trkpt>
      <trkpt lat="44.27808" lon="6.08132">
        <ele>1390.68</ele>
        <time>2018-12-06T09:16:43Z</time>
      </trkpt>
      <trkpt lat="44.27814" lon="6.08135">
        <ele>1390.2</ele>
        <time>2018-12-06T09:16:51Z</time>
      </trkpt>
      <trkpt lat="44.27829" lon="6.08132">
        <ele>1389.24</ele>
        <time>2018-12-06T09:17:08Z</time>
      </trkpt>
      <trkpt lat="44.27842" lon="6.08133">
        <ele>1388.28</ele>
        <time>2018-12-06T09:17:21Z</time>
      </trkpt>
      <trkpt lat="44.27855" lon="6.08139">
        <ele>1388.28</ele>
        <time>2018-12-06T09:17:34Z</time>
      </trkpt>
      <trkpt lat="44.27865" lon="6.08147">
        <ele>1389.24</ele>
        <time>2018-12-06T09:17:47Z</time>
      </trkpt>
      <trkpt lat="44.27871" lon="6.08158">
        <ele>1389.24</ele>
        <time>2018-12-06T09:17:57Z</time>
      </trkpt>
      <trkpt lat="44.27872" lon="6.0816">
        <ele>1390.2</ele>
        <time>2018-12-06T09:17:59Z</time>
      </trkpt>
      <trkpt lat="44.27884" lon="6.08177">
        <ele>1389.72</ele>
        <time>2018-12-06T09:18:16Z</time>
      </trkpt>
      <trkpt lat="44.2789" lon="6.0819">
        <ele>1392.61</ele>
        <time>2018-12-06T09:18:30Z</time>
      </trkpt>
      <trkpt lat="44.27896" lon="6.08202">
        <ele>1394.05</ele>
        <time>2018-12-06T09:18:43Z</time>
      </trkpt>
      <trkpt lat="44.27902" lon="6.08211">
        <ele>1395.97</ele>
        <time>2018-12-06T09:18:56Z</time>
      </trkpt>
      <trkpt lat="44.27903" lon="6.08215">
        <ele>1396.45</ele>
        <time>2018-12-06T09:19:12Z</time>
      </trkpt>
      <trkpt lat="44.27901" lon="6.08227">
        <ele>1399.34</ele>
        <time>2018-12-06T09:19:26Z</time>
      </trkpt>
      <trkpt lat="44.27897" lon="6.08239">
        <ele>1401.26</ele>
        <time>2018-12-06T09:19:41Z</time>
      </trkpt>
      <trkpt lat="44.27891" lon="6.08254">
        <ele>1403.66</ele>
        <time>2018-12-06T09:19:58Z</time>
      </trkpt>
      <trkpt lat="44.27887" lon="6.08263">
        <ele>1405.58</ele>
        <time>2018-12-06T09:20:12Z</time>
      </trkpt>
      <trkpt lat="44.27889" lon="6.08271">
        <ele>1407.03</ele>
        <time>2018-12-06T09:20:27Z</time>
      </trkpt>
      <trkpt lat="44.2789" lon="6.08286">
        <ele>1408.47</ele>
        <time>2018-12-06T09:20:42Z</time>
      </trkpt>
      <trkpt lat="44.27889" lon="6.08299">
        <ele>1409.91</ele>
        <time>2018-12-06T09:20:57Z</time>
      </trkpt>
      <trkpt lat="44.27889" lon="6.08311">
        <ele>1410.87</ele>
        <time>2018-12-06T09:21:09Z</time>
      </trkpt>
      <trkpt lat="44.27886" lon="6.08324">
        <ele>1412.31</ele>
        <time>2018-12-06T09:21:23Z</time>
      </trkpt>
      <trkpt lat="44.27883" lon="6.08341">
        <ele>1413.76</ele>
        <time>2018-12-06T09:21:38Z</time>
      </trkpt>
      <trkpt lat="44.27882" lon="6.08354">
        <ele>1415.68</ele>
        <time>2018-12-06T09:21:51Z</time>
      </trkpt>
      <trkpt lat="44.27877" lon="6.08369">
        <ele>1417.6</ele>
        <time>2018-12-06T09:22:06Z</time>
      </trkpt>
      <trkpt lat="44.27875" lon="6.08378">
        <ele>1418.08</ele>
        <time>2018-12-06T09:22:20Z</time>
      </trkpt>
      <trkpt lat="44.27882" lon="6.08395">
        <ele>1420</ele>
        <time>2018-12-06T09:22:35Z</time>
      </trkpt>
      <trkpt lat="44.27881" lon="6.08413">
        <ele>1421.93</ele>
        <time>2018-12-06T09:22:51Z</time>
      </trkpt>
      <trkpt lat="44.27883" lon="6.08427">
        <ele>1422.89</ele>
        <time>2018-12-06T09:23:05Z</time>
      </trkpt>
      <trkpt lat="44.27883" lon="6.08441">
        <ele>1425.29</ele>
        <time>2018-12-06T09:23:18Z</time>
      </trkpt>
      <trkpt lat="44.27883" lon="6.08456">
        <ele>1426.73</ele>
        <time>2018-12-06T09:23:32Z</time>
      </trkpt>
      <trkpt lat="44.27885" lon="6.0847">
        <ele>1428.66</ele>
        <time>2018-12-06T09:23:48Z</time>
      </trkpt>
      <trkpt lat="44.27886" lon="6.08481">
        <ele>1429.62</ele>
        <time>2018-12-06T09:24:02Z</time>
      </trkpt>
      <trkpt lat="44.27886" lon="6.08489">
        <ele>1431.54</ele>
        <time>2018-12-06T09:24:14Z</time>
      </trkpt>
      <trkpt lat="44.27886" lon="6.08491">
        <ele>1431.06</ele>
        <time>2018-12-06T09:24:50Z</time>
      </trkpt>
      <trkpt lat="44.27887" lon="6.08498">
        <ele>1432.02</ele>
        <time>2018-12-06T09:25:01Z</time>
      </trkpt>
      <trkpt lat="44.27889" lon="6.08512">
        <ele>1434.91</ele>
        <time>2018-12-06T09:25:17Z</time>
      </trkpt>
      <trkpt lat="44.27891" lon="6.08525">
        <ele>1437.79</ele>
        <time>2018-12-06T09:25:30Z</time>
      </trkpt>
      <trkpt lat="44.27892" lon="6.08529">
        <ele>1437.79</ele>
        <time>2018-12-06T09:25:33Z</time>
      </trkpt>
      <trkpt lat="44.2789" lon="6.08546">
        <ele>1441.15</ele>
        <time>2018-12-06T09:25:49Z</time>
      </trkpt>
      <trkpt lat="44.27889" lon="6.08559">
        <ele>1443.08</ele>
        <time>2018-12-06T09:26:03Z</time>
      </trkpt>
      <trkpt lat="44.27885" lon="6.0857">
        <ele>1445.96</ele>
        <time>2018-12-06T09:26:18Z</time>
      </trkpt>
      <trkpt lat="44.27884" lon="6.08575">
        <ele>1447.4</ele>
        <time>2018-12-06T09:26:34Z</time>
      </trkpt>
      <trkpt lat="44.27887" lon="6.08579">
        <ele>1447.88</ele>
        <time>2018-12-06T09:26:54Z</time>
      </trkpt>
      <trkpt lat="44.2789" lon="6.08589">
        <ele>1450.77</ele>
        <time>2018-12-06T09:27:09Z</time>
      </trkpt>
      <trkpt lat="44.27894" lon="6.08593">
        <ele>1450.77</ele>
        <time>2018-12-06T09:27:29Z</time>
      </trkpt>
      <trkpt lat="44.27894" lon="6.086">
        <ele>1452.21</ele>
        <time>2018-12-06T09:27:42Z</time>
      </trkpt>
      <trkpt lat="44.27889" lon="6.08614">
        <ele>1452.21</ele>
        <time>2018-12-06T09:27:55Z</time>
      </trkpt>
      <trkpt lat="44.27886" lon="6.08624">
        <ele>1455.57</ele>
        <time>2018-12-06T09:28:06Z</time>
      </trkpt>
      <trkpt lat="44.27887" lon="6.08624">
        <ele>1454.61</ele>
        <time>2018-12-06T09:28:07Z</time>
      </trkpt>
      <trkpt lat="44.27892" lon="6.08631">
        <ele>1455.57</ele>
        <time>2018-12-06T09:28:16Z</time>
      </trkpt>
      <trkpt lat="44.27898" lon="6.08644">
        <ele>1459.42</ele>
        <time>2018-12-06T09:28:30Z</time>
      </trkpt>
      <trkpt lat="44.27904" lon="6.08658">
        <ele>1461.82</ele>
        <time>2018-12-06T09:28:45Z</time>
      </trkpt>
      <trkpt lat="44.27911" lon="6.08672">
        <ele>1463.74</ele>
        <time>2018-12-06T09:29:00Z</time>
      </trkpt>
      <trkpt lat="44.27909" lon="6.08679">
        <ele>1466.63</ele>
        <time>2018-12-06T09:29:16Z</time>
      </trkpt>
      <trkpt lat="44.27907" lon="6.08692">
        <ele>1468.55</ele>
        <time>2018-12-06T09:29:31Z</time>
      </trkpt>
      <trkpt lat="44.27909" lon="6.08704">
        <ele>1471.44</ele>
        <time>2018-12-06T09:29:47Z</time>
      </trkpt>
      <trkpt lat="44.27913" lon="6.08715">
        <ele>1472.88</ele>
        <time>2018-12-06T09:30:01Z</time>
      </trkpt>
      <trkpt lat="44.27916" lon="6.08723">
        <ele>1474.8</ele>
        <time>2018-12-06T09:30:16Z</time>
      </trkpt>
      <trkpt lat="44.27916" lon="6.08727">
        <ele>1475.76</ele>
        <time>2018-12-06T09:30:32Z</time>
      </trkpt>
      <trkpt lat="44.27913" lon="6.08731">
        <ele>1477.2</ele>
        <time>2018-12-06T09:30:45Z</time>
      </trkpt>
      <trkpt lat="44.27914" lon="6.08742">
        <ele>1478.65</ele>
        <time>2018-12-06T09:31:01Z</time>
      </trkpt>
      <trkpt lat="44.27913" lon="6.08746">
        <ele>1480.57</ele>
        <time>2018-12-06T09:31:07Z</time>
      </trkpt>
      <trkpt lat="44.27911" lon="6.08746">
        <ele>1481.05</ele>
        <time>2018-12-06T09:31:22Z</time>
      </trkpt>
      <trkpt lat="44.27909" lon="6.08753">
        <ele>1481.53</ele>
        <time>2018-12-06T09:31:39Z</time>
      </trkpt>
      <trkpt lat="44.2791" lon="6.08752">
        <ele>1481.53</ele>
        <time>2018-12-06T09:31:50Z</time>
      </trkpt>
      <trkpt lat="44.2791" lon="6.08754">
        <ele>1481.53</ele>
        <time>2018-12-06T09:32:01Z</time>
      </trkpt>
      <trkpt lat="44.2791" lon="6.08759">
        <ele>1482.01</ele>
        <time>2018-12-06T09:32:16Z</time>
      </trkpt>
      <trkpt lat="44.27908" lon="6.08757">
        <ele>1481.53</ele>
        <time>2018-12-06T09:32:40Z</time>
      </trkpt>
      <trkpt lat="44.27908" lon="6.08754">
        <ele>1481.05</ele>
        <time>2018-12-06T09:33:26Z</time>
      </trkpt>
      <trkpt lat="44.27908" lon="6.08758">
        <ele>1481.53</ele>
        <time>2018-12-06T09:33:56Z</time>
      </trkpt>
      <trkpt lat="44.27908" lon="6.0876">
        <ele>1481.53</ele>
        <time>2018-12-06T09:34:39Z</time>
      </trkpt>
      <trkpt lat="44.27908" lon="6.0876">
        <ele>1481.53</ele>
        <time>2018-12-06T09:35:18Z</time>
      </trkpt>
      <trkpt lat="44.27905" lon="6.08758">
        <ele>1481.53</ele>
        <time>2018-12-06T09:35:58Z</time>
      </trkpt>
      <trkpt lat="44.27907" lon="6.08759">
        <ele>1481.53</ele>
        <time>2018-12-06T09:36:38Z</time>
      </trkpt>
      <trkpt lat="44.27905" lon="6.0876">
        <ele>1482.01</ele>
        <time>2018-12-06T09:37:10Z</time>
      </trkpt>
      <trkpt lat="44.27906" lon="6.08757">
        <ele>1482.49</ele>
        <time>2018-12-06T09:37:43Z</time>
      </trkpt>
      <trkpt lat="44.27905" lon="6.08756">
        <ele>1482.49</ele>
        <time>2018-12-06T09:37:59Z</time>
      </trkpt>
      <trkpt lat="44.2791" lon="6.08758">
        <ele>1483.45</ele>
        <time>2018-12-06T09:38:10Z</time>
      </trkpt>
      <trkpt lat="44.27909" lon="6.08758">
        <ele>1483.93</ele>
        <time>2018-12-06T09:38:29Z</time>
      </trkpt>
      <trkpt lat="44.27911" lon="6.08759">
        <ele>1483.93</ele>
        <time>2018-12-06T09:38:58Z</time>
      </trkpt>
      <trkpt lat="44.27911" lon="6.08758">
        <ele>1484.41</ele>
        <time>2018-12-06T09:39:27Z</time>
      </trkpt>
      <trkpt lat="44.2791" lon="6.08761">
        <ele>1484.89</ele>
        <time>2018-12-06T09:39:48Z</time>
      </trkpt>
      <trkpt lat="44.27911" lon="6.08762">
        <ele>1483.93</ele>
        <time>2018-12-06T09:39:59Z</time>
      </trkpt>
      <trkpt lat="44.27912" lon="6.08764">
        <ele>1487.3</ele>
        <time>2018-12-06T09:40:07Z</time>
      </trkpt>
      <trkpt lat="44.27912" lon="6.08775">
        <ele>1488.74</ele>
        <time>2018-12-06T09:40:21Z</time>
      </trkpt>
      <trkpt lat="44.27913" lon="6.08784">
        <ele>1491.14</ele>
        <time>2018-12-06T09:40:36Z</time>
      </trkpt>
      <trkpt lat="44.27914" lon="6.08791">
        <ele>1494.03</ele>
        <time>2018-12-06T09:40:51Z</time>
      </trkpt>
      <trkpt lat="44.27916" lon="6.08797">
        <ele>1496.43</ele>
        <time>2018-12-06T09:41:06Z</time>
      </trkpt>
      <trkpt lat="44.27918" lon="6.08803">
        <ele>1497.87</ele>
        <time>2018-12-06T09:41:19Z</time>
      </trkpt>
      <trkpt lat="44.27919" lon="6.08811">
        <ele>1500.27</ele>
        <time>2018-12-06T09:41:36Z</time>
      </trkpt>
      <trkpt lat="44.27919" lon="6.08818">
        <ele>1502.2</ele>
        <time>2018-12-06T09:41:52Z</time>
      </trkpt>
      <trkpt lat="44.27921" lon="6.08826">
        <ele>1504.12</ele>
        <time>2018-12-06T09:42:07Z</time>
      </trkpt>
      <trkpt lat="44.27921" lon="6.08833">
        <ele>1506.04</ele>
        <time>2018-12-06T09:42:21Z</time>
      </trkpt>
      <trkpt lat="44.27923" lon="6.08841">
        <ele>1507.48</ele>
        <time>2018-12-06T09:42:34Z</time>
      </trkpt>
      <trkpt lat="44.27929" lon="6.08851">
        <ele>1510.85</ele>
        <time>2018-12-06T09:42:52Z</time>
      </trkpt>
      <trkpt lat="44.27935" lon="6.08856">
        <ele>1512.77</ele>
        <time>2018-12-06T09:43:06Z</time>
      </trkpt>
      <trkpt lat="44.27939" lon="6.08862">
        <ele>1514.21</ele>
        <time>2018-12-06T09:43:20Z</time>
      </trkpt>
      <trkpt lat="44.27945" lon="6.08865">
        <ele>1516.14</ele>
        <time>2018-12-06T09:43:33Z</time>
      </trkpt>
      <trkpt lat="44.27952" lon="6.0887">
        <ele>1518.06</ele>
        <time>2018-12-06T09:43:46Z</time>
      </trkpt>
      <trkpt lat="44.27956" lon="6.08875">
        <ele>1519.98</ele>
        <time>2018-12-06T09:44:01Z</time>
      </trkpt>
      <trkpt lat="44.27957" lon="6.08884">
        <ele>1521.9</ele>
        <time>2018-12-06T09:44:17Z</time>
      </trkpt>
      <trkpt lat="44.27955" lon="6.08892">
        <ele>1523.83</ele>
        <time>2018-12-06T09:44:31Z</time>
      </trkpt>
      <trkpt lat="44.27955" lon="6.08898">
        <ele>1525.75</ele>
        <time>2018-12-06T09:44:46Z</time>
      </trkpt>
      <trkpt lat="44.27957" lon="6.08904">
        <ele>1527.67</ele>
        <time>2018-12-06T09:44:57Z</time>
      </trkpt>
      <trkpt lat="44.27959" lon="6.0891">
        <ele>1529.59</ele>
        <time>2018-12-06T09:45:11Z</time>
      </trkpt>
      <trkpt lat="44.27959" lon="6.08914">
        <ele>1532</ele>
        <time>2018-12-06T09:45:26Z</time>
      </trkpt>
      <trkpt lat="44.2796" lon="6.08923">
        <ele>1533.92</ele>
        <time>2018-12-06T09:45:40Z</time>
      </trkpt>
      <trkpt lat="44.27961" lon="6.0893">
        <ele>1536.32</ele>
        <time>2018-12-06T09:45:54Z</time>
      </trkpt>
      <trkpt lat="44.27961" lon="6.08937">
        <ele>1537.77</ele>
        <time>2018-12-06T09:46:06Z</time>
      </trkpt>
      <trkpt lat="44.27965" lon="6.08941">
        <ele>1539.69</ele>
        <time>2018-12-06T09:46:20Z</time>
      </trkpt>
      <trkpt lat="44.2797" lon="6.08943">
        <ele>1541.61</ele>
        <time>2018-12-06T09:46:32Z</time>
      </trkpt>
      <trkpt lat="44.27967" lon="6.08952">
        <ele>1544.01</ele>
        <time>2018-12-06T09:46:47Z</time>
      </trkpt>
      <trkpt lat="44.27969" lon="6.08959">
        <ele>1545.46</ele>
        <time>2018-12-06T09:47:01Z</time>
      </trkpt>
      <trkpt lat="44.27968" lon="6.08968">
        <ele>1547.38</ele>
        <time>2018-12-06T09:47:14Z</time>
      </trkpt>
      <trkpt lat="44.27972" lon="6.08977">
        <ele>1549.3</ele>
        <time>2018-12-06T09:47:28Z</time>
      </trkpt>
      <trkpt lat="44.27977" lon="6.08984">
        <ele>1551.71</ele>
        <time>2018-12-06T09:47:43Z</time>
      </trkpt>
      <trkpt lat="44.27982" lon="6.08989">
        <ele>1553.15</ele>
        <time>2018-12-06T09:48:02Z</time>
      </trkpt>
      <trkpt lat="44.27985" lon="6.08997">
        <ele>1556.03</ele>
        <time>2018-12-06T09:48:21Z</time>
      </trkpt>
      <trkpt lat="44.27985" lon="6.09003">
        <ele>1557.95</ele>
        <time>2018-12-06T09:48:33Z</time>
      </trkpt>
      <trkpt lat="44.27991" lon="6.09003">
        <ele>1559.4</ele>
        <time>2018-12-06T09:48:47Z</time>
      </trkpt>
      <trkpt lat="44.27997" lon="6.09005">
        <ele>1561.8</ele>
        <time>2018-12-06T09:49:01Z</time>
      </trkpt>
      <trkpt lat="44.28003" lon="6.09006">
        <ele>1564.2</ele>
        <time>2018-12-06T09:49:15Z</time>
      </trkpt>
      <trkpt lat="44.2801" lon="6.09012">
        <ele>1567.57</ele>
        <time>2018-12-06T09:49:34Z</time>
      </trkpt>
      <trkpt lat="44.28009" lon="6.09023">
        <ele>1569.01</ele>
        <time>2018-12-06T09:49:52Z</time>
      </trkpt>
      <trkpt lat="44.2801" lon="6.09032">
        <ele>1571.41</ele>
        <time>2018-12-06T09:50:08Z</time>
      </trkpt>
      <trkpt lat="44.28012" lon="6.09035">
        <ele>1573.33</ele>
        <time>2018-12-06T09:50:22Z</time>
      </trkpt>
      <trkpt lat="44.28013" lon="6.09034">
        <ele>1572.85</ele>
        <time>2018-12-06T09:50:52Z</time>
      </trkpt>
      <trkpt lat="44.2801" lon="6.09034">
        <ele>1573.82</ele>
        <time>2018-12-06T09:51:09Z</time>
      </trkpt>
      <trkpt lat="44.28012" lon="6.0903">
        <ele>1574.3</ele>
        <time>2018-12-06T09:51:36Z</time>
      </trkpt>
      <trkpt lat="44.28013" lon="6.09031">
        <ele>1574.3</ele>
        <time>2018-12-06T09:51:57Z</time>
      </trkpt>
      <trkpt lat="44.28012" lon="6.09028">
        <ele>1574.3</ele>
        <time>2018-12-06T09:52:23Z</time>
      </trkpt>
      <trkpt lat="44.28013" lon="6.09028">
        <ele>1573.82</ele>
        <time>2018-12-06T09:52:48Z</time>
      </trkpt>
      <trkpt lat="44.28013" lon="6.0903">
        <ele>1575.26</ele>
        <time>2018-12-06T09:53:16Z</time>
      </trkpt>
      <trkpt lat="44.28013" lon="6.09031">
        <ele>1574.78</ele>
        <time>2018-12-06T09:53:40Z</time>
      </trkpt>
      <trkpt lat="44.2801" lon="6.09033">
        <ele>1574.78</ele>
        <time>2018-12-06T09:53:59Z</time>
      </trkpt>
      <trkpt lat="44.28012" lon="6.09033">
        <ele>1574.3</ele>
        <time>2018-12-06T09:54:18Z</time>
      </trkpt>
      <trkpt lat="44.28011" lon="6.09033">
        <ele>1575.26</ele>
        <time>2018-12-06T09:54:44Z</time>
      </trkpt>
      <trkpt lat="44.28013" lon="6.09041">
        <ele>1575.26</ele>
        <time>2018-12-06T09:55:13Z</time>
      </trkpt>
      <trkpt lat="44.28015" lon="6.09047">
        <ele>1576.22</ele>
        <time>2018-12-06T09:55:27Z</time>
      </trkpt>
      <trkpt lat="44.28011" lon="6.09054">
        <ele>1578.62</ele>
        <time>2018-12-06T09:55:40Z</time>
      </trkpt>
      <trkpt lat="44.28006" lon="6.09057">
        <ele>1580.54</ele>
        <time>2018-12-06T09:55:56Z</time>
      </trkpt>
      <trkpt lat="44.28" lon="6.09062">
        <ele>1583.43</ele>
        <time>2018-12-06T09:56:10Z</time>
      </trkpt>
      <trkpt lat="44.27993" lon="6.09065">
        <ele>1585.35</ele>
        <time>2018-12-06T09:56:24Z</time>
      </trkpt>
      <trkpt lat="44.27989" lon="6.0907">
        <ele>1587.75</ele>
        <time>2018-12-06T09:56:39Z</time>
      </trkpt>
      <trkpt lat="44.27988" lon="6.09078">
        <ele>1590.16</ele>
        <time>2018-12-06T09:56:54Z</time>
      </trkpt>
      <trkpt lat="44.27985" lon="6.09088">
        <ele>1591.12</ele>
        <time>2018-12-06T09:57:11Z</time>
      </trkpt>
      <trkpt lat="44.27982" lon="6.09099">
        <ele>1594</ele>
        <time>2018-12-06T09:57:25Z</time>
      </trkpt>
      <trkpt lat="44.27978" lon="6.09107">
        <ele>1594.96</ele>
        <time>2018-12-06T09:57:38Z</time>
      </trkpt>
      <trkpt lat="44.27983" lon="6.09115">
        <ele>1597.37</ele>
        <time>2018-12-06T09:57:54Z</time>
      </trkpt>
      <trkpt lat="44.27986" lon="6.09123">
        <ele>1599.77</ele>
        <time>2018-12-06T09:58:11Z</time>
      </trkpt>
      <trkpt lat="44.27989" lon="6.09127">
        <ele>1602.17</ele>
        <time>2018-12-06T09:58:26Z</time>
      </trkpt>
      <trkpt lat="44.27996" lon="6.09128">
        <ele>1604.1</ele>
        <time>2018-12-06T09:58:40Z</time>
      </trkpt>
      <trkpt lat="44.27997" lon="6.0913">
        <ele>1604.58</ele>
        <time>2018-12-06T09:58:52Z</time>
      </trkpt>
      <trkpt lat="44.27998" lon="6.0913">
        <ele>1605.06</ele>
        <time>2018-12-06T09:59:21Z</time>
      </trkpt>
      <trkpt lat="44.27998" lon="6.09129">
        <ele>1604.58</ele>
        <time>2018-12-06T09:59:41Z</time>
      </trkpt>
      <trkpt lat="44.27998" lon="6.09129">
        <ele>1604.58</ele>
        <time>2018-12-06T09:59:42Z</time>
      </trkpt>
      <trkpt lat="44.28001" lon="6.09129">
        <ele>1605.06</ele>
        <time>2018-12-06T09:59:45Z</time>
      </trkpt>
      <trkpt lat="44.28004" lon="6.09131">
        <ele>1604.58</ele>
        <time>2018-12-06T09:59:48Z</time>
      </trkpt>
      <trkpt lat="44.28008" lon="6.09131">
        <ele>1605.06</ele>
        <time>2018-12-06T09:59:53Z</time>
      </trkpt>
      <trkpt lat="44.28016" lon="6.09135">
        <ele>1606.98</ele>
        <time>2018-12-06T10:00:06Z</time>
      </trkpt>
      <trkpt lat="44.28022" lon="6.0914">
        <ele>1608.42</ele>
        <time>2018-12-06T10:00:19Z</time>
      </trkpt>
      <trkpt lat="44.28027" lon="6.09141">
        <ele>1610.35</ele>
        <time>2018-12-06T10:00:33Z</time>
      </trkpt>
      <trkpt lat="44.2803" lon="6.09143">
        <ele>1611.31</ele>
        <time>2018-12-06T10:00:49Z</time>
      </trkpt>
      <trkpt lat="44.28033" lon="6.09143">
        <ele>1612.75</ele>
        <time>2018-12-06T10:01:02Z</time>
      </trkpt>
      <trkpt lat="44.28034" lon="6.09145">
        <ele>1614.19</ele>
        <time>2018-12-06T10:01:17Z</time>
      </trkpt>
      <trkpt lat="44.28034" lon="6.09144">
        <ele>1615.15</ele>
        <time>2018-12-06T10:01:24Z</time>
      </trkpt>
      <trkpt lat="44.28041" lon="6.09146">
        <ele>1615.63</ele>
        <time>2018-12-06T10:01:37Z</time>
      </trkpt>
      <trkpt lat="44.28047" lon="6.09153">
        <ele>1617.07</ele>
        <time>2018-12-06T10:01:50Z</time>
      </trkpt>
      <trkpt lat="44.28054" lon="6.09157">
        <ele>1617.07</ele>
        <time>2018-12-06T10:02:04Z</time>
      </trkpt>
      <trkpt lat="44.28057" lon="6.09159">
        <ele>1615.63</ele>
        <time>2018-12-06T10:02:08Z</time>
      </trkpt>
      <trkpt lat="44.28075" lon="6.09152">
        <ele>1616.59</ele>
        <time>2018-12-06T10:02:22Z</time>
      </trkpt>
      <trkpt lat="44.28083" lon="6.09156">
        <ele>1616.11</ele>
        <time>2018-12-06T10:02:38Z</time>
      </trkpt>
      <trkpt lat="44.28089" lon="6.09163">
        <ele>1617.07</ele>
        <time>2018-12-06T10:02:50Z</time>
      </trkpt>
      <trkpt lat="44.28092" lon="6.09168">
        <ele>1618.52</ele>
        <time>2018-12-06T10:03:02Z</time>
      </trkpt>
      <trkpt lat="44.28097" lon="6.0917">
        <ele>1619.48</ele>
        <time>2018-12-06T10:03:15Z</time>
      </trkpt>
      <trkpt lat="44.28103" lon="6.09174">
        <ele>1621.4</ele>
        <time>2018-12-06T10:03:29Z</time>
      </trkpt>
      <trkpt lat="44.28109" lon="6.0918">
        <ele>1622.36</ele>
        <time>2018-12-06T10:03:41Z</time>
      </trkpt>
      <trkpt lat="44.28114" lon="6.09182">
        <ele>1623.32</ele>
        <time>2018-12-06T10:03:55Z</time>
      </trkpt>
      <trkpt lat="44.28119" lon="6.09188">
        <ele>1624.28</ele>
        <time>2018-12-06T10:04:08Z</time>
      </trkpt>
      <trkpt lat="44.28125" lon="6.09193">
        <ele>1625.73</ele>
        <time>2018-12-06T10:04:21Z</time>
      </trkpt>
      <trkpt lat="44.28128" lon="6.09197">
        <ele>1627.65</ele>
        <time>2018-12-06T10:04:35Z</time>
      </trkpt>
      <trkpt lat="44.28135" lon="6.09204">
        <ele>1628.61</ele>
        <time>2018-12-06T10:04:48Z</time>
      </trkpt>
      <trkpt lat="44.28142" lon="6.09211">
        <ele>1630.05</ele>
        <time>2018-12-06T10:05:02Z</time>
      </trkpt>
      <trkpt lat="44.28148" lon="6.09218">
        <ele>1631.49</ele>
        <time>2018-12-06T10:05:16Z</time>
      </trkpt>
      <trkpt lat="44.28153" lon="6.09223">
        <ele>1632.94</ele>
        <time>2018-12-06T10:05:31Z</time>
      </trkpt>
      <trkpt lat="44.28156" lon="6.09223">
        <ele>1634.86</ele>
        <time>2018-12-06T10:05:44Z</time>
      </trkpt>
      <trkpt lat="44.28162" lon="6.09223">
        <ele>1636.3</ele>
        <time>2018-12-06T10:05:59Z</time>
      </trkpt>
      <trkpt lat="44.28166" lon="6.09227">
        <ele>1637.74</ele>
        <time>2018-12-06T10:06:13Z</time>
      </trkpt>
      <trkpt lat="44.28171" lon="6.09228">
        <ele>1640.15</ele>
        <time>2018-12-06T10:06:29Z</time>
      </trkpt>
      <trkpt lat="44.28176" lon="6.09228">
        <ele>1641.59</ele>
        <time>2018-12-06T10:06:44Z</time>
      </trkpt>
      <trkpt lat="44.28178" lon="6.09233">
        <ele>1643.99</ele>
        <time>2018-12-06T10:07:00Z</time>
      </trkpt>
      <trkpt lat="44.28177" lon="6.0924">
        <ele>1645.43</ele>
        <time>2018-12-06T10:07:16Z</time>
      </trkpt>
      <trkpt lat="44.28177" lon="6.09244">
        <ele>1646.88</ele>
        <time>2018-12-06T10:07:28Z</time>
      </trkpt>
      <trkpt lat="44.2818" lon="6.09246">
        <ele>1648.8</ele>
        <time>2018-12-06T10:07:42Z</time>
      </trkpt>
      <trkpt lat="44.28183" lon="6.09246">
        <ele>1649.28</ele>
        <time>2018-12-06T10:07:59Z</time>
      </trkpt>
      <trkpt lat="44.28186" lon="6.09248">
        <ele>1650.72</ele>
        <time>2018-12-06T10:08:13Z</time>
      </trkpt>
      <trkpt lat="44.28187" lon="6.09246">
        <ele>1653.6</ele>
        <time>2018-12-06T10:08:20Z</time>
      </trkpt>
      <trkpt lat="44.28192" lon="6.09243">
        <ele>1653.6</ele>
        <time>2018-12-06T10:08:32Z</time>
      </trkpt>
      <trkpt lat="44.28197" lon="6.09244">
        <ele>1654.09</ele>
        <time>2018-12-06T10:08:44Z</time>
      </trkpt>
      <trkpt lat="44.28195" lon="6.09242">
        <ele>1655.05</ele>
        <time>2018-12-06T10:08:56Z</time>
      </trkpt>
      <trkpt lat="44.28193" lon="6.09243">
        <ele>1655.05</ele>
        <time>2018-12-06T10:09:28Z</time>
      </trkpt>
      <trkpt lat="44.28197" lon="6.09245">
        <ele>1655.05</ele>
        <time>2018-12-06T10:09:48Z</time>
      </trkpt>
      <trkpt lat="44.28201" lon="6.09244">
        <ele>1655.53</ele>
        <time>2018-12-06T10:10:02Z</time>
      </trkpt>
      <trkpt lat="44.28202" lon="6.09245">
        <ele>1656.01</ele>
        <time>2018-12-06T10:10:24Z</time>
      </trkpt>
      <trkpt lat="44.28203" lon="6.0925">
        <ele>1656.49</ele>
        <time>2018-12-06T10:10:41Z</time>
      </trkpt>
      <trkpt lat="44.28207" lon="6.09255">
        <ele>1657.45</ele>
        <time>2018-12-06T10:10:56Z</time>
      </trkpt>
      <trkpt lat="44.28209" lon="6.0926">
        <ele>1659.37</ele>
        <time>2018-12-06T10:11:12Z</time>
      </trkpt>
      <trkpt lat="44.28211" lon="6.09264">
        <ele>1660.33</ele>
        <time>2018-12-06T10:11:24Z</time>
      </trkpt>
      <trkpt lat="44.28213" lon="6.09267">
        <ele>1660.81</ele>
        <time>2018-12-06T10:11:37Z</time>
      </trkpt>
      <trkpt lat="44.28218" lon="6.09263">
        <ele>1662.74</ele>
        <time>2018-12-06T10:11:50Z</time>
      </trkpt>
      <trkpt lat="44.28221" lon="6.09271">
        <ele>1664.18</ele>
        <time>2018-12-06T10:12:03Z</time>
      </trkpt>
      <trkpt lat="44.28217" lon="6.09279">
        <ele>1665.62</ele>
        <time>2018-12-06T10:12:16Z</time>
      </trkpt>
      <trkpt lat="44.28223" lon="6.0928">
        <ele>1666.58</ele>
        <time>2018-12-06T10:12:31Z</time>
      </trkpt>
      <trkpt lat="44.28228" lon="6.09279">
        <ele>1668.51</ele>
        <time>2018-12-06T10:12:46Z</time>
      </trkpt>
      <trkpt lat="44.28229" lon="6.09287">
        <ele>1669.95</ele>
        <time>2018-12-06T10:12:59Z</time>
      </trkpt>
      <trkpt lat="44.28234" lon="6.0929">
        <ele>1670.91</ele>
        <time>2018-12-06T10:13:11Z</time>
      </trkpt>
      <trkpt lat="44.28239" lon="6.09297">
        <ele>1671.87</ele>
        <time>2018-12-06T10:13:26Z</time>
      </trkpt>
      <trkpt lat="44.28241" lon="6.09304">
        <ele>1673.31</ele>
        <time>2018-12-06T10:13:38Z</time>
      </trkpt>
      <trkpt lat="44.28244" lon="6.0931">
        <ele>1675.72</ele>
        <time>2018-12-06T10:13:54Z</time>
      </trkpt>
      <trkpt lat="44.28243" lon="6.09316">
        <ele>1676.68</ele>
        <time>2018-12-06T10:14:05Z</time>
      </trkpt>
      <trkpt lat="44.28245" lon="6.09323">
        <ele>1677.64</ele>
        <time>2018-12-06T10:14:17Z</time>
      </trkpt>
      <trkpt lat="44.28244" lon="6.09329">
        <ele>1679.56</ele>
        <time>2018-12-06T10:14:30Z</time>
      </trkpt>
      <trkpt lat="44.28242" lon="6.09336">
        <ele>1681</ele>
        <time>2018-12-06T10:14:45Z</time>
      </trkpt>
      <trkpt lat="44.28241" lon="6.09341">
        <ele>1682.93</ele>
        <time>2018-12-06T10:14:59Z</time>
      </trkpt>
      <trkpt lat="44.28238" lon="6.09343">
        <ele>1683.89</ele>
        <time>2018-12-06T10:15:10Z</time>
      </trkpt>
      <trkpt lat="44.28244" lon="6.09347">
        <ele>1685.81</ele>
        <time>2018-12-06T10:15:26Z</time>
      </trkpt>
      <trkpt lat="44.28248" lon="6.09351">
        <ele>1687.73</ele>
        <time>2018-12-06T10:15:42Z</time>
      </trkpt>
      <trkpt lat="44.28251" lon="6.09354">
        <ele>1689.17</ele>
        <time>2018-12-06T10:15:56Z</time>
      </trkpt>
      <trkpt lat="44.28255" lon="6.09357">
        <ele>1690.62</ele>
        <time>2018-12-06T10:16:12Z</time>
      </trkpt>
      <trkpt lat="44.2826" lon="6.09357">
        <ele>1692.54</ele>
        <time>2018-12-06T10:16:25Z</time>
      </trkpt>
      <trkpt lat="44.28257" lon="6.09363">
        <ele>1693.5</ele>
        <time>2018-12-06T10:16:41Z</time>
      </trkpt>
      <trkpt lat="44.2825" lon="6.0937">
        <ele>1695.42</ele>
        <time>2018-12-06T10:16:56Z</time>
      </trkpt>
      <trkpt lat="44.28245" lon="6.09375">
        <ele>1696.38</ele>
        <time>2018-12-06T10:17:08Z</time>
      </trkpt>
      <trkpt lat="44.28239" lon="6.09377">
        <ele>1698.31</ele>
        <time>2018-12-06T10:17:22Z</time>
      </trkpt>
      <trkpt lat="44.2823" lon="6.09384">
        <ele>1699.27</ele>
        <time>2018-12-06T10:17:36Z</time>
      </trkpt>
      <trkpt lat="44.2822" lon="6.09397">
        <ele>1698.79</ele>
        <time>2018-12-06T10:17:50Z</time>
      </trkpt>
      <trkpt lat="44.28213" lon="6.09406">
        <ele>1697.83</ele>
        <time>2018-12-06T10:18:04Z</time>
      </trkpt>
      <trkpt lat="44.28202" lon="6.09419">
        <ele>1697.34</ele>
        <time>2018-12-06T10:18:18Z</time>
      </trkpt>
      <trkpt lat="44.28196" lon="6.09429">
        <ele>1696.86</ele>
        <time>2018-12-06T10:18:32Z</time>
      </trkpt>
      <trkpt lat="44.28194" lon="6.09431">
        <ele>1696.86</ele>
        <time>2018-12-06T10:18:48Z</time>
      </trkpt>
      <trkpt lat="44.28192" lon="6.09431">
        <ele>1696.38</ele>
        <time>2018-12-06T10:19:12Z</time>
      </trkpt>
      <trkpt lat="44.28186" lon="6.09436">
        <ele>1695.9</ele>
        <time>2018-12-06T10:19:27Z</time>
      </trkpt>
      <trkpt lat="44.28179" lon="6.09447">
        <ele>1697.34</ele>
        <time>2018-12-06T10:19:37Z</time>
      </trkpt>
      <trkpt lat="44.28168" lon="6.09462">
        <ele>1700.23</ele>
        <time>2018-12-06T10:19:54Z</time>
      </trkpt>
      <trkpt lat="44.28165" lon="6.09466">
        <ele>1700.71</ele>
        <time>2018-12-06T10:19:59Z</time>
      </trkpt>
      <trkpt lat="44.28159" lon="6.09479">
        <ele>1703.11</ele>
        <time>2018-12-06T10:20:13Z</time>
      </trkpt>
      <trkpt lat="44.28154" lon="6.09493">
        <ele>1705.52</ele>
        <time>2018-12-06T10:20:27Z</time>
      </trkpt>
      <trkpt lat="44.28151" lon="6.09502">
        <ele>1706.96</ele>
        <time>2018-12-06T10:20:39Z</time>
      </trkpt>
      <trkpt lat="44.28146" lon="6.09512">
        <ele>1708.88</ele>
        <time>2018-12-06T10:20:52Z</time>
      </trkpt>
      <trkpt lat="44.28141" lon="6.09525">
        <ele>1710.8</ele>
        <time>2018-12-06T10:21:06Z</time>
      </trkpt>
      <trkpt lat="44.28139" lon="6.09534">
        <ele>1712.25</ele>
        <time>2018-12-06T10:21:18Z</time>
      </trkpt>
      <trkpt lat="44.28139" lon="6.09538">
        <ele>1712.73</ele>
        <time>2018-12-06T10:21:31Z</time>
      </trkpt>
      <trkpt lat="44.28137" lon="6.09542">
        <ele>1713.21</ele>
        <time>2018-12-06T10:21:44Z</time>
      </trkpt>
      <trkpt lat="44.28138" lon="6.09545">
        <ele>1714.17</ele>
        <time>2018-12-06T10:22:05Z</time>
      </trkpt>
      <trkpt lat="44.28138" lon="6.09545">
        <ele>1713.69</ele>
        <time>2018-12-06T10:22:27Z</time>
      </trkpt>
      <trkpt lat="44.28139" lon="6.09547">
        <ele>1713.69</ele>
        <time>2018-12-06T10:22:50Z</time>
      </trkpt>
      <trkpt lat="44.28139" lon="6.09548">
        <ele>1713.69</ele>
        <time>2018-12-06T10:23:14Z</time>
      </trkpt>
      <trkpt lat="44.28136" lon="6.09551">
        <ele>1714.17</ele>
        <time>2018-12-06T10:23:26Z</time>
      </trkpt>
      <trkpt lat="44.28128" lon="6.09561">
        <ele>1715.61</ele>
        <time>2018-12-06T10:23:39Z</time>
      </trkpt>
      <trkpt lat="44.28118" lon="6.09569">
        <ele>1716.57</ele>
        <time>2018-12-06T10:23:53Z</time>
      </trkpt>
      <trkpt lat="44.28109" lon="6.09577">
        <ele>1717.53</ele>
        <time>2018-12-06T10:24:09Z</time>
      </trkpt>
      <trkpt lat="44.28099" lon="6.09586">
        <ele>1718.01</ele>
        <time>2018-12-06T10:24:24Z</time>
      </trkpt>
      <trkpt lat="44.28092" lon="6.09602">
        <ele>1719.46</ele>
        <time>2018-12-06T10:24:40Z</time>
      </trkpt>
      <trkpt lat="44.28082" lon="6.09612">
        <ele>1719.46</ele>
        <time>2018-12-06T10:24:55Z</time>
      </trkpt>
      <trkpt lat="44.28077" lon="6.09621">
        <ele>1719.94</ele>
        <time>2018-12-06T10:25:05Z</time>
      </trkpt>
      <trkpt lat="44.28071" lon="6.09631">
        <ele>1720.42</ele>
        <time>2018-12-06T10:25:15Z</time>
      </trkpt>
      <trkpt lat="44.28064" lon="6.09644">
        <ele>1720.9</ele>
        <time>2018-12-06T10:25:29Z</time>
      </trkpt>
      <trkpt lat="44.28059" lon="6.09653">
        <ele>1722.82</ele>
        <time>2018-12-06T10:25:42Z</time>
      </trkpt>
      <trkpt lat="44.28054" lon="6.09663">
        <ele>1723.78</ele>
        <time>2018-12-06T10:25:56Z</time>
      </trkpt>
      <trkpt lat="44.28051" lon="6.09674">
        <ele>1725.22</ele>
        <time>2018-12-06T10:26:11Z</time>
      </trkpt>
      <trkpt lat="44.28047" lon="6.09682">
        <ele>1727.63</ele>
        <time>2018-12-06T10:26:25Z</time>
      </trkpt>
      <trkpt lat="44.28042" lon="6.09691">
        <ele>1729.07</ele>
        <time>2018-12-06T10:26:38Z</time>
      </trkpt>
      <trkpt lat="44.28039" lon="6.09703">
        <ele>1730.51</ele>
        <time>2018-12-06T10:26:54Z</time>
      </trkpt>
      <trkpt lat="44.28037" lon="6.09708">
        <ele>1730.99</ele>
        <time>2018-12-06T10:27:00Z</time>
      </trkpt>
      <trkpt lat="44.28034" lon="6.09717">
        <ele>1731.95</ele>
        <time>2018-12-06T10:27:15Z</time>
      </trkpt>
      <trkpt lat="44.2803" lon="6.0973">
        <ele>1733.88</ele>
        <time>2018-12-06T10:27:33Z</time>
      </trkpt>
      <trkpt lat="44.28024" lon="6.0974">
        <ele>1734.36</ele>
        <time>2018-12-06T10:27:48Z</time>
      </trkpt>
      <trkpt lat="44.28019" lon="6.09749">
        <ele>1736.76</ele>
        <time>2018-12-06T10:28:02Z</time>
      </trkpt>
      <trkpt lat="44.28012" lon="6.0976">
        <ele>1738.2</ele>
        <time>2018-12-06T10:28:20Z</time>
      </trkpt>
      <trkpt lat="44.28007" lon="6.09772">
        <ele>1739.64</ele>
        <time>2018-12-06T10:28:36Z</time>
      </trkpt>
      <trkpt lat="44.28003" lon="6.09778">
        <ele>1741.08</ele>
        <time>2018-12-06T10:28:49Z</time>
      </trkpt>
      <trkpt lat="44.27997" lon="6.09787">
        <ele>1743.01</ele>
        <time>2018-12-06T10:29:05Z</time>
      </trkpt>
      <trkpt lat="44.27991" lon="6.09797">
        <ele>1744.45</ele>
        <time>2018-12-06T10:29:21Z</time>
      </trkpt>
      <trkpt lat="44.27986" lon="6.09803">
        <ele>1745.89</ele>
        <time>2018-12-06T10:29:32Z</time>
      </trkpt>
      <trkpt lat="44.27979" lon="6.09813">
        <ele>1747.81</ele>
        <time>2018-12-06T10:29:46Z</time>
      </trkpt>
      <trkpt lat="44.27969" lon="6.09825">
        <ele>1750.22</ele>
        <time>2018-12-06T10:30:03Z</time>
      </trkpt>
      <trkpt lat="44.27962" lon="6.09834">
        <ele>1750.22</ele>
        <time>2018-12-06T10:30:15Z</time>
      </trkpt>
      <trkpt lat="44.27955" lon="6.09845">
        <ele>1750.7</ele>
        <time>2018-12-06T10:30:28Z</time>
      </trkpt>
      <trkpt lat="44.27955" lon="6.09848">
        <ele>1754.54</ele>
        <time>2018-12-06T10:30:31Z</time>
      </trkpt>
      <trkpt lat="44.27954" lon="6.09849">
        <ele>1751.66</ele>
        <time>2018-12-06T10:30:33Z</time>
      </trkpt>
      <trkpt lat="44.27945" lon="6.0986">
        <ele>1753.1</ele>
        <time>2018-12-06T10:30:48Z</time>
      </trkpt>
      <trkpt lat="44.27937" lon="6.09871">
        <ele>1755.5</ele>
        <time>2018-12-06T10:31:01Z</time>
      </trkpt>
      <trkpt lat="44.27931" lon="6.0988">
        <ele>1759.35</ele>
        <time>2018-12-06T10:31:12Z</time>
      </trkpt>
      <trkpt lat="44.27924" lon="6.09893">
        <ele>1758.87</ele>
        <time>2018-12-06T10:31:27Z</time>
      </trkpt>
      <trkpt lat="44.27922" lon="6.09898">
        <ele>1758.87</ele>
        <time>2018-12-06T10:31:32Z</time>
      </trkpt>
      <trkpt lat="44.2792" lon="6.09902">
        <ele>1760.31</ele>
        <time>2018-12-06T10:31:36Z</time>
      </trkpt>
      <trkpt lat="44.27914" lon="6.09916">
        <ele>1759.83</ele>
        <time>2018-12-06T10:31:51Z</time>
      </trkpt>
      <trkpt lat="44.2791" lon="6.09925">
        <ele>1757.43</ele>
        <time>2018-12-06T10:32:00Z</time>
      </trkpt>
      <trkpt lat="44.27907" lon="6.09926">
        <ele>1757.91</ele>
        <time>2018-12-06T10:32:04Z</time>
      </trkpt>
      <trkpt lat="44.27905" lon="6.09928">
        <ele>1757.91</ele>
        <time>2018-12-06T10:32:07Z</time>
      </trkpt>
      <trkpt lat="44.27892" lon="6.09937">
        <ele>1758.87</ele>
        <time>2018-12-06T10:32:22Z</time>
      </trkpt>
      <trkpt lat="44.2789" lon="6.0994">
        <ele>1758.39</ele>
        <time>2018-12-06T10:32:27Z</time>
      </trkpt>
      <trkpt lat="44.27883" lon="6.09947">
        <ele>1759.83</ele>
        <time>2018-12-06T10:32:37Z</time>
      </trkpt>
      <trkpt lat="44.27876" lon="6.09959">
        <ele>1759.35</ele>
        <time>2018-12-06T10:32:53Z</time>
      </trkpt>
      <trkpt lat="44.2787" lon="6.09967">
        <ele>1761.27</ele>
        <time>2018-12-06T10:33:07Z</time>
      </trkpt>
      <trkpt lat="44.2787" lon="6.09967">
        <ele>1761.75</ele>
        <time>2018-12-06T10:33:08Z</time>
      </trkpt>
      <trkpt lat="44.27868" lon="6.09979">
        <ele>1762.71</ele>
        <time>2018-12-06T10:33:22Z</time>
      </trkpt>
      <trkpt lat="44.27861" lon="6.09988">
        <ele>1764.64</ele>
        <time>2018-12-06T10:33:35Z</time>
      </trkpt>
      <trkpt lat="44.27854" lon="6.10001">
        <ele>1764.64</ele>
        <time>2018-12-06T10:33:50Z</time>
      </trkpt>
      <trkpt lat="44.27848" lon="6.10008">
        <ele>1766.08</ele>
        <time>2018-12-06T10:34:03Z</time>
      </trkpt>
      <trkpt lat="44.27842" lon="6.10017">
        <ele>1768</ele>
        <time>2018-12-06T10:34:18Z</time>
      </trkpt>
      <trkpt lat="44.27839" lon="6.10023">
        <ele>1770.89</ele>
        <time>2018-12-06T10:34:29Z</time>
      </trkpt>
      <trkpt lat="44.27838" lon="6.10024">
        <ele>1771.85</ele>
        <time>2018-12-06T10:34:31Z</time>
      </trkpt>
      <trkpt lat="44.27829" lon="6.10034">
        <ele>1774.25</ele>
        <time>2018-12-06T10:34:45Z</time>
      </trkpt>
      <trkpt lat="44.27825" lon="6.10041">
        <ele>1776.17</ele>
        <time>2018-12-06T10:34:53Z</time>
      </trkpt>
      <trkpt lat="44.27823" lon="6.10043">
        <ele>1777.61</ele>
        <time>2018-12-06T10:34:55Z</time>
      </trkpt>
      <trkpt lat="44.2782" lon="6.10047">
        <ele>1774.25</ele>
        <time>2018-12-06T10:35:00Z</time>
      </trkpt>
      <trkpt lat="44.27818" lon="6.1005">
        <ele>1772.81</ele>
        <time>2018-12-06T10:35:03Z</time>
      </trkpt>
      <trkpt lat="44.27814" lon="6.10056">
        <ele>1775.69</ele>
        <time>2018-12-06T10:35:09Z</time>
      </trkpt>
      <trkpt lat="44.27813" lon="6.10059">
        <ele>1778.58</ele>
        <time>2018-12-06T10:35:12Z</time>
      </trkpt>
      <trkpt lat="44.27805" lon="6.10072">
        <ele>1779.54</ele>
        <time>2018-12-06T10:35:27Z</time>
      </trkpt>
      <trkpt lat="44.27799" lon="6.10081">
        <ele>1780.98</ele>
        <time>2018-12-06T10:35:41Z</time>
      </trkpt>
      <trkpt lat="44.27792" lon="6.10092">
        <ele>1778.58</ele>
        <time>2018-12-06T10:35:56Z</time>
      </trkpt>
      <trkpt lat="44.27791" lon="6.10094">
        <ele>1778.58</ele>
        <time>2018-12-06T10:35:59Z</time>
      </trkpt>
      <trkpt lat="44.27791" lon="6.10101">
        <ele>1781.46</ele>
        <time>2018-12-06T10:36:06Z</time>
      </trkpt>
      <trkpt lat="44.27785" lon="6.10108">
        <ele>1781.94</ele>
        <time>2018-12-06T10:36:20Z</time>
      </trkpt>
      <trkpt lat="44.2778" lon="6.10111">
        <ele>1784.34</ele>
        <time>2018-12-06T10:36:27Z</time>
      </trkpt>
      <trkpt lat="44.2777" lon="6.10121">
        <ele>1784.34</ele>
        <time>2018-12-06T10:36:44Z</time>
      </trkpt>
      <trkpt lat="44.27769" lon="6.10121">
        <ele>1783.86</ele>
        <time>2018-12-06T10:37:06Z</time>
      </trkpt>
      <trkpt lat="44.27772" lon="6.1012">
        <ele>1783.38</ele>
        <time>2018-12-06T10:37:27Z</time>
      </trkpt>
      <trkpt lat="44.27769" lon="6.10124">
        <ele>1784.34</ele>
        <time>2018-12-06T10:37:52Z</time>
      </trkpt>
      <trkpt lat="44.27767" lon="6.10131">
        <ele>1787.23</ele>
        <time>2018-12-06T10:38:01Z</time>
      </trkpt>
      <trkpt lat="44.27765" lon="6.10134">
        <ele>1785.79</ele>
        <time>2018-12-06T10:38:05Z</time>
      </trkpt>
      <trkpt lat="44.27758" lon="6.10144">
        <ele>1785.31</ele>
        <time>2018-12-06T10:38:20Z</time>
      </trkpt>
      <trkpt lat="44.27753" lon="6.10154">
        <ele>1789.63</ele>
        <time>2018-12-06T10:38:32Z</time>
      </trkpt>
      <trkpt lat="44.27754" lon="6.10155">
        <ele>1787.71</ele>
        <time>2018-12-06T10:38:33Z</time>
      </trkpt>
      <trkpt lat="44.27754" lon="6.10157">
        <ele>1786.75</ele>
        <time>2018-12-06T10:38:35Z</time>
      </trkpt>
      <trkpt lat="44.27752" lon="6.10167">
        <ele>1787.71</ele>
        <time>2018-12-06T10:38:48Z</time>
      </trkpt>
      <trkpt lat="44.27749" lon="6.10175">
        <ele>1787.71</ele>
        <time>2018-12-06T10:39:01Z</time>
      </trkpt>
      <trkpt lat="44.27747" lon="6.1018">
        <ele>1792.52</ele>
        <time>2018-12-06T10:39:08Z</time>
      </trkpt>
      <trkpt lat="44.27747" lon="6.10186">
        <ele>1792.52</ele>
        <time>2018-12-06T10:39:20Z</time>
      </trkpt>
      <trkpt lat="44.27746" lon="6.10189">
        <ele>1794.92</ele>
        <time>2018-12-06T10:39:24Z</time>
      </trkpt>
      <trkpt lat="44.27744" lon="6.10198">
        <ele>1797.8</ele>
        <time>2018-12-06T10:39:33Z</time>
      </trkpt>
      <trkpt lat="44.27743" lon="6.10205">
        <ele>1798.28</ele>
        <time>2018-12-06T10:39:41Z</time>
      </trkpt>
      <trkpt lat="44.2774" lon="6.1021">
        <ele>1799.24</ele>
        <time>2018-12-06T10:39:59Z</time>
      </trkpt>
      <trkpt lat="44.2774" lon="6.10211">
        <ele>1798.76</ele>
        <time>2018-12-06T10:40:00Z</time>
      </trkpt>
      <trkpt lat="44.2774" lon="6.10212">
        <ele>1798.76</ele>
        <time>2018-12-06T10:40:20Z</time>
      </trkpt>
      <trkpt lat="44.27736" lon="6.1022">
        <ele>1799.73</ele>
        <time>2018-12-06T10:40:35Z</time>
      </trkpt>
      <trkpt lat="44.27728" lon="6.10224">
        <ele>1800.69</ele>
        <time>2018-12-06T10:40:50Z</time>
      </trkpt>
      <trkpt lat="44.2773" lon="6.10227">
        <ele>1800.21</ele>
        <time>2018-12-06T10:41:07Z</time>
      </trkpt>
      <trkpt lat="44.27723" lon="6.10237">
        <ele>1802.13</ele>
        <time>2018-12-06T10:41:20Z</time>
      </trkpt>
      <trkpt lat="44.2772" lon="6.10242">
        <ele>1803.57</ele>
        <time>2018-12-06T10:41:32Z</time>
      </trkpt>
      <trkpt lat="44.27718" lon="6.10247">
        <ele>1805.01</ele>
        <time>2018-12-06T10:41:51Z</time>
      </trkpt>
      <trkpt lat="44.27718" lon="6.10253">
        <ele>1805.97</ele>
        <time>2018-12-06T10:42:07Z</time>
      </trkpt>
      <trkpt lat="44.27714" lon="6.10258">
        <ele>1807.42</ele>
        <time>2018-12-06T10:42:24Z</time>
      </trkpt>
      <trkpt lat="44.27708" lon="6.10262">
        <ele>1808.86</ele>
        <time>2018-12-06T10:42:38Z</time>
      </trkpt>
      <trkpt lat="44.27704" lon="6.10267">
        <ele>1810.3</ele>
        <time>2018-12-06T10:42:51Z</time>
      </trkpt>
      <trkpt lat="44.27705" lon="6.1027">
        <ele>1811.74</ele>
        <time>2018-12-06T10:42:57Z</time>
      </trkpt>
      <trkpt lat="44.27699" lon="6.10281">
        <ele>1814.63</ele>
        <time>2018-12-06T10:43:11Z</time>
      </trkpt>
      <trkpt lat="44.27696" lon="6.10288">
        <ele>1815.11</ele>
        <time>2018-12-06T10:43:24Z</time>
      </trkpt>
      <trkpt lat="44.27694" lon="6.10298">
        <ele>1816.07</ele>
        <time>2018-12-06T10:43:41Z</time>
      </trkpt>
      <trkpt lat="44.27693" lon="6.10309">
        <ele>1819.43</ele>
        <time>2018-12-06T10:43:52Z</time>
      </trkpt>
      <trkpt lat="44.27693" lon="6.10317">
        <ele>1820.87</ele>
        <time>2018-12-06T10:44:00Z</time>
      </trkpt>
      <trkpt lat="44.27695" lon="6.10321">
        <ele>1823.28</ele>
        <time>2018-12-06T10:44:03Z</time>
      </trkpt>
      <trkpt lat="44.277" lon="6.10336">
        <ele>1823.76</ele>
        <time>2018-12-06T10:44:18Z</time>
      </trkpt>
      <trkpt lat="44.27702" lon="6.10337">
        <ele>1821.84</ele>
        <time>2018-12-06T10:44:22Z</time>
      </trkpt>
      <trkpt lat="44.27705" lon="6.10341">
        <ele>1822.8</ele>
        <time>2018-12-06T10:44:33Z</time>
      </trkpt>
      <trkpt lat="44.27707" lon="6.10347">
        <ele>1824.72</ele>
        <time>2018-12-06T10:44:52Z</time>
      </trkpt>
      <trkpt lat="44.27708" lon="6.10349">
        <ele>1826.16</ele>
        <time>2018-12-06T10:45:08Z</time>
      </trkpt>
      <trkpt lat="44.2771" lon="6.10354">
        <ele>1827.6</ele>
        <time>2018-12-06T10:45:23Z</time>
      </trkpt>
      <trkpt lat="44.27712" lon="6.10355">
        <ele>1828.08</ele>
        <time>2018-12-06T10:45:41Z</time>
      </trkpt>
      <trkpt lat="44.27711" lon="6.10361">
        <ele>1830.01</ele>
        <time>2018-12-06T10:45:53Z</time>
      </trkpt>
      <trkpt lat="44.27711" lon="6.10364">
        <ele>1830.49</ele>
        <time>2018-12-06T10:46:08Z</time>
      </trkpt>
      <trkpt lat="44.2771" lon="6.1037">
        <ele>1831.93</ele>
        <time>2018-12-06T10:46:21Z</time>
      </trkpt>
      <trkpt lat="44.27705" lon="6.10379">
        <ele>1832.89</ele>
        <time>2018-12-06T10:46:33Z</time>
      </trkpt>
      <trkpt lat="44.27701" lon="6.10388">
        <ele>1834.33</ele>
        <time>2018-12-06T10:46:43Z</time>
      </trkpt>
      <trkpt lat="44.27701" lon="6.104">
        <ele>1834.33</ele>
        <time>2018-12-06T10:46:53Z</time>
      </trkpt>
      <trkpt lat="44.27699" lon="6.1041">
        <ele>1834.81</ele>
        <time>2018-12-06T10:47:08Z</time>
      </trkpt>
      <trkpt lat="44.27697" lon="6.10417">
        <ele>1835.29</ele>
        <time>2018-12-06T10:47:14Z</time>
      </trkpt>
      <trkpt lat="44.27689" lon="6.10426">
        <ele>1836.26</ele>
        <time>2018-12-06T10:47:30Z</time>
      </trkpt>
      <trkpt lat="44.27681" lon="6.10435">
        <ele>1837.22</ele>
        <time>2018-12-06T10:47:44Z</time>
      </trkpt>
      <trkpt lat="44.27674" lon="6.10449">
        <ele>1839.14</ele>
        <time>2018-12-06T10:48:01Z</time>
      </trkpt>
      <trkpt lat="44.27669" lon="6.10464">
        <ele>1839.14</ele>
        <time>2018-12-06T10:48:17Z</time>
      </trkpt>
      <trkpt lat="44.27672" lon="6.1047">
        <ele>1838.18</ele>
        <time>2018-12-06T10:48:30Z</time>
      </trkpt>
      <trkpt lat="44.27673" lon="6.10474">
        <ele>1839.62</ele>
        <time>2018-12-06T10:48:36Z</time>
      </trkpt>
      <trkpt lat="44.27672" lon="6.1048">
        <ele>1843.95</ele>
        <time>2018-12-06T10:48:46Z</time>
      </trkpt>
      <trkpt lat="44.27671" lon="6.10479">
        <ele>1843.95</ele>
        <time>2018-12-06T10:48:47Z</time>
      </trkpt>
      <trkpt lat="44.27664" lon="6.10479">
        <ele>1845.39</ele>
        <time>2018-12-06T10:49:01Z</time>
      </trkpt>
      <trkpt lat="44.2766" lon="6.10482">
        <ele>1847.31</ele>
        <time>2018-12-06T10:49:14Z</time>
      </trkpt>
      <trkpt lat="44.27654" lon="6.10486">
        <ele>1850.19</ele>
        <time>2018-12-06T10:49:27Z</time>
      </trkpt>
      <trkpt lat="44.27649" lon="6.10487">
        <ele>1853.08</ele>
        <time>2018-12-06T10:49:41Z</time>
      </trkpt>
      <trkpt lat="44.2764" lon="6.1049">
        <ele>1855.96</ele>
        <time>2018-12-06T10:49:57Z</time>
      </trkpt>
      <trkpt lat="44.27633" lon="6.10493">
        <ele>1858.85</ele>
        <time>2018-12-06T10:50:12Z</time>
      </trkpt>
      <trkpt lat="44.27626" lon="6.10496">
        <ele>1862.21</ele>
        <time>2018-12-06T10:50:26Z</time>
      </trkpt>
      <trkpt lat="44.27619" lon="6.10499">
        <ele>1865.09</ele>
        <time>2018-12-06T10:50:41Z</time>
      </trkpt>
      <trkpt lat="44.27613" lon="6.10502">
        <ele>1867.98</ele>
        <time>2018-12-06T10:50:54Z</time>
      </trkpt>
      <trkpt lat="44.27602" lon="6.10507">
        <ele>1870.86</ele>
        <time>2018-12-06T10:51:11Z</time>
      </trkpt>
      <trkpt lat="44.27591" lon="6.10514">
        <ele>1873.27</ele>
        <time>2018-12-06T10:51:26Z</time>
      </trkpt>
      <trkpt lat="44.27588" lon="6.10516">
        <ele>1874.71</ele>
        <time>2018-12-06T10:51:31Z</time>
      </trkpt>
      <trkpt lat="44.27573" lon="6.10521">
        <ele>1875.19</ele>
        <time>2018-12-06T10:51:48Z</time>
      </trkpt>
      <trkpt lat="44.27562" lon="6.10527">
        <ele>1876.63</ele>
        <time>2018-12-06T10:52:01Z</time>
      </trkpt>
      <trkpt lat="44.27549" lon="6.10533">
        <ele>1877.59</ele>
        <time>2018-12-06T10:52:17Z</time>
      </trkpt>
      <trkpt lat="44.27536" lon="6.1054">
        <ele>1879.03</ele>
        <time>2018-12-06T10:52:31Z</time>
      </trkpt>
      <trkpt lat="44.27527" lon="6.10546">
        <ele>1879.03</ele>
        <time>2018-12-06T10:52:45Z</time>
      </trkpt>
      <trkpt lat="44.27517" lon="6.10552">
        <ele>1880.48</ele>
        <time>2018-12-06T10:52:57Z</time>
      </trkpt>
      <trkpt lat="44.275" lon="6.1056">
        <ele>1883.36</ele>
        <time>2018-12-06T10:53:13Z</time>
      </trkpt>
      <trkpt lat="44.27488" lon="6.10567">
        <ele>1884.8</ele>
        <time>2018-12-06T10:53:30Z</time>
      </trkpt>
      <trkpt lat="44.27477" lon="6.10573">
        <ele>1888.17</ele>
        <time>2018-12-06T10:53:45Z</time>
      </trkpt>
      <trkpt lat="44.27466" lon="6.10578">
        <ele>1889.13</ele>
        <time>2018-12-06T10:54:00Z</time>
      </trkpt>
      <trkpt lat="44.27459" lon="6.10581">
        <ele>1892.49</ele>
        <time>2018-12-06T10:54:12Z</time>
      </trkpt>
      <trkpt lat="44.27457" lon="6.10581">
        <ele>1892.49</ele>
        <time>2018-12-06T10:54:41Z</time>
      </trkpt>
      <trkpt lat="44.27447" lon="6.10585">
        <ele>1895.86</ele>
        <time>2018-12-06T10:54:53Z</time>
      </trkpt>
      <trkpt lat="44.27446" lon="6.10585">
        <ele>1895.86</ele>
        <time>2018-12-06T10:54:54Z</time>
      </trkpt>
      <trkpt lat="44.27434" lon="6.10588">
        <ele>1897.3</ele>
        <time>2018-12-06T10:55:10Z</time>
      </trkpt>
      <trkpt lat="44.27432" lon="6.10584">
        <ele>1898.74</ele>
        <time>2018-12-06T10:55:21Z</time>
      </trkpt>
      <trkpt lat="44.27431" lon="6.10581">
        <ele>1895.86</ele>
        <time>2018-12-06T10:55:25Z</time>
      </trkpt>
      <trkpt lat="44.27427" lon="6.10582">
        <ele>1893.93</ele>
        <time>2018-12-06T10:55:39Z</time>
      </trkpt>
      <trkpt lat="44.27429" lon="6.10583">
        <ele>1894.42</ele>
        <time>2018-12-06T10:55:56Z</time>
      </trkpt>
      <trkpt lat="44.27431" lon="6.10584">
        <ele>1894.42</ele>
        <time>2018-12-06T10:56:21Z</time>
      </trkpt>
      <trkpt lat="44.2743" lon="6.10585">
        <ele>1893.45</ele>
        <time>2018-12-06T10:56:38Z</time>
      </trkpt>
      <trkpt lat="44.27429" lon="6.10584">
        <ele>1892.97</ele>
        <time>2018-12-06T10:56:53Z</time>
      </trkpt>
      <trkpt lat="44.27426" lon="6.10587">
        <ele>1892.97</ele>
        <time>2018-12-06T10:57:22Z</time>
      </trkpt>
      <trkpt lat="44.27425" lon="6.10588">
        <ele>1892.97</ele>
        <time>2018-12-06T10:57:48Z</time>
      </trkpt>
      <trkpt lat="44.27426" lon="6.10586">
        <ele>1892.97</ele>
        <time>2018-12-06T10:58:13Z</time>
      </trkpt>
      <trkpt lat="44.27425" lon="6.10585">
        <ele>1892.49</ele>
        <time>2018-12-06T10:58:37Z</time>
      </trkpt>
      <trkpt lat="44.27424" lon="6.10586">
        <ele>1892.97</ele>
        <time>2018-12-06T10:59:07Z</time>
      </trkpt>
      <trkpt lat="44.27424" lon="6.10586">
        <ele>1892.49</ele>
        <time>2018-12-06T10:59:43Z</time>
      </trkpt>
      <trkpt lat="44.27423" lon="6.10587">
        <ele>1892.97</ele>
        <time>2018-12-06T11:00:21Z</time>
      </trkpt>
      <trkpt lat="44.27425" lon="6.10588">
        <ele>1893.93</ele>
        <time>2018-12-06T11:00:48Z</time>
      </trkpt>
      <trkpt lat="44.27427" lon="6.10583">
        <ele>1894.9</ele>
        <time>2018-12-06T11:01:12Z</time>
      </trkpt>
      <trkpt lat="44.27431" lon="6.10582">
        <ele>1894.42</ele>
        <time>2018-12-06T11:01:26Z</time>
      </trkpt>
      <trkpt lat="44.27431" lon="6.10582">
        <ele>1893.93</ele>
        <time>2018-12-06T11:01:50Z</time>
      </trkpt>
      <trkpt lat="44.27432" lon="6.10583">
        <ele>1893.93</ele>
        <time>2018-12-06T11:02:11Z</time>
      </trkpt>
      <trkpt lat="44.27432" lon="6.10582">
        <ele>1894.42</ele>
        <time>2018-12-06T11:02:41Z</time>
      </trkpt>
      <trkpt lat="44.27434" lon="6.10583">
        <ele>1896.34</ele>
        <time>2018-12-06T11:02:53Z</time>
      </trkpt>
      <trkpt lat="44.27434" lon="6.10586">
        <ele>1894.42</ele>
        <time>2018-12-06T11:03:00Z</time>
      </trkpt>
      <trkpt lat="44.27435" lon="6.10588">
        <ele>1895.38</ele>
        <time>2018-12-06T11:03:03Z</time>
      </trkpt>
      <trkpt lat="44.27435" lon="6.10587">
        <ele>1895.38</ele>
        <time>2018-12-06T11:03:19Z</time>
      </trkpt>
      <trkpt lat="44.27437" lon="6.10587">
        <ele>1895.86</ele>
        <time>2018-12-06T11:03:36Z</time>
      </trkpt>
      <trkpt lat="44.2744" lon="6.10591">
        <ele>1894.42</ele>
        <time>2018-12-06T11:03:57Z</time>
      </trkpt>
      <trkpt lat="44.27442" lon="6.10592">
        <ele>1892.97</ele>
        <time>2018-12-06T11:04:07Z</time>
      </trkpt>
      <trkpt lat="44.27442" lon="6.10591">
        <ele>1894.42</ele>
        <time>2018-12-06T11:04:10Z</time>
      </trkpt>
      <trkpt lat="44.27444" lon="6.1059">
        <ele>1893.93</ele>
        <time>2018-12-06T11:04:29Z</time>
      </trkpt>
      <trkpt lat="44.27444" lon="6.10589">
        <ele>1893.45</ele>
        <time>2018-12-06T11:04:45Z</time>
      </trkpt>
      <trkpt lat="44.27444" lon="6.10588">
        <ele>1893.45</ele>
        <time>2018-12-06T11:05:12Z</time>
      </trkpt>
      <trkpt lat="44.27451" lon="6.10589">
        <ele>1892.97</ele>
        <time>2018-12-06T11:05:28Z</time>
      </trkpt>
      <trkpt lat="44.2746" lon="6.10585">
        <ele>1891.05</ele>
        <time>2018-12-06T11:05:39Z</time>
      </trkpt>
      <trkpt lat="44.27473" lon="6.10579">
        <ele>1887.69</ele>
        <time>2018-12-06T11:05:57Z</time>
      </trkpt>
      <trkpt lat="44.27479" lon="6.10575">
        <ele>1886.24</ele>
        <time>2018-12-06T11:06:10Z</time>
      </trkpt>
      <trkpt lat="44.27486" lon="6.10578">
        <ele>1884.32</ele>
        <time>2018-12-06T11:06:18Z</time>
      </trkpt>
      <trkpt lat="44.27496" lon="6.10574">
        <ele>1881.44</ele>
        <time>2018-12-06T11:06:31Z</time>
      </trkpt>
      <trkpt lat="44.27502" lon="6.10576">
        <ele>1878.55</ele>
        <time>2018-12-06T11:06:45Z</time>
      </trkpt>
      <trkpt lat="44.27501" lon="6.10577">
        <ele>1877.59</ele>
        <time>2018-12-06T11:07:01Z</time>
      </trkpt>
      <trkpt lat="44.27502" lon="6.10576">
        <ele>1878.55</ele>
        <time>2018-12-06T11:07:28Z</time>
      </trkpt>
      <trkpt lat="44.27502" lon="6.10576">
        <ele>1878.55</ele>
        <time>2018-12-06T11:07:30Z</time>
      </trkpt>
      <trkpt lat="44.27502" lon="6.10575">
        <ele>1879.51</ele>
        <time>2018-12-06T11:07:42Z</time>
      </trkpt>
      <trkpt lat="44.27505" lon="6.10576">
        <ele>1880</ele>
        <time>2018-12-06T11:07:48Z</time>
      </trkpt>
      <trkpt lat="44.27506" lon="6.10576">
        <ele>1880</ele>
        <time>2018-12-06T11:07:49Z</time>
      </trkpt>
      <trkpt lat="44.27518" lon="6.10579">
        <ele>1877.11</ele>
        <time>2018-12-06T11:08:03Z</time>
      </trkpt>
      <trkpt lat="44.27536" lon="6.10575">
        <ele>1875.67</ele>
        <time>2018-12-06T11:08:20Z</time>
      </trkpt>
      <trkpt lat="44.27553" lon="6.10571">
        <ele>1874.71</ele>
        <time>2018-12-06T11:08:36Z</time>
      </trkpt>
      <trkpt lat="44.27567" lon="6.10564">
        <ele>1873.75</ele>
        <time>2018-12-06T11:08:51Z</time>
      </trkpt>
      <trkpt lat="44.27569" lon="6.10563">
        <ele>1873.27</ele>
        <time>2018-12-06T11:08:53Z</time>
      </trkpt>
      <trkpt lat="44.27575" lon="6.10559">
        <ele>1873.27</ele>
        <time>2018-12-06T11:08:59Z</time>
      </trkpt>
      <trkpt lat="44.27588" lon="6.10549">
        <ele>1872.3</ele>
        <time>2018-12-06T11:09:14Z</time>
      </trkpt>
      <trkpt lat="44.27598" lon="6.10534">
        <ele>1871.82</ele>
        <time>2018-12-06T11:09:30Z</time>
      </trkpt>
      <trkpt lat="44.276" lon="6.10526">
        <ele>1870.38</ele>
        <time>2018-12-06T11:09:36Z</time>
      </trkpt>
      <trkpt lat="44.27604" lon="6.10506">
        <ele>1870.86</ele>
        <time>2018-12-06T11:09:53Z</time>
      </trkpt>
      <trkpt lat="44.27605" lon="6.10504">
        <ele>1870.38</ele>
        <time>2018-12-06T11:10:11Z</time>
      </trkpt>
      <trkpt lat="44.27608" lon="6.105">
        <ele>1870.38</ele>
        <time>2018-12-06T11:10:23Z</time>
      </trkpt>
      <trkpt lat="44.27608" lon="6.10499">
        <ele>1869.9</ele>
        <time>2018-12-06T11:10:25Z</time>
      </trkpt>
      <trkpt lat="44.27611" lon="6.10497">
        <ele>1869.9</ele>
        <time>2018-12-06T11:10:37Z</time>
      </trkpt>
      <trkpt lat="44.2761" lon="6.10498">
        <ele>1869.42</ele>
        <time>2018-12-06T11:10:54Z</time>
      </trkpt>
      <trkpt lat="44.27613" lon="6.10493">
        <ele>1867.98</ele>
        <time>2018-12-06T11:11:09Z</time>
      </trkpt>
      <trkpt lat="44.2761" lon="6.10488">
        <ele>1866.54</ele>
        <time>2018-12-06T11:11:27Z</time>
      </trkpt>
      <trkpt lat="44.27607" lon="6.10484">
        <ele>1865.09</ele>
        <time>2018-12-06T11:11:38Z</time>
      </trkpt>
      <trkpt lat="44.27603" lon="6.10477">
        <ele>1863.17</ele>
        <time>2018-12-06T11:11:49Z</time>
      </trkpt>
      <trkpt lat="44.2761" lon="6.1047">
        <ele>1861.73</ele>
        <time>2018-12-06T11:12:01Z</time>
      </trkpt>
      <trkpt lat="44.27613" lon="6.10462">
        <ele>1858.37</ele>
        <time>2018-12-06T11:12:11Z</time>
      </trkpt>
      <trkpt lat="44.27619" lon="6.10452">
        <ele>1855.96</ele>
        <time>2018-12-06T11:12:26Z</time>
      </trkpt>
      <trkpt lat="44.27619" lon="6.10451">
        <ele>1856.44</ele>
        <time>2018-12-06T11:12:30Z</time>
      </trkpt>
      <trkpt lat="44.27626" lon="6.10446">
        <ele>1856.44</ele>
        <time>2018-12-06T11:12:44Z</time>
      </trkpt>
      <trkpt lat="44.27637" lon="6.10433">
        <ele>1855</ele>
        <time>2018-12-06T11:13:00Z</time>
      </trkpt>
      <trkpt lat="44.27642" lon="6.10425">
        <ele>1851.64</ele>
        <time>2018-12-06T11:13:09Z</time>
      </trkpt>
      <trkpt lat="44.27645" lon="6.10421">
        <ele>1850.19</ele>
        <time>2018-12-06T11:13:13Z</time>
      </trkpt>
      <trkpt lat="44.27656" lon="6.1041">
        <ele>1847.31</ele>
        <time>2018-12-06T11:13:30Z</time>
      </trkpt>
      <trkpt lat="44.2766" lon="6.10407">
        <ele>1845.39</ele>
        <time>2018-12-06T11:13:35Z</time>
      </trkpt>
      <trkpt lat="44.27669" lon="6.104">
        <ele>1843.95</ele>
        <time>2018-12-06T11:13:46Z</time>
      </trkpt>
      <trkpt lat="44.27679" lon="6.10389">
        <ele>1840.58</ele>
        <time>2018-12-06T11:14:02Z</time>
      </trkpt>
      <trkpt lat="44.27682" lon="6.10386">
        <ele>1839.14</ele>
        <time>2018-12-06T11:14:07Z</time>
      </trkpt>
      <trkpt lat="44.27684" lon="6.1038">
        <ele>1835.77</ele>
        <time>2018-12-06T11:14:18Z</time>
      </trkpt>
      <trkpt lat="44.27681" lon="6.10376">
        <ele>1833.85</ele>
        <time>2018-12-06T11:14:25Z</time>
      </trkpt>
      <trkpt lat="44.27686" lon="6.10368">
        <ele>1830.97</ele>
        <time>2018-12-06T11:14:37Z</time>
      </trkpt>
      <trkpt lat="44.2769" lon="6.10361">
        <ele>1830.01</ele>
        <time>2018-12-06T11:14:52Z</time>
      </trkpt>
      <trkpt lat="44.2769" lon="6.10356">
        <ele>1828.08</ele>
        <time>2018-12-06T11:15:04Z</time>
      </trkpt>
      <trkpt lat="44.27692" lon="6.10353">
        <ele>1826.16</ele>
        <time>2018-12-06T11:15:17Z</time>
      </trkpt>
      <trkpt lat="44.27691" lon="6.10348">
        <ele>1825.68</ele>
        <time>2018-12-06T11:15:29Z</time>
      </trkpt>
      <trkpt lat="44.27692" lon="6.10342">
        <ele>1822.32</ele>
        <time>2018-12-06T11:15:43Z</time>
      </trkpt>
      <trkpt lat="44.27693" lon="6.10344">
        <ele>1821.84</ele>
        <time>2018-12-06T11:15:54Z</time>
      </trkpt>
      <trkpt lat="44.27692" lon="6.10342">
        <ele>1821.35</ele>
        <time>2018-12-06T11:16:17Z</time>
      </trkpt>
      <trkpt lat="44.27692" lon="6.10344">
        <ele>1822.8</ele>
        <time>2018-12-06T11:16:29Z</time>
      </trkpt>
      <trkpt lat="44.27693" lon="6.10345">
        <ele>1822.32</ele>
        <time>2018-12-06T11:17:01Z</time>
      </trkpt>
      <trkpt lat="44.27691" lon="6.10343">
        <ele>1821.35</ele>
        <time>2018-12-06T11:17:32Z</time>
      </trkpt>
      <trkpt lat="44.2769" lon="6.10335">
        <ele>1820.87</ele>
        <time>2018-12-06T11:17:48Z</time>
      </trkpt>
      <trkpt lat="44.27693" lon="6.10319">
        <ele>1817.51</ele>
        <time>2018-12-06T11:17:58Z</time>
      </trkpt>
      <trkpt lat="44.27695" lon="6.103">
        <ele>1814.63</ele>
        <time>2018-12-06T11:18:12Z</time>
      </trkpt>
      <trkpt lat="44.27698" lon="6.10288">
        <ele>1813.66</ele>
        <time>2018-12-06T11:18:21Z</time>
      </trkpt>
      <trkpt lat="44.27704" lon="6.10274">
        <ele>1810.3</ele>
        <time>2018-12-06T11:18:32Z</time>
      </trkpt>
      <trkpt lat="44.27705" lon="6.10268">
        <ele>1808.38</ele>
        <time>2018-12-06T11:18:37Z</time>
      </trkpt>
      <trkpt lat="44.27711" lon="6.10258">
        <ele>1805.01</ele>
        <time>2018-12-06T11:18:50Z</time>
      </trkpt>
      <trkpt lat="44.27714" lon="6.10252">
        <ele>1803.09</ele>
        <time>2018-12-06T11:19:05Z</time>
      </trkpt>
      <trkpt lat="44.27715" lon="6.10252">
        <ele>1803.09</ele>
        <time>2018-12-06T11:19:21Z</time>
      </trkpt>
      <trkpt lat="44.27717" lon="6.10249">
        <ele>1801.65</ele>
        <time>2018-12-06T11:19:26Z</time>
      </trkpt>
      <trkpt lat="44.27718" lon="6.10247">
        <ele>1801.17</ele>
        <time>2018-12-06T11:19:32Z</time>
      </trkpt>
      <trkpt lat="44.2772" lon="6.10242">
        <ele>1799.73</ele>
        <time>2018-12-06T11:19:37Z</time>
      </trkpt>
      <trkpt lat="44.27726" lon="6.10231">
        <ele>1797.32</ele>
        <time>2018-12-06T11:19:47Z</time>
      </trkpt>
      <trkpt lat="44.27728" lon="6.10228">
        <ele>1796.36</ele>
        <time>2018-12-06T11:19:50Z</time>
      </trkpt>
      <trkpt lat="44.27734" lon="6.10217">
        <ele>1795.4</ele>
        <time>2018-12-06T11:20:00Z</time>
      </trkpt>
      <trkpt lat="44.27738" lon="6.10216">
        <ele>1793.48</ele>
        <time>2018-12-06T11:20:04Z</time>
      </trkpt>
      <trkpt lat="44.27746" lon="6.102">
        <ele>1791.55</ele>
        <time>2018-12-06T11:20:19Z</time>
      </trkpt>
      <trkpt lat="44.2775" lon="6.10191">
        <ele>1789.15</ele>
        <time>2018-12-06T11:20:26Z</time>
      </trkpt>
      <trkpt lat="44.27751" lon="6.10189">
        <ele>1792.03</ele>
        <time>2018-12-06T11:20:28Z</time>
      </trkpt>
      <trkpt lat="44.27751" lon="6.10188">
        <ele>1791.55</ele>
        <time>2018-12-06T11:20:29Z</time>
      </trkpt>
      <trkpt lat="44.27752" lon="6.10186">
        <ele>1790.59</ele>
        <time>2018-12-06T11:20:31Z</time>
      </trkpt>
      <trkpt lat="44.27755" lon="6.10176">
        <ele>1790.11</ele>
        <time>2018-12-06T11:20:40Z</time>
      </trkpt>
      <trkpt lat="44.27758" lon="6.10172">
        <ele>1788.19</ele>
        <time>2018-12-06T11:20:44Z</time>
      </trkpt>
      <trkpt lat="44.27758" lon="6.10169">
        <ele>1787.71</ele>
        <time>2018-12-06T11:20:46Z</time>
      </trkpt>
      <trkpt lat="44.27758" lon="6.10166">
        <ele>1784.34</ele>
        <time>2018-12-06T11:20:48Z</time>
      </trkpt>
      <trkpt lat="44.2776" lon="6.10162">
        <ele>1782.9</ele>
        <time>2018-12-06T11:20:52Z</time>
      </trkpt>
      <trkpt lat="44.27765" lon="6.10148">
        <ele>1782.9</ele>
        <time>2018-12-06T11:21:03Z</time>
      </trkpt>
      <trkpt lat="44.27768" lon="6.10129">
        <ele>1780.02</ele>
        <time>2018-12-06T11:21:19Z</time>
      </trkpt>
      <trkpt lat="44.27773" lon="6.10121">
        <ele>1779.06</ele>
        <time>2018-12-06T11:21:27Z</time>
      </trkpt>
      <trkpt lat="44.27776" lon="6.1011">
        <ele>1777.61</ele>
        <time>2018-12-06T11:21:36Z</time>
      </trkpt>
      <trkpt lat="44.27776" lon="6.10101">
        <ele>1778.58</ele>
        <time>2018-12-06T11:21:43Z</time>
      </trkpt>
      <trkpt lat="44.27776" lon="6.10096">
        <ele>1777.13</ele>
        <time>2018-12-06T11:21:59Z</time>
      </trkpt>
      <trkpt lat="44.27777" lon="6.10096">
        <ele>1776.65</ele>
        <time>2018-12-06T11:22:30Z</time>
      </trkpt>
      <trkpt lat="44.27777" lon="6.10093">
        <ele>1776.65</ele>
        <time>2018-12-06T11:22:44Z</time>
      </trkpt>
      <trkpt lat="44.27779" lon="6.10088">
        <ele>1774.73</ele>
        <time>2018-12-06T11:22:49Z</time>
      </trkpt>
      <trkpt lat="44.27781" lon="6.10086">
        <ele>1775.69</ele>
        <time>2018-12-06T11:22:52Z</time>
      </trkpt>
      <trkpt lat="44.2778" lon="6.10074">
        <ele>1775.21</ele>
        <time>2018-12-06T11:23:06Z</time>
      </trkpt>
      <trkpt lat="44.2778" lon="6.10069">
        <ele>1775.69</ele>
        <time>2018-12-06T11:23:16Z</time>
      </trkpt>
      <trkpt lat="44.27783" lon="6.10064">
        <ele>1774.25</ele>
        <time>2018-12-06T11:23:20Z</time>
      </trkpt>
      <trkpt lat="44.27785" lon="6.10058">
        <ele>1774.25</ele>
        <time>2018-12-06T11:23:25Z</time>
      </trkpt>
      <trkpt lat="44.27787" lon="6.1005">
        <ele>1773.77</ele>
        <time>2018-12-06T11:23:31Z</time>
      </trkpt>
      <trkpt lat="44.27786" lon="6.10038">
        <ele>1773.77</ele>
        <time>2018-12-06T11:23:40Z</time>
      </trkpt>
      <trkpt lat="44.27794" lon="6.10019">
        <ele>1776.17</ele>
        <time>2018-12-06T11:23:58Z</time>
      </trkpt>
      <trkpt lat="44.27794" lon="6.10018">
        <ele>1776.17</ele>
        <time>2018-12-06T11:23:59Z</time>
      </trkpt>
      <trkpt lat="44.27793" lon="6.1001">
        <ele>1774.73</ele>
        <time>2018-12-06T11:24:06Z</time>
      </trkpt>
      <trkpt lat="44.27803" lon="6.09992">
        <ele>1773.29</ele>
        <time>2018-12-06T11:24:22Z</time>
      </trkpt>
      <trkpt lat="44.27807" lon="6.09985">
        <ele>1773.29</ele>
        <time>2018-12-06T11:24:28Z</time>
      </trkpt>
      <trkpt lat="44.27814" lon="6.09971">
        <ele>1772.33</ele>
        <time>2018-12-06T11:24:41Z</time>
      </trkpt>
      <trkpt lat="44.27822" lon="6.09954">
        <ele>1772.81</ele>
        <time>2018-12-06T11:24:56Z</time>
      </trkpt>
      <trkpt lat="44.27825" lon="6.09941">
        <ele>1773.77</ele>
        <time>2018-12-06T11:25:09Z</time>
      </trkpt>
      <trkpt lat="44.27829" lon="6.09929">
        <ele>1773.77</ele>
        <time>2018-12-06T11:25:24Z</time>
      </trkpt>
      <trkpt lat="44.2783" lon="6.09926">
        <ele>1772.33</ele>
        <time>2018-12-06T11:25:27Z</time>
      </trkpt>
      <trkpt lat="44.27831" lon="6.09922">
        <ele>1771.37</ele>
        <time>2018-12-06T11:25:30Z</time>
      </trkpt>
      <trkpt lat="44.27836" lon="6.09897">
        <ele>1768</ele>
        <time>2018-12-06T11:25:48Z</time>
      </trkpt>
      <trkpt lat="44.27842" lon="6.09877">
        <ele>1769.92</ele>
        <time>2018-12-06T11:26:03Z</time>
      </trkpt>
      <trkpt lat="44.27843" lon="6.09865">
        <ele>1773.29</ele>
        <time>2018-12-06T11:26:16Z</time>
      </trkpt>
      <trkpt lat="44.27843" lon="6.09864">
        <ele>1773.29</ele>
        <time>2018-12-06T11:26:17Z</time>
      </trkpt>
      <trkpt lat="44.27844" lon="6.0986">
        <ele>1773.29</ele>
        <time>2018-12-06T11:26:20Z</time>
      </trkpt>
      <trkpt lat="44.27844" lon="6.09857">
        <ele>1773.77</ele>
        <time>2018-12-06T11:26:22Z</time>
      </trkpt>
      <trkpt lat="44.27844" lon="6.09854">
        <ele>1773.77</ele>
        <time>2018-12-06T11:26:24Z</time>
      </trkpt>
      <trkpt lat="44.27845" lon="6.09839">
        <ele>1774.25</ele>
        <time>2018-12-06T11:26:37Z</time>
      </trkpt>
      <trkpt lat="44.27842" lon="6.09828">
        <ele>1774.73</ele>
        <time>2018-12-06T11:26:50Z</time>
      </trkpt>
      <trkpt lat="44.27845" lon="6.09807">
        <ele>1773.29</ele>
        <time>2018-12-06T11:27:07Z</time>
      </trkpt>
      <trkpt lat="44.27848" lon="6.09794">
        <ele>1771.85</ele>
        <time>2018-12-06T11:27:23Z</time>
      </trkpt>
      <trkpt lat="44.27848" lon="6.09788">
        <ele>1771.85</ele>
        <time>2018-12-06T11:27:34Z</time>
      </trkpt>
      <trkpt lat="44.27849" lon="6.09784">
        <ele>1771.37</ele>
        <time>2018-12-06T11:27:45Z</time>
      </trkpt>
      <trkpt lat="44.27849" lon="6.09783">
        <ele>1771.37</ele>
        <time>2018-12-06T11:28:05Z</time>
      </trkpt>
      <trkpt lat="44.2785" lon="6.09783">
        <ele>1770.89</ele>
        <time>2018-12-06T11:28:31Z</time>
      </trkpt>
      <trkpt lat="44.27857" lon="6.0978">
        <ele>1771.85</ele>
        <time>2018-12-06T11:28:47Z</time>
      </trkpt>
      <trkpt lat="44.27861" lon="6.09777">
        <ele>1771.85</ele>
        <time>2018-12-06T11:28:58Z</time>
      </trkpt>
      <trkpt lat="44.27862" lon="6.09776">
        <ele>1771.85</ele>
        <time>2018-12-06T11:29:00Z</time>
      </trkpt>
      <trkpt lat="44.27871" lon="6.09766">
        <ele>1768.96</ele>
        <time>2018-12-06T11:29:15Z</time>
      </trkpt>
      <trkpt lat="44.27876" lon="6.09762">
        <ele>1766.56</ele>
        <time>2018-12-06T11:29:27Z</time>
      </trkpt>
      <trkpt lat="44.27874" lon="6.09754">
        <ele>1764.64</ele>
        <time>2018-12-06T11:29:40Z</time>
      </trkpt>
      <trkpt lat="44.27875" lon="6.09749">
        <ele>1763.2</ele>
        <time>2018-12-06T11:29:52Z</time>
      </trkpt>
      <trkpt lat="44.27875" lon="6.09746">
        <ele>1761.75</ele>
        <time>2018-12-06T11:30:07Z</time>
      </trkpt>
      <trkpt lat="44.27875" lon="6.09735">
        <ele>1759.83</ele>
        <time>2018-12-06T11:30:19Z</time>
      </trkpt>
      <trkpt lat="44.27876" lon="6.09734">
        <ele>1759.35</ele>
        <time>2018-12-06T11:30:20Z</time>
      </trkpt>
      <trkpt lat="44.27882" lon="6.09717">
        <ele>1756.47</ele>
        <time>2018-12-06T11:30:38Z</time>
      </trkpt>
      <trkpt lat="44.27888" lon="6.09704">
        <ele>1754.06</ele>
        <time>2018-12-06T11:30:56Z</time>
      </trkpt>
      <trkpt lat="44.27892" lon="6.09693">
        <ele>1751.18</ele>
        <time>2018-12-06T11:31:08Z</time>
      </trkpt>
      <trkpt lat="44.27896" lon="6.09678">
        <ele>1748.78</ele>
        <time>2018-12-06T11:31:25Z</time>
      </trkpt>
      <trkpt lat="44.27904" lon="6.09658">
        <ele>1747.81</ele>
        <time>2018-12-06T11:31:43Z</time>
      </trkpt>
      <trkpt lat="44.27912" lon="6.09644">
        <ele>1747.33</ele>
        <time>2018-12-06T11:31:58Z</time>
      </trkpt>
      <trkpt lat="44.27916" lon="6.09626">
        <ele>1744.93</ele>
        <time>2018-12-06T11:32:14Z</time>
      </trkpt>
      <trkpt lat="44.27922" lon="6.09608">
        <ele>1742.05</ele>
        <time>2018-12-06T11:32:32Z</time>
      </trkpt>
      <trkpt lat="44.27924" lon="6.09591">
        <ele>1739.64</ele>
        <time>2018-12-06T11:32:49Z</time>
      </trkpt>
      <trkpt lat="44.27924" lon="6.09575">
        <ele>1737.24</ele>
        <time>2018-12-06T11:33:04Z</time>
      </trkpt>
      <trkpt lat="44.27926" lon="6.09559">
        <ele>1735.8</ele>
        <time>2018-12-06T11:33:20Z</time>
      </trkpt>
      <trkpt lat="44.27927" lon="6.09541">
        <ele>1735.32</ele>
        <time>2018-12-06T11:33:35Z</time>
      </trkpt>
      <trkpt lat="44.27927" lon="6.09539">
        <ele>1735.32</ele>
        <time>2018-12-06T11:33:37Z</time>
      </trkpt>
      <trkpt lat="44.27935" lon="6.0952">
        <ele>1734.84</ele>
        <time>2018-12-06T11:33:54Z</time>
      </trkpt>
      <trkpt lat="44.27944" lon="6.09505">
        <ele>1733.88</ele>
        <time>2018-12-06T11:34:09Z</time>
      </trkpt>
      <trkpt lat="44.27954" lon="6.09488">
        <ele>1733.88</ele>
        <time>2018-12-06T11:34:25Z</time>
      </trkpt>
      <trkpt lat="44.27964" lon="6.09468">
        <ele>1732.43</ele>
        <time>2018-12-06T11:34:43Z</time>
      </trkpt>
      <trkpt lat="44.27975" lon="6.09451">
        <ele>1730.51</ele>
        <time>2018-12-06T11:35:01Z</time>
      </trkpt>
      <trkpt lat="44.27979" lon="6.09442">
        <ele>1729.55</ele>
        <time>2018-12-06T11:35:09Z</time>
      </trkpt>
      <trkpt lat="44.27988" lon="6.0942">
        <ele>1728.11</ele>
        <time>2018-12-06T11:35:26Z</time>
      </trkpt>
      <trkpt lat="44.27994" lon="6.09395">
        <ele>1727.15</ele>
        <time>2018-12-06T11:35:44Z</time>
      </trkpt>
      <trkpt lat="44.28001" lon="6.0938">
        <ele>1726.18</ele>
        <time>2018-12-06T11:35:57Z</time>
      </trkpt>
      <trkpt lat="44.28015" lon="6.09367">
        <ele>1724.26</ele>
        <time>2018-12-06T11:36:14Z</time>
      </trkpt>
      <trkpt lat="44.28031" lon="6.0936">
        <ele>1722.82</ele>
        <time>2018-12-06T11:36:30Z</time>
      </trkpt>
      <trkpt lat="44.28037" lon="6.09358">
        <ele>1723.3</ele>
        <time>2018-12-06T11:36:36Z</time>
      </trkpt>
      <trkpt lat="44.28053" lon="6.09352">
        <ele>1719.94</ele>
        <time>2018-12-06T11:36:52Z</time>
      </trkpt>
      <trkpt lat="44.28067" lon="6.09351">
        <ele>1721.38</ele>
        <time>2018-12-06T11:37:05Z</time>
      </trkpt>
      <trkpt lat="44.28076" lon="6.09345">
        <ele>1720.42</ele>
        <time>2018-12-06T11:37:17Z</time>
      </trkpt>
      <trkpt lat="44.28093" lon="6.09352">
        <ele>1717.05</ele>
        <time>2018-12-06T11:37:33Z</time>
      </trkpt>
      <trkpt lat="44.28107" lon="6.09349">
        <ele>1715.13</ele>
        <time>2018-12-06T11:37:50Z</time>
      </trkpt>
      <trkpt lat="44.28117" lon="6.09344">
        <ele>1714.65</ele>
        <time>2018-12-06T11:38:06Z</time>
      </trkpt>
      <trkpt lat="44.2812" lon="6.09345">
        <ele>1715.13</ele>
        <time>2018-12-06T11:38:11Z</time>
      </trkpt>
      <trkpt lat="44.28125" lon="6.09362">
        <ele>1710.8</ele>
        <time>2018-12-06T11:38:26Z</time>
      </trkpt>
      <trkpt lat="44.28124" lon="6.09376">
        <ele>1710.32</ele>
        <time>2018-12-06T11:38:41Z</time>
      </trkpt>
      <trkpt lat="44.28124" lon="6.09385">
        <ele>1710.32</ele>
        <time>2018-12-06T11:38:57Z</time>
      </trkpt>
      <trkpt lat="44.28125" lon="6.09384">
        <ele>1710.32</ele>
        <time>2018-12-06T11:39:09Z</time>
      </trkpt>
      <trkpt lat="44.28126" lon="6.09385">
        <ele>1709.36</ele>
        <time>2018-12-06T11:39:24Z</time>
      </trkpt>
      <trkpt lat="44.28124" lon="6.09384">
        <ele>1709.36</ele>
        <time>2018-12-06T11:39:44Z</time>
      </trkpt>
      <trkpt lat="44.28125" lon="6.09383">
        <ele>1709.36</ele>
        <time>2018-12-06T11:40:03Z</time>
      </trkpt>
      <trkpt lat="44.28125" lon="6.0938">
        <ele>1708.88</ele>
        <time>2018-12-06T11:40:25Z</time>
      </trkpt>
      <trkpt lat="44.28125" lon="6.09382">
        <ele>1709.36</ele>
        <time>2018-12-06T11:40:53Z</time>
      </trkpt>
      <trkpt lat="44.28125" lon="6.09381">
        <ele>1709.36</ele>
        <time>2018-12-06T11:41:16Z</time>
      </trkpt>
      <trkpt lat="44.28125" lon="6.09384">
        <ele>1709.36</ele>
        <time>2018-12-06T11:41:50Z</time>
      </trkpt>
      <trkpt lat="44.28125" lon="6.09382">
        <ele>1709.36</ele>
        <time>2018-12-06T11:42:14Z</time>
      </trkpt>
      <trkpt lat="44.28123" lon="6.09383">
        <ele>1709.36</ele>
        <time>2018-12-06T11:42:44Z</time>
      </trkpt>
      <trkpt lat="44.28126" lon="6.09382">
        <ele>1708.88</ele>
        <time>2018-12-06T11:43:13Z</time>
      </trkpt>
      <trkpt lat="44.28125" lon="6.09382">
        <ele>1709.36</ele>
        <time>2018-12-06T11:43:37Z</time>
      </trkpt>
      <trkpt lat="44.28127" lon="6.09382">
        <ele>1709.36</ele>
        <time>2018-12-06T11:44:05Z</time>
      </trkpt>
      <trkpt lat="44.28127" lon="6.09383">
        <ele>1709.36</ele>
        <time>2018-12-06T11:44:27Z</time>
      </trkpt>
      <trkpt lat="44.28126" lon="6.09383">
        <ele>1708.88</ele>
        <time>2018-12-06T11:44:52Z</time>
      </trkpt>
      <trkpt lat="44.28126" lon="6.09383">
        <ele>1709.36</ele>
        <time>2018-12-06T11:45:17Z</time>
      </trkpt>
      <trkpt lat="44.28126" lon="6.09384">
        <ele>1708.88</ele>
        <time>2018-12-06T11:45:43Z</time>
      </trkpt>
      <trkpt lat="44.28126" lon="6.09383">
        <ele>1709.36</ele>
        <time>2018-12-06T11:46:05Z</time>
      </trkpt>
      <trkpt lat="44.28127" lon="6.09384">
        <ele>1709.36</ele>
        <time>2018-12-06T11:46:30Z</time>
      </trkpt>
      <trkpt lat="44.28126" lon="6.09383">
        <ele>1709.36</ele>
        <time>2018-12-06T11:46:55Z</time>
      </trkpt>
      <trkpt lat="44.28127" lon="6.09383">
        <ele>1709.84</ele>
        <time>2018-12-06T11:47:18Z</time>
      </trkpt>
      <trkpt lat="44.28126" lon="6.09384">
        <ele>1709.36</ele>
        <time>2018-12-06T11:47:39Z</time>
      </trkpt>
      <trkpt lat="44.28127" lon="6.09383">
        <ele>1709.36</ele>
        <time>2018-12-06T11:48:03Z</time>
      </trkpt>
      <trkpt lat="44.28125" lon="6.09383">
        <ele>1708.88</ele>
        <time>2018-12-06T11:48:29Z</time>
      </trkpt>
      <trkpt lat="44.28125" lon="6.09384">
        <ele>1709.36</ele>
        <time>2018-12-06T11:48:52Z</time>
      </trkpt>
      <trkpt lat="44.28127" lon="6.09384">
        <ele>1708.88</ele>
        <time>2018-12-06T11:49:16Z</time>
      </trkpt>
      <trkpt lat="44.28126" lon="6.09383">
        <ele>1708.88</ele>
        <time>2018-12-06T11:49:36Z</time>
      </trkpt>
      <trkpt lat="44.28126" lon="6.09383">
        <ele>1708.88</ele>
        <time>2018-12-06T11:50:00Z</time>
      </trkpt>
      <trkpt lat="44.28127" lon="6.09383">
        <ele>1709.36</ele>
        <time>2018-12-06T11:50:31Z</time>
      </trkpt>
      <trkpt lat="44.28127" lon="6.09384">
        <ele>1709.36</ele>
        <time>2018-12-06T11:50:56Z</time>
      </trkpt>
      <trkpt lat="44.28126" lon="6.09384">
        <ele>1708.88</ele>
        <time>2018-12-06T11:51:18Z</time>
      </trkpt>
      <trkpt lat="44.28126" lon="6.09383">
        <ele>1709.36</ele>
        <time>2018-12-06T11:51:47Z</time>
      </trkpt>
      <trkpt lat="44.28126" lon="6.09384">
        <ele>1709.36</ele>
        <time>2018-12-06T11:52:11Z</time>
      </trkpt>
      <trkpt lat="44.28126" lon="6.09384">
        <ele>1709.36</ele>
        <time>2018-12-06T11:52:37Z</time>
      </trkpt>
      <trkpt lat="44.28126" lon="6.09384">
        <ele>1709.36</ele>
        <time>2018-12-06T11:53:08Z</time>
      </trkpt>
      <trkpt lat="44.28126" lon="6.09383">
        <ele>1709.36</ele>
        <time>2018-12-06T11:53:28Z</time>
      </trkpt>
      <trkpt lat="44.28126" lon="6.09382">
        <ele>1708.88</ele>
        <time>2018-12-06T11:53:54Z</time>
      </trkpt>
      <trkpt lat="44.28126" lon="6.09383">
        <ele>1708.88</ele>
        <time>2018-12-06T11:54:23Z</time>
      </trkpt>
      <trkpt lat="44.28126" lon="6.09383">
        <ele>1709.36</ele>
        <time>2018-12-06T11:54:50Z</time>
      </trkpt>
      <trkpt lat="44.28125" lon="6.09383">
        <ele>1709.36</ele>
        <time>2018-12-06T11:55:23Z</time>
      </trkpt>
      <trkpt lat="44.28126" lon="6.09382">
        <ele>1709.84</ele>
        <time>2018-12-06T11:55:49Z</time>
      </trkpt>
      <trkpt lat="44.28126" lon="6.09382">
        <ele>1710.32</ele>
        <time>2018-12-06T11:56:11Z</time>
      </trkpt>
      <trkpt lat="44.28126" lon="6.09383">
        <ele>1709.84</ele>
        <time>2018-12-06T11:56:36Z</time>
      </trkpt>
      <trkpt lat="44.28125" lon="6.09384">
        <ele>1709.36</ele>
        <time>2018-12-06T11:57:07Z</time>
      </trkpt>
      <trkpt lat="44.28126" lon="6.09384">
        <ele>1709.36</ele>
        <time>2018-12-06T11:57:31Z</time>
      </trkpt>
      <trkpt lat="44.28126" lon="6.09384">
        <ele>1709.84</ele>
        <time>2018-12-06T11:57:58Z</time>
      </trkpt>
      <trkpt lat="44.28125" lon="6.09384">
        <ele>1709.84</ele>
        <time>2018-12-06T11:58:30Z</time>
      </trkpt>
      <trkpt lat="44.28125" lon="6.09381">
        <ele>1709.84</ele>
        <time>2018-12-06T11:59:02Z</time>
      </trkpt>
      <trkpt lat="44.28125" lon="6.09381">
        <ele>1709.84</ele>
        <time>2018-12-06T11:59:29Z</time>
      </trkpt>
      <trkpt lat="44.28124" lon="6.09379">
        <ele>1709.36</ele>
        <time>2018-12-06T11:59:56Z</time>
      </trkpt>
      <trkpt lat="44.28125" lon="6.0938">
        <ele>1709.84</ele>
        <time>2018-12-06T12:00:27Z</time>
      </trkpt>
      <trkpt lat="44.28124" lon="6.09382">
        <ele>1710.32</ele>
        <time>2018-12-06T12:00:54Z</time>
      </trkpt>
      <trkpt lat="44.28125" lon="6.09382">
        <ele>1710.8</ele>
        <time>2018-12-06T12:01:20Z</time>
      </trkpt>
      <trkpt lat="44.28126" lon="6.09385">
        <ele>1710.32</ele>
        <time>2018-12-06T12:01:40Z</time>
      </trkpt>
      <trkpt lat="44.28126" lon="6.09385">
        <ele>1711.28</ele>
        <time>2018-12-06T12:02:05Z</time>
      </trkpt>
      <trkpt lat="44.28126" lon="6.09383">
        <ele>1711.76</ele>
        <time>2018-12-06T12:02:33Z</time>
      </trkpt>
      <trkpt lat="44.28126" lon="6.09384">
        <ele>1711.28</ele>
        <time>2018-12-06T12:02:56Z</time>
      </trkpt>
      <trkpt lat="44.28127" lon="6.09386">
        <ele>1711.76</ele>
        <time>2018-12-06T12:03:22Z</time>
      </trkpt>
      <trkpt lat="44.28127" lon="6.09385">
        <ele>1712.25</ele>
        <time>2018-12-06T12:03:49Z</time>
      </trkpt>
      <trkpt lat="44.28126" lon="6.09385">
        <ele>1712.25</ele>
        <time>2018-12-06T12:04:13Z</time>
      </trkpt>
      <trkpt lat="44.28126" lon="6.09383">
        <ele>1712.73</ele>
        <time>2018-12-06T12:04:39Z</time>
      </trkpt>
      <trkpt lat="44.28126" lon="6.09384">
        <ele>1712.25</ele>
        <time>2018-12-06T12:05:02Z</time>
      </trkpt>
      <trkpt lat="44.28126" lon="6.09385">
        <ele>1712.73</ele>
        <time>2018-12-06T12:05:29Z</time>
      </trkpt>
      <trkpt lat="44.28126" lon="6.09385">
        <ele>1712.73</ele>
        <time>2018-12-06T12:05:57Z</time>
      </trkpt>
      <trkpt lat="44.28126" lon="6.09384">
        <ele>1712.73</ele>
        <time>2018-12-06T12:06:27Z</time>
      </trkpt>
      <trkpt lat="44.28126" lon="6.09384">
        <ele>1713.21</ele>
        <time>2018-12-06T12:06:53Z</time>
      </trkpt>
      <trkpt lat="44.28127" lon="6.09383">
        <ele>1713.69</ele>
        <time>2018-12-06T12:07:12Z</time>
      </trkpt>
      <trkpt lat="44.28126" lon="6.09383">
        <ele>1713.69</ele>
        <time>2018-12-06T12:07:42Z</time>
      </trkpt>
      <trkpt lat="44.28126" lon="6.09383">
        <ele>1713.69</ele>
        <time>2018-12-06T12:08:17Z</time>
      </trkpt>
      <trkpt lat="44.28126" lon="6.09384">
        <ele>1713.69</ele>
        <time>2018-12-06T12:08:43Z</time>
      </trkpt>
      <trkpt lat="44.28125" lon="6.09383">
        <ele>1713.69</ele>
        <time>2018-12-06T12:09:09Z</time>
      </trkpt>
      <trkpt lat="44.28127" lon="6.09384">
        <ele>1713.69</ele>
        <time>2018-12-06T12:09:38Z</time>
      </trkpt>
      <trkpt lat="44.28128" lon="6.09383">
        <ele>1713.69</ele>
        <time>2018-12-06T12:10:08Z</time>
      </trkpt>
      <trkpt lat="44.28127" lon="6.09383">
        <ele>1713.69</ele>
        <time>2018-12-06T12:10:32Z</time>
      </trkpt>
      <trkpt lat="44.28127" lon="6.09382">
        <ele>1712.73</ele>
        <time>2018-12-06T12:11:02Z</time>
      </trkpt>
      <trkpt lat="44.28128" lon="6.09383">
        <ele>1713.21</ele>
        <time>2018-12-06T12:11:27Z</time>
      </trkpt>
      <trkpt lat="44.28128" lon="6.09382">
        <ele>1713.21</ele>
        <time>2018-12-06T12:11:54Z</time>
      </trkpt>
      <trkpt lat="44.28128" lon="6.09384">
        <ele>1712.25</ele>
        <time>2018-12-06T12:12:26Z</time>
      </trkpt>
      <trkpt lat="44.28128" lon="6.09383">
        <ele>1712.25</ele>
        <time>2018-12-06T12:12:58Z</time>
      </trkpt>
      <trkpt lat="44.28127" lon="6.09384">
        <ele>1712.73</ele>
        <time>2018-12-06T12:13:34Z</time>
      </trkpt>
      <trkpt lat="44.28128" lon="6.09382">
        <ele>1712.25</ele>
        <time>2018-12-06T12:14:12Z</time>
      </trkpt>
      <trkpt lat="44.28128" lon="6.09384">
        <ele>1711.76</ele>
        <time>2018-12-06T12:14:44Z</time>
      </trkpt>
      <trkpt lat="44.28128" lon="6.09383">
        <ele>1712.25</ele>
        <time>2018-12-06T12:15:12Z</time>
      </trkpt>
      <trkpt lat="44.28128" lon="6.09382">
        <ele>1711.76</ele>
        <time>2018-12-06T12:15:49Z</time>
      </trkpt>
      <trkpt lat="44.28128" lon="6.09382">
        <ele>1712.73</ele>
        <time>2018-12-06T12:16:26Z</time>
      </trkpt>
      <trkpt lat="44.28128" lon="6.09383">
        <ele>1711.76</ele>
        <time>2018-12-06T12:16:53Z</time>
      </trkpt>
      <trkpt lat="44.28128" lon="6.09383">
        <ele>1711.76</ele>
        <time>2018-12-06T12:17:23Z</time>
      </trkpt>
      <trkpt lat="44.28128" lon="6.09382">
        <ele>1712.25</ele>
        <time>2018-12-06T12:17:56Z</time>
      </trkpt>
      <trkpt lat="44.28128" lon="6.09383">
        <ele>1712.25</ele>
        <time>2018-12-06T12:18:26Z</time>
      </trkpt>
      <trkpt lat="44.28129" lon="6.09383">
        <ele>1711.76</ele>
        <time>2018-12-06T12:18:53Z</time>
      </trkpt>
      <trkpt lat="44.28128" lon="6.09381">
        <ele>1711.28</ele>
        <time>2018-12-06T12:19:23Z</time>
      </trkpt>
      <trkpt lat="44.28129" lon="6.09381">
        <ele>1711.76</ele>
        <time>2018-12-06T12:19:54Z</time>
      </trkpt>
      <trkpt lat="44.28128" lon="6.09383">
        <ele>1711.28</ele>
        <time>2018-12-06T12:20:25Z</time>
      </trkpt>
      <trkpt lat="44.28128" lon="6.09384">
        <ele>1710.8</ele>
        <time>2018-12-06T12:20:56Z</time>
      </trkpt>
      <trkpt lat="44.28128" lon="6.09383">
        <ele>1710.32</ele>
        <time>2018-12-06T12:21:30Z</time>
      </trkpt>
      <trkpt lat="44.28128" lon="6.09382">
        <ele>1710.8</ele>
        <time>2018-12-06T12:22:14Z</time>
      </trkpt>
      <trkpt lat="44.28128" lon="6.09383">
        <ele>1710.32</ele>
        <time>2018-12-06T12:22:52Z</time>
      </trkpt>
      <trkpt lat="44.28128" lon="6.09383">
        <ele>1710.8</ele>
        <time>2018-12-06T12:23:26Z</time>
      </trkpt>
      <trkpt lat="44.28128" lon="6.09383">
        <ele>1710.8</ele>
        <time>2018-12-06T12:23:59Z</time>
      </trkpt>
      <trkpt lat="44.28129" lon="6.09383">
        <ele>1710.8</ele>
        <time>2018-12-06T12:24:26Z</time>
      </trkpt>
      <trkpt lat="44.28126" lon="6.09382">
        <ele>1710.32</ele>
        <time>2018-12-06T12:24:50Z</time>
      </trkpt>
      <trkpt lat="44.28127" lon="6.09384">
        <ele>1710.8</ele>
        <time>2018-12-06T12:25:10Z</time>
      </trkpt>
      <trkpt lat="44.28126" lon="6.09385">
        <ele>1710.8</ele>
        <time>2018-12-06T12:25:39Z</time>
      </trkpt>
      <trkpt lat="44.28126" lon="6.09385">
        <ele>1711.28</ele>
        <time>2018-12-06T12:26:10Z</time>
      </trkpt>
      <trkpt lat="44.28126" lon="6.09384">
        <ele>1711.28</ele>
        <time>2018-12-06T12:26:46Z</time>
      </trkpt>
      <trkpt lat="44.28126" lon="6.09383">
        <ele>1711.76</ele>
        <time>2018-12-06T12:27:20Z</time>
      </trkpt>
      <trkpt lat="44.28126" lon="6.09383">
        <ele>1711.76</ele>
        <time>2018-12-06T12:27:54Z</time>
      </trkpt>
      <trkpt lat="44.28127" lon="6.09384">
        <ele>1711.76</ele>
        <time>2018-12-06T12:28:25Z</time>
      </trkpt>
      <trkpt lat="44.28126" lon="6.09382">
        <ele>1711.76</ele>
        <time>2018-12-06T12:28:51Z</time>
      </trkpt>
      <trkpt lat="44.28127" lon="6.09383">
        <ele>1711.76</ele>
        <time>2018-12-06T12:29:17Z</time>
      </trkpt>
      <trkpt lat="44.28127" lon="6.09382">
        <ele>1712.25</ele>
        <time>2018-12-06T12:29:57Z</time>
      </trkpt>
      <trkpt lat="44.28127" lon="6.09384">
        <ele>1713.21</ele>
        <time>2018-12-06T12:30:27Z</time>
      </trkpt>
      <trkpt lat="44.28128" lon="6.09385">
        <ele>1712.73</ele>
        <time>2018-12-06T12:31:01Z</time>
      </trkpt>
      <trkpt lat="44.28128" lon="6.09385">
        <ele>1712.25</ele>
        <time>2018-12-06T12:31:34Z</time>
      </trkpt>
      <trkpt lat="44.28127" lon="6.09385">
        <ele>1712.25</ele>
        <time>2018-12-06T12:32:02Z</time>
      </trkpt>
      <trkpt lat="44.28126" lon="6.09384">
        <ele>1712.25</ele>
        <time>2018-12-06T12:32:15Z</time>
      </trkpt>
      <trkpt lat="44.28127" lon="6.09382">
        <ele>1713.21</ele>
        <time>2018-12-06T12:32:34Z</time>
      </trkpt>
      <trkpt lat="44.28126" lon="6.09383">
        <ele>1712.25</ele>
        <time>2018-12-06T12:32:55Z</time>
      </trkpt>
      <trkpt lat="44.28126" lon="6.09381">
        <ele>1712.25</ele>
        <time>2018-12-06T12:33:22Z</time>
      </trkpt>
      <trkpt lat="44.28127" lon="6.0938">
        <ele>1712.25</ele>
        <time>2018-12-06T12:33:41Z</time>
      </trkpt>
      <trkpt lat="44.28127" lon="6.0938">
        <ele>1712.25</ele>
        <time>2018-12-06T12:33:42Z</time>
      </trkpt>
      <trkpt lat="44.28127" lon="6.09379">
        <ele>1712.25</ele>
        <time>2018-12-06T12:33:53Z</time>
      </trkpt>
      <trkpt lat="44.28128" lon="6.09382">
        <ele>1712.25</ele>
        <time>2018-12-06T12:34:17Z</time>
      </trkpt>
      <trkpt lat="44.28129" lon="6.09383">
        <ele>1712.73</ele>
        <time>2018-12-06T12:34:41Z</time>
      </trkpt>
      <trkpt lat="44.28127" lon="6.0938">
        <ele>1713.21</ele>
        <time>2018-12-06T12:35:00Z</time>
      </trkpt>
      <trkpt lat="44.28128" lon="6.0938">
        <ele>1713.69</ele>
        <time>2018-12-06T12:35:19Z</time>
      </trkpt>
      <trkpt lat="44.28127" lon="6.09381">
        <ele>1712.73</ele>
        <time>2018-12-06T12:35:37Z</time>
      </trkpt>
      <trkpt lat="44.28127" lon="6.0938">
        <ele>1711.76</ele>
        <time>2018-12-06T12:35:55Z</time>
      </trkpt>
      <trkpt lat="44.28127" lon="6.0938">
        <ele>1711.76</ele>
        <time>2018-12-06T12:36:26Z</time>
      </trkpt>
      <trkpt lat="44.28128" lon="6.09379">
        <ele>1711.76</ele>
        <time>2018-12-06T12:36:53Z</time>
      </trkpt>
      <trkpt lat="44.28128" lon="6.09378">
        <ele>1711.28</ele>
        <time>2018-12-06T12:37:16Z</time>
      </trkpt>
      <trkpt lat="44.2813" lon="6.0937">
        <ele>1713.21</ele>
        <time>2018-12-06T12:37:30Z</time>
      </trkpt>
      <trkpt lat="44.28136" lon="6.09368">
        <ele>1713.21</ele>
        <time>2018-12-06T12:37:41Z</time>
      </trkpt>
      <trkpt lat="44.28139" lon="6.09368">
        <ele>1715.13</ele>
        <time>2018-12-06T12:37:56Z</time>
      </trkpt>
      <trkpt lat="44.28144" lon="6.09373">
        <ele>1715.13</ele>
        <time>2018-12-06T12:38:09Z</time>
      </trkpt>
      <trkpt lat="44.28147" lon="6.09375">
        <ele>1716.57</ele>
        <time>2018-12-06T12:38:14Z</time>
      </trkpt>
      <trkpt lat="44.28151" lon="6.09379">
        <ele>1716.57</ele>
        <time>2018-12-06T12:38:27Z</time>
      </trkpt>
      <trkpt lat="44.28159" lon="6.09381">
        <ele>1715.13</ele>
        <time>2018-12-06T12:38:42Z</time>
      </trkpt>
      <trkpt lat="44.28164" lon="6.09381">
        <ele>1711.76</ele>
        <time>2018-12-06T12:38:52Z</time>
      </trkpt>
      <trkpt lat="44.28169" lon="6.09385">
        <ele>1708.4</ele>
        <time>2018-12-06T12:39:04Z</time>
      </trkpt>
      <trkpt lat="44.28171" lon="6.09381">
        <ele>1707.44</ele>
        <time>2018-12-06T12:39:18Z</time>
      </trkpt>
      <trkpt lat="44.28173" lon="6.0938">
        <ele>1705.52</ele>
        <time>2018-12-06T12:39:21Z</time>
      </trkpt>
      <trkpt lat="44.2818" lon="6.09375">
        <ele>1704.55</ele>
        <time>2018-12-06T12:39:36Z</time>
      </trkpt>
      <trkpt lat="44.28188" lon="6.09374">
        <ele>1702.15</ele>
        <time>2018-12-06T12:39:50Z</time>
      </trkpt>
      <trkpt lat="44.28194" lon="6.09375">
        <ele>1700.23</ele>
        <time>2018-12-06T12:40:02Z</time>
      </trkpt>
      <trkpt lat="44.28196" lon="6.09373">
        <ele>1701.19</ele>
        <time>2018-12-06T12:40:16Z</time>
      </trkpt>
      <trkpt lat="44.28198" lon="6.09373">
        <ele>1699.75</ele>
        <time>2018-12-06T12:40:33Z</time>
      </trkpt>
      <trkpt lat="44.28199" lon="6.09372">
        <ele>1699.75</ele>
        <time>2018-12-06T12:40:34Z</time>
      </trkpt>
      <trkpt lat="44.28197" lon="6.09371">
        <ele>1700.23</ele>
        <time>2018-12-06T12:40:54Z</time>
      </trkpt>
      <trkpt lat="44.28201" lon="6.09372">
        <ele>1700.71</ele>
        <time>2018-12-06T12:41:22Z</time>
      </trkpt>
      <trkpt lat="44.28205" lon="6.09376">
        <ele>1701.19</ele>
        <time>2018-12-06T12:41:28Z</time>
      </trkpt>
      <trkpt lat="44.28209" lon="6.09381">
        <ele>1699.27</ele>
        <time>2018-12-06T12:41:33Z</time>
      </trkpt>
      <trkpt lat="44.28226" lon="6.09379">
        <ele>1696.38</ele>
        <time>2018-12-06T12:41:50Z</time>
      </trkpt>
      <trkpt lat="44.28229" lon="6.09378">
        <ele>1696.86</ele>
        <time>2018-12-06T12:41:53Z</time>
      </trkpt>
      <trkpt lat="44.2824" lon="6.09373">
        <ele>1694.94</ele>
        <time>2018-12-06T12:42:05Z</time>
      </trkpt>
      <trkpt lat="44.28244" lon="6.09373">
        <ele>1693.98</ele>
        <time>2018-12-06T12:42:19Z</time>
      </trkpt>
      <trkpt lat="44.28244" lon="6.09372">
        <ele>1693.02</ele>
        <time>2018-12-06T12:42:54Z</time>
      </trkpt>
      <trkpt lat="44.2825" lon="6.09368">
        <ele>1692.06</ele>
        <time>2018-12-06T12:43:12Z</time>
      </trkpt>
      <trkpt lat="44.28259" lon="6.09361">
        <ele>1691.1</ele>
        <time>2018-12-06T12:43:25Z</time>
      </trkpt>
      <trkpt lat="44.28259" lon="6.09353">
        <ele>1688.69</ele>
        <time>2018-12-06T12:43:38Z</time>
      </trkpt>
      <trkpt lat="44.28255" lon="6.09353">
        <ele>1687.25</ele>
        <time>2018-12-06T12:43:44Z</time>
      </trkpt>
      <trkpt lat="44.28247" lon="6.09345">
        <ele>1683.41</ele>
        <time>2018-12-06T12:43:55Z</time>
      </trkpt>
      <trkpt lat="44.2824" lon="6.09339">
        <ele>1680.52</ele>
        <time>2018-12-06T12:44:06Z</time>
      </trkpt>
      <trkpt lat="44.28245" lon="6.09331">
        <ele>1677.64</ele>
        <time>2018-12-06T12:44:21Z</time>
      </trkpt>
      <trkpt lat="44.28246" lon="6.0932">
        <ele>1674.75</ele>
        <time>2018-12-06T12:44:36Z</time>
      </trkpt>
      <trkpt lat="44.28245" lon="6.09309">
        <ele>1672.35</ele>
        <time>2018-12-06T12:44:50Z</time>
      </trkpt>
      <trkpt lat="44.2824" lon="6.09295">
        <ele>1669.47</ele>
        <time>2018-12-06T12:45:05Z</time>
      </trkpt>
      <trkpt lat="44.28234" lon="6.09289">
        <ele>1668.02</ele>
        <time>2018-12-06T12:45:19Z</time>
      </trkpt>
      <trkpt lat="44.2823" lon="6.09281">
        <ele>1666.58</ele>
        <time>2018-12-06T12:45:33Z</time>
      </trkpt>
      <trkpt lat="44.28227" lon="6.09278">
        <ele>1665.14</ele>
        <time>2018-12-06T12:45:47Z</time>
      </trkpt>
      <trkpt lat="44.28226" lon="6.09279">
        <ele>1664.66</ele>
        <time>2018-12-06T12:45:49Z</time>
      </trkpt>
      <trkpt lat="44.28223" lon="6.0928">
        <ele>1664.18</ele>
        <time>2018-12-06T12:45:52Z</time>
      </trkpt>
      <trkpt lat="44.28221" lon="6.09276">
        <ele>1663.22</ele>
        <time>2018-12-06T12:45:57Z</time>
      </trkpt>
      <trkpt lat="44.28221" lon="6.09265">
        <ele>1660.81</ele>
        <time>2018-12-06T12:46:09Z</time>
      </trkpt>
      <trkpt lat="44.28219" lon="6.09263">
        <ele>1660.81</ele>
        <time>2018-12-06T12:46:25Z</time>
      </trkpt>
      <trkpt lat="44.28216" lon="6.09265">
        <ele>1659.37</ele>
        <time>2018-12-06T12:46:41Z</time>
      </trkpt>
      <trkpt lat="44.28218" lon="6.09264">
        <ele>1658.89</ele>
        <time>2018-12-06T12:47:04Z</time>
      </trkpt>
      <trkpt lat="44.28211" lon="6.09266">
        <ele>1657.45</ele>
        <time>2018-12-06T12:47:25Z</time>
      </trkpt>
      <trkpt lat="44.28209" lon="6.09259">
        <ele>1656.97</ele>
        <time>2018-12-06T12:47:31Z</time>
      </trkpt>
      <trkpt lat="44.28207" lon="6.09257">
        <ele>1656.49</ele>
        <time>2018-12-06T12:47:34Z</time>
      </trkpt>
      <trkpt lat="44.28205" lon="6.09256">
        <ele>1656.01</ele>
        <time>2018-12-06T12:47:36Z</time>
      </trkpt>
      <trkpt lat="44.28201" lon="6.09253">
        <ele>1655.05</ele>
        <time>2018-12-06T12:47:41Z</time>
      </trkpt>
      <trkpt lat="44.28196" lon="6.09244">
        <ele>1652.64</ele>
        <time>2018-12-06T12:47:51Z</time>
      </trkpt>
      <trkpt lat="44.28189" lon="6.09244">
        <ele>1650.24</ele>
        <time>2018-12-06T12:48:02Z</time>
      </trkpt>
      <trkpt lat="44.28185" lon="6.09247">
        <ele>1648.8</ele>
        <time>2018-12-06T12:48:15Z</time>
      </trkpt>
      <trkpt lat="44.28178" lon="6.09244">
        <ele>1645.91</ele>
        <time>2018-12-06T12:48:28Z</time>
      </trkpt>
      <trkpt lat="44.28179" lon="6.09234">
        <ele>1643.51</ele>
        <time>2018-12-06T12:48:42Z</time>
      </trkpt>
      <trkpt lat="44.28178" lon="6.09232">
        <ele>1642.55</ele>
        <time>2018-12-06T12:48:45Z</time>
      </trkpt>
      <trkpt lat="44.28179" lon="6.09224">
        <ele>1640.63</ele>
        <time>2018-12-06T12:48:58Z</time>
      </trkpt>
      <trkpt lat="44.2817" lon="6.09227">
        <ele>1638.22</ele>
        <time>2018-12-06T12:49:13Z</time>
      </trkpt>
      <trkpt lat="44.28162" lon="6.09223">
        <ele>1635.34</ele>
        <time>2018-12-06T12:49:29Z</time>
      </trkpt>
      <trkpt lat="44.28156" lon="6.09224">
        <ele>1633.42</ele>
        <time>2018-12-06T12:49:41Z</time>
      </trkpt>
      <trkpt lat="44.28152" lon="6.09224">
        <ele>1631.98</ele>
        <time>2018-12-06T12:49:52Z</time>
      </trkpt>
      <trkpt lat="44.28144" lon="6.09217">
        <ele>1628.61</ele>
        <time>2018-12-06T12:50:04Z</time>
      </trkpt>
      <trkpt lat="44.2814" lon="6.09208">
        <ele>1628.13</ele>
        <time>2018-12-06T12:50:16Z</time>
      </trkpt>
      <trkpt lat="44.28133" lon="6.09202">
        <ele>1627.17</ele>
        <time>2018-12-06T12:50:27Z</time>
      </trkpt>
      <trkpt lat="44.28126" lon="6.09194">
        <ele>1625.73</ele>
        <time>2018-12-06T12:50:44Z</time>
      </trkpt>
      <trkpt lat="44.28119" lon="6.09188">
        <ele>1623.32</ele>
        <time>2018-12-06T12:50:58Z</time>
      </trkpt>
      <trkpt lat="44.28115" lon="6.09182">
        <ele>1622.84</ele>
        <time>2018-12-06T12:51:15Z</time>
      </trkpt>
      <trkpt lat="44.28107" lon="6.09175">
        <ele>1620.44</ele>
        <time>2018-12-06T12:51:29Z</time>
      </trkpt>
      <trkpt lat="44.28102" lon="6.09172">
        <ele>1619.96</ele>
        <time>2018-12-06T12:51:42Z</time>
      </trkpt>
      <trkpt lat="44.28091" lon="6.09166">
        <ele>1617.56</ele>
        <time>2018-12-06T12:51:56Z</time>
      </trkpt>
      <trkpt lat="44.28083" lon="6.09157">
        <ele>1615.63</ele>
        <time>2018-12-06T12:52:11Z</time>
      </trkpt>
      <trkpt lat="44.2807" lon="6.09149">
        <ele>1615.63</ele>
        <time>2018-12-06T12:52:27Z</time>
      </trkpt>
      <trkpt lat="44.28068" lon="6.09148">
        <ele>1615.15</ele>
        <time>2018-12-06T12:52:30Z</time>
      </trkpt>
      <trkpt lat="44.28064" lon="6.09149">
        <ele>1615.15</ele>
        <time>2018-12-06T12:52:33Z</time>
      </trkpt>
      <trkpt lat="44.28059" lon="6.09147">
        <ele>1615.63</ele>
        <time>2018-12-06T12:52:39Z</time>
      </trkpt>
      <trkpt lat="44.28057" lon="6.09148">
        <ele>1615.63</ele>
        <time>2018-12-06T12:52:41Z</time>
      </trkpt>
      <trkpt lat="44.2805" lon="6.0914">
        <ele>1615.15</ele>
        <time>2018-12-06T12:52:52Z</time>
      </trkpt>
      <trkpt lat="44.28046" lon="6.09136">
        <ele>1614.67</ele>
        <time>2018-12-06T12:53:05Z</time>
      </trkpt>
      <trkpt lat="44.28046" lon="6.09133">
        <ele>1614.67</ele>
        <time>2018-12-06T12:53:21Z</time>
      </trkpt>
      <trkpt lat="44.28041" lon="6.09132">
        <ele>1613.71</ele>
        <time>2018-12-06T12:53:37Z</time>
      </trkpt>
      <trkpt lat="44.28035" lon="6.09132">
        <ele>1611.31</ele>
        <time>2018-12-06T12:53:51Z</time>
      </trkpt>
      <trkpt lat="44.28027" lon="6.09132">
        <ele>1609.38</ele>
        <time>2018-12-06T12:53:59Z</time>
      </trkpt>
      <trkpt lat="44.28014" lon="6.09128">
        <ele>1606.5</ele>
        <time>2018-12-06T12:54:13Z</time>
      </trkpt>
      <trkpt lat="44.27999" lon="6.09127">
        <ele>1604.1</ele>
        <time>2018-12-06T12:54:28Z</time>
      </trkpt>
      <trkpt lat="44.27994" lon="6.09126">
        <ele>1603.62</ele>
        <time>2018-12-06T12:54:40Z</time>
      </trkpt>
      <trkpt lat="44.27987" lon="6.09119">
        <ele>1600.25</ele>
        <time>2018-12-06T12:54:53Z</time>
      </trkpt>
      <trkpt lat="44.27982" lon="6.09111">
        <ele>1596.89</ele>
        <time>2018-12-06T12:55:04Z</time>
      </trkpt>
      <trkpt lat="44.27983" lon="6.09099">
        <ele>1595.45</ele>
        <time>2018-12-06T12:55:17Z</time>
      </trkpt>
      <trkpt lat="44.27986" lon="6.09087">
        <ele>1592.56</ele>
        <time>2018-12-06T12:55:33Z</time>
      </trkpt>
      <trkpt lat="44.27988" lon="6.09075">
        <ele>1591.6</ele>
        <time>2018-12-06T12:55:47Z</time>
      </trkpt>
      <trkpt lat="44.27984" lon="6.09067">
        <ele>1591.12</ele>
        <time>2018-12-06T12:56:01Z</time>
      </trkpt>
      <trkpt lat="44.27984" lon="6.09067">
        <ele>1590.64</ele>
        <time>2018-12-06T12:56:14Z</time>
      </trkpt>
      <trkpt lat="44.27985" lon="6.09065">
        <ele>1590.64</ele>
        <time>2018-12-06T12:56:28Z</time>
      </trkpt>
      <trkpt lat="44.27989" lon="6.09064">
        <ele>1589.68</ele>
        <time>2018-12-06T12:56:40Z</time>
      </trkpt>
      <trkpt lat="44.27992" lon="6.09066">
        <ele>1588.24</ele>
        <time>2018-12-06T12:56:45Z</time>
      </trkpt>
      <trkpt lat="44.27998" lon="6.09054">
        <ele>1584.87</ele>
        <time>2018-12-06T12:56:58Z</time>
      </trkpt>
      <trkpt lat="44.28003" lon="6.09046">
        <ele>1581.99</ele>
        <time>2018-12-06T12:57:11Z</time>
      </trkpt>
      <trkpt lat="44.28006" lon="6.0904">
        <ele>1578.14</ele>
        <time>2018-12-06T12:57:21Z</time>
      </trkpt>
      <trkpt lat="44.28011" lon="6.09032">
        <ele>1575.26</ele>
        <time>2018-12-06T12:57:34Z</time>
      </trkpt>
      <trkpt lat="44.28012" lon="6.09032">
        <ele>1574.3</ele>
        <time>2018-12-06T12:57:36Z</time>
      </trkpt>
      <trkpt lat="44.28011" lon="6.0902">
        <ele>1571.89</ele>
        <time>2018-12-06T12:57:48Z</time>
      </trkpt>
      <trkpt lat="44.28011" lon="6.09018">
        <ele>1571.41</ele>
        <time>2018-12-06T12:57:50Z</time>
      </trkpt>
      <trkpt lat="44.28011" lon="6.09011">
        <ele>1570.45</ele>
        <time>2018-12-06T12:57:55Z</time>
      </trkpt>
      <trkpt lat="44.2801" lon="6.09006">
        <ele>1569.01</ele>
        <time>2018-12-06T12:57:59Z</time>
      </trkpt>
      <trkpt lat="44.28015" lon="6.09001">
        <ele>1569.01</ele>
        <time>2018-12-06T12:58:12Z</time>
      </trkpt>
      <trkpt lat="44.28014" lon="6.09001">
        <ele>1569.49</ele>
        <time>2018-12-06T12:58:46Z</time>
      </trkpt>
      <trkpt lat="44.28013" lon="6.09003">
        <ele>1571.41</ele>
        <time>2018-12-06T12:59:08Z</time>
      </trkpt>
      <trkpt lat="44.28013" lon="6.09001">
        <ele>1569.01</ele>
        <time>2018-12-06T12:59:34Z</time>
      </trkpt>
      <trkpt lat="44.28015" lon="6.08998">
        <ele>1569.49</ele>
        <time>2018-12-06T12:59:55Z</time>
      </trkpt>
      <trkpt lat="44.28013" lon="6.09001">
        <ele>1569.01</ele>
        <time>2018-12-06T13:00:11Z</time>
      </trkpt>
      <trkpt lat="44.28013" lon="6.09002">
        <ele>1569.97</ele>
        <time>2018-12-06T13:00:45Z</time>
      </trkpt>
      <trkpt lat="44.28013" lon="6.09004">
        <ele>1569.49</ele>
        <time>2018-12-06T13:01:18Z</time>
      </trkpt>
      <trkpt lat="44.28009" lon="6.09009">
        <ele>1569.01</ele>
        <time>2018-12-06T13:01:33Z</time>
      </trkpt>
      <trkpt lat="44.28005" lon="6.09006">
        <ele>1568.05</ele>
        <time>2018-12-06T13:01:47Z</time>
      </trkpt>
      <trkpt lat="44.27998" lon="6.09005">
        <ele>1566.12</ele>
        <time>2018-12-06T13:02:03Z</time>
      </trkpt>
      <trkpt lat="44.2799" lon="6.09002">
        <ele>1563.24</ele>
        <time>2018-12-06T13:02:19Z</time>
      </trkpt>
      <trkpt lat="44.27986" lon="6.08999">
        <ele>1561.32</ele>
        <time>2018-12-06T13:02:32Z</time>
      </trkpt>
      <trkpt lat="44.27986" lon="6.08994">
        <ele>1559.4</ele>
        <time>2018-12-06T13:02:42Z</time>
      </trkpt>
      <trkpt lat="44.2798" lon="6.08986">
        <ele>1556.03</ele>
        <time>2018-12-06T13:02:54Z</time>
      </trkpt>
      <trkpt lat="44.27975" lon="6.08977">
        <ele>1553.15</ele>
        <time>2018-12-06T13:03:05Z</time>
      </trkpt>
      <trkpt lat="44.2797" lon="6.08964">
        <ele>1550.26</ele>
        <time>2018-12-06T13:03:21Z</time>
      </trkpt>
      <trkpt lat="44.2797" lon="6.08955">
        <ele>1547.86</ele>
        <time>2018-12-06T13:03:34Z</time>
      </trkpt>
      <trkpt lat="44.27971" lon="6.08944">
        <ele>1544.98</ele>
        <time>2018-12-06T13:03:46Z</time>
      </trkpt>
      <trkpt lat="44.27965" lon="6.08941">
        <ele>1542.09</ele>
        <time>2018-12-06T13:04:03Z</time>
      </trkpt>
      <trkpt lat="44.27963" lon="6.0893">
        <ele>1539.21</ele>
        <time>2018-12-06T13:04:17Z</time>
      </trkpt>
      <trkpt lat="44.27962" lon="6.08924">
        <ele>1537.77</ele>
        <time>2018-12-06T13:04:26Z</time>
      </trkpt>
      <trkpt lat="44.27961" lon="6.08917">
        <ele>1535.36</ele>
        <time>2018-12-06T13:04:38Z</time>
      </trkpt>
      <trkpt lat="44.27961" lon="6.08906">
        <ele>1532</ele>
        <time>2018-12-06T13:04:53Z</time>
      </trkpt>
      <trkpt lat="44.27958" lon="6.08898">
        <ele>1529.59</ele>
        <time>2018-12-06T13:05:08Z</time>
      </trkpt>
      <trkpt lat="44.27957" lon="6.08888">
        <ele>1526.23</ele>
        <time>2018-12-06T13:05:21Z</time>
      </trkpt>
      <trkpt lat="44.27957" lon="6.08877">
        <ele>1522.87</ele>
        <time>2018-12-06T13:05:36Z</time>
      </trkpt>
      <trkpt lat="44.27949" lon="6.08867">
        <ele>1519.98</ele>
        <time>2018-12-06T13:05:51Z</time>
      </trkpt>
      <trkpt lat="44.2794" lon="6.08862">
        <ele>1516.62</ele>
        <time>2018-12-06T13:06:08Z</time>
      </trkpt>
      <trkpt lat="44.27933" lon="6.08853">
        <ele>1513.73</ele>
        <time>2018-12-06T13:06:22Z</time>
      </trkpt>
      <trkpt lat="44.27926" lon="6.08843">
        <ele>1510.37</ele>
        <time>2018-12-06T13:06:38Z</time>
      </trkpt>
      <trkpt lat="44.27924" lon="6.08833">
        <ele>1507.97</ele>
        <time>2018-12-06T13:06:51Z</time>
      </trkpt>
      <trkpt lat="44.27923" lon="6.08821">
        <ele>1506.04</ele>
        <time>2018-12-06T13:07:04Z</time>
      </trkpt>
      <trkpt lat="44.2792" lon="6.08814">
        <ele>1502.2</ele>
        <time>2018-12-06T13:07:13Z</time>
      </trkpt>
      <trkpt lat="44.27919" lon="6.08804">
        <ele>1500.27</ele>
        <time>2018-12-06T13:07:27Z</time>
      </trkpt>
      <trkpt lat="44.27916" lon="6.08796">
        <ele>1496.91</ele>
        <time>2018-12-06T13:07:41Z</time>
      </trkpt>
      <trkpt lat="44.27914" lon="6.08787">
        <ele>1493.55</ele>
        <time>2018-12-06T13:07:54Z</time>
      </trkpt>
      <trkpt lat="44.27914" lon="6.08776">
        <ele>1490.18</ele>
        <time>2018-12-06T13:08:06Z</time>
      </trkpt>
      <trkpt lat="44.27915" lon="6.08766">
        <ele>1487.78</ele>
        <time>2018-12-06T13:08:18Z</time>
      </trkpt>
      <trkpt lat="44.27911" lon="6.08755">
        <ele>1484.89</ele>
        <time>2018-12-06T13:08:30Z</time>
      </trkpt>
      <trkpt lat="44.27912" lon="6.08751">
        <ele>1483.93</ele>
        <time>2018-12-06T13:08:34Z</time>
      </trkpt>
      <trkpt lat="44.27913" lon="6.08741">
        <ele>1482.49</ele>
        <time>2018-12-06T13:08:42Z</time>
      </trkpt>
      <trkpt lat="44.27915" lon="6.0873">
        <ele>1479.61</ele>
        <time>2018-12-06T13:08:54Z</time>
      </trkpt>
      <trkpt lat="44.27913" lon="6.08715">
        <ele>1476.24</ele>
        <time>2018-12-06T13:09:08Z</time>
      </trkpt>
      <trkpt lat="44.27908" lon="6.08701">
        <ele>1473.36</ele>
        <time>2018-12-06T13:09:21Z</time>
      </trkpt>
      <trkpt lat="44.27908" lon="6.08686">
        <ele>1469.99</ele>
        <time>2018-12-06T13:09:36Z</time>
      </trkpt>
      <trkpt lat="44.27909" lon="6.08676">
        <ele>1468.55</ele>
        <time>2018-12-06T13:09:51Z</time>
      </trkpt>
      <trkpt lat="44.27911" lon="6.08669">
        <ele>1466.63</ele>
        <time>2018-12-06T13:10:07Z</time>
      </trkpt>
      <trkpt lat="44.27909" lon="6.08665">
        <ele>1466.63</ele>
        <time>2018-12-06T13:10:32Z</time>
      </trkpt>
      <trkpt lat="44.27909" lon="6.0866">
        <ele>1465.67</ele>
        <time>2018-12-06T13:10:48Z</time>
      </trkpt>
      <trkpt lat="44.27902" lon="6.08651">
        <ele>1463.26</ele>
        <time>2018-12-06T13:11:00Z</time>
      </trkpt>
      <trkpt lat="44.27897" lon="6.08639">
        <ele>1461.34</ele>
        <time>2018-12-06T13:11:15Z</time>
      </trkpt>
      <trkpt lat="44.27892" lon="6.08628">
        <ele>1458.94</ele>
        <time>2018-12-06T13:11:29Z</time>
      </trkpt>
      <trkpt lat="44.27885" lon="6.08618">
        <ele>1457.5</ele>
        <time>2018-12-06T13:11:44Z</time>
      </trkpt>
      <trkpt lat="44.27891" lon="6.08607">
        <ele>1454.13</ele>
        <time>2018-12-06T13:11:58Z</time>
      </trkpt>
      <trkpt lat="44.27893" lon="6.08593">
        <ele>1454.13</ele>
        <time>2018-12-06T13:12:11Z</time>
      </trkpt>
      <trkpt lat="44.27888" lon="6.08579">
        <ele>1450.77</ele>
        <time>2018-12-06T13:12:25Z</time>
      </trkpt>
      <trkpt lat="44.27884" lon="6.08574">
        <ele>1449.32</ele>
        <time>2018-12-06T13:12:30Z</time>
      </trkpt>
      <trkpt lat="44.27888" lon="6.08556">
        <ele>1445.96</ele>
        <time>2018-12-06T13:12:45Z</time>
      </trkpt>
      <trkpt lat="44.27888" lon="6.08546">
        <ele>1443.08</ele>
        <time>2018-12-06T13:12:58Z</time>
      </trkpt>
      <trkpt lat="44.27877" lon="6.08545">
        <ele>1443.08</ele>
        <time>2018-12-06T13:13:13Z</time>
      </trkpt>
      <trkpt lat="44.27869" lon="6.08535">
        <ele>1441.63</ele>
        <time>2018-12-06T13:13:29Z</time>
      </trkpt>
      <trkpt lat="44.27863" lon="6.08535">
        <ele>1440.67</ele>
        <time>2018-12-06T13:13:42Z</time>
      </trkpt>
      <trkpt lat="44.27854" lon="6.08539">
        <ele>1441.63</ele>
        <time>2018-12-06T13:13:56Z</time>
      </trkpt>
      <trkpt lat="44.27847" lon="6.08541">
        <ele>1442.11</ele>
        <time>2018-12-06T13:14:11Z</time>
      </trkpt>
      <trkpt lat="44.27839" lon="6.08546">
        <ele>1443.08</ele>
        <time>2018-12-06T13:14:23Z</time>
      </trkpt>
      <trkpt lat="44.27837" lon="6.08553">
        <ele>1443.56</ele>
        <time>2018-12-06T13:14:32Z</time>
      </trkpt>
      <trkpt lat="44.27834" lon="6.08557">
        <ele>1443.56</ele>
        <time>2018-12-06T13:14:44Z</time>
      </trkpt>
      <trkpt lat="44.27831" lon="6.0856">
        <ele>1444.04</ele>
        <time>2018-12-06T13:14:51Z</time>
      </trkpt>
      <trkpt lat="44.27819" lon="6.08566">
        <ele>1444.04</ele>
        <time>2018-12-06T13:15:06Z</time>
      </trkpt>
      <trkpt lat="44.27809" lon="6.08566">
        <ele>1445</ele>
        <time>2018-12-06T13:15:20Z</time>
      </trkpt>
      <trkpt lat="44.27799" lon="6.08569">
        <ele>1444.52</ele>
        <time>2018-12-06T13:15:33Z</time>
      </trkpt>
      <trkpt lat="44.27796" lon="6.0858">
        <ele>1445</ele>
        <time>2018-12-06T13:15:48Z</time>
      </trkpt>
      <trkpt lat="44.27787" lon="6.08588">
        <ele>1444.52</ele>
        <time>2018-12-06T13:16:03Z</time>
      </trkpt>
      <trkpt lat="44.27785" lon="6.08592">
        <ele>1443.56</ele>
        <time>2018-12-06T13:16:15Z</time>
      </trkpt>
      <trkpt lat="44.27781" lon="6.08595">
        <ele>1443.56</ele>
        <time>2018-12-06T13:16:46Z</time>
      </trkpt>
      <trkpt lat="44.27784" lon="6.08594">
        <ele>1444.52</ele>
        <time>2018-12-06T13:16:58Z</time>
      </trkpt>
      <trkpt lat="44.27783" lon="6.08593">
        <ele>1443.08</ele>
        <time>2018-12-06T13:17:14Z</time>
      </trkpt>
      <trkpt lat="44.27785" lon="6.08592">
        <ele>1444.04</ele>
        <time>2018-12-06T13:17:28Z</time>
      </trkpt>
      <trkpt lat="44.27789" lon="6.0859">
        <ele>1444.04</ele>
        <time>2018-12-06T13:17:48Z</time>
      </trkpt>
      <trkpt lat="44.27785" lon="6.08588">
        <ele>1443.56</ele>
        <time>2018-12-06T13:18:12Z</time>
      </trkpt>
      <trkpt lat="44.2778" lon="6.08587">
        <ele>1443.08</ele>
        <time>2018-12-06T13:18:34Z</time>
      </trkpt>
      <trkpt lat="44.27776" lon="6.08586">
        <ele>1442.11</ele>
        <time>2018-12-06T13:18:47Z</time>
      </trkpt>
      <trkpt lat="44.27772" lon="6.08584">
        <ele>1440.67</ele>
        <time>2018-12-06T13:19:12Z</time>
      </trkpt>
      <trkpt lat="44.27772" lon="6.08584">
        <ele>1440.67</ele>
        <time>2018-12-06T13:19:13Z</time>
      </trkpt>
      <trkpt lat="44.27771" lon="6.08586">
        <ele>1438.27</ele>
        <time>2018-12-06T13:19:23Z</time>
      </trkpt>
      <trkpt lat="44.27771" lon="6.08585">
        <ele>1437.31</ele>
        <time>2018-12-06T13:19:36Z</time>
      </trkpt>
      <trkpt lat="44.27771" lon="6.08584">
        <ele>1437.31</ele>
        <time>2018-12-06T13:19:50Z</time>
      </trkpt>
      <trkpt lat="44.27771" lon="6.08579">
        <ele>1436.83</ele>
        <time>2018-12-06T13:20:04Z</time>
      </trkpt>
      <trkpt lat="44.27771" lon="6.08578">
        <ele>1436.83</ele>
        <time>2018-12-06T13:20:25Z</time>
      </trkpt>
      <trkpt lat="44.27771" lon="6.08577">
        <ele>1436.83</ele>
        <time>2018-12-06T13:20:31Z</time>
      </trkpt>
      <trkpt lat="44.27774" lon="6.0856">
        <ele>1435.87</ele>
        <time>2018-12-06T13:20:45Z</time>
      </trkpt>
      <trkpt lat="44.27776" lon="6.08536">
        <ele>1434.42</ele>
        <time>2018-12-06T13:21:03Z</time>
      </trkpt>
      <trkpt lat="44.27776" lon="6.08517">
        <ele>1432.98</ele>
        <time>2018-12-06T13:21:17Z</time>
      </trkpt>
      <trkpt lat="44.27777" lon="6.08505">
        <ele>1432.02</ele>
        <time>2018-12-06T13:21:31Z</time>
      </trkpt>
      <trkpt lat="44.27781" lon="6.08487">
        <ele>1430.58</ele>
        <time>2018-12-06T13:21:47Z</time>
      </trkpt>
      <trkpt lat="44.2779" lon="6.08469">
        <ele>1428.66</ele>
        <time>2018-12-06T13:22:03Z</time>
      </trkpt>
      <trkpt lat="44.27797" lon="6.0846">
        <ele>1427.21</ele>
        <time>2018-12-06T13:22:14Z</time>
      </trkpt>
      <trkpt lat="44.27806" lon="6.08451">
        <ele>1425.77</ele>
        <time>2018-12-06T13:22:27Z</time>
      </trkpt>
      <trkpt lat="44.27817" lon="6.08438">
        <ele>1424.33</ele>
        <time>2018-12-06T13:22:43Z</time>
      </trkpt>
      <trkpt lat="44.27825" lon="6.08427">
        <ele>1422.41</ele>
        <time>2018-12-06T13:22:54Z</time>
      </trkpt>
      <trkpt lat="44.27836" lon="6.08412">
        <ele>1420.97</ele>
        <time>2018-12-06T13:23:10Z</time>
      </trkpt>
      <trkpt lat="44.27849" lon="6.08404">
        <ele>1419.52</ele>
        <time>2018-12-06T13:23:25Z</time>
      </trkpt>
      <trkpt lat="44.27852" lon="6.08403">
        <ele>1419.04</ele>
        <time>2018-12-06T13:23:28Z</time>
      </trkpt>
      <trkpt lat="44.27854" lon="6.08402">
        <ele>1419.04</ele>
        <time>2018-12-06T13:23:30Z</time>
      </trkpt>
      <trkpt lat="44.27858" lon="6.08394">
        <ele>1418.08</ele>
        <time>2018-12-06T13:23:36Z</time>
      </trkpt>
      <trkpt lat="44.27857" lon="6.08389">
        <ele>1417.6</ele>
        <time>2018-12-06T13:23:39Z</time>
      </trkpt>
      <trkpt lat="44.27854" lon="6.08386">
        <ele>1417.6</ele>
        <time>2018-12-06T13:23:42Z</time>
      </trkpt>
      <trkpt lat="44.27841" lon="6.08377">
        <ele>1416.16</ele>
        <time>2018-12-06T13:23:57Z</time>
      </trkpt>
      <trkpt lat="44.27829" lon="6.08367">
        <ele>1414.72</ele>
        <time>2018-12-06T13:24:11Z</time>
      </trkpt>
      <trkpt lat="44.27816" lon="6.08354">
        <ele>1412.79</ele>
        <time>2018-12-06T13:24:26Z</time>
      </trkpt>
      <trkpt lat="44.27805" lon="6.08341">
        <ele>1410.87</ele>
        <time>2018-12-06T13:24:41Z</time>
      </trkpt>
      <trkpt lat="44.2779" lon="6.08327">
        <ele>1409.43</ele>
        <time>2018-12-06T13:24:57Z</time>
      </trkpt>
      <trkpt lat="44.27787" lon="6.08325">
        <ele>1408.95</ele>
        <time>2018-12-06T13:25:01Z</time>
      </trkpt>
      <trkpt lat="44.27772" lon="6.08315">
        <ele>1407.03</ele>
        <time>2018-12-06T13:25:16Z</time>
      </trkpt>
      <trkpt lat="44.2777" lon="6.08313">
        <ele>1406.55</ele>
        <time>2018-12-06T13:25:19Z</time>
      </trkpt>
      <trkpt lat="44.27757" lon="6.08299">
        <ele>1404.62</ele>
        <time>2018-12-06T13:25:35Z</time>
      </trkpt>
      <trkpt lat="44.27743" lon="6.08284">
        <ele>1402.7</ele>
        <time>2018-12-06T13:25:51Z</time>
      </trkpt>
      <trkpt lat="44.27728" lon="6.08282">
        <ele>1402.7</ele>
        <time>2018-12-06T13:26:08Z</time>
      </trkpt>
      <trkpt lat="44.27724" lon="6.08286">
        <ele>1401.74</ele>
        <time>2018-12-06T13:26:25Z</time>
      </trkpt>
      <trkpt lat="44.27723" lon="6.08288">
        <ele>1401.74</ele>
        <time>2018-12-06T13:26:28Z</time>
      </trkpt>
      <trkpt lat="44.27719" lon="6.08312">
        <ele>1400.78</ele>
        <time>2018-12-06T13:26:48Z</time>
      </trkpt>
      <trkpt lat="44.27717" lon="6.0833">
        <ele>1399.34</ele>
        <time>2018-12-06T13:27:03Z</time>
      </trkpt>
      <trkpt lat="44.27715" lon="6.08345">
        <ele>1397.89</ele>
        <time>2018-12-06T13:27:16Z</time>
      </trkpt>
      <trkpt lat="44.27714" lon="6.08346">
        <ele>1397.89</ele>
        <time>2018-12-06T13:27:23Z</time>
      </trkpt>
      <trkpt lat="44.27713" lon="6.08361">
        <ele>1397.41</ele>
        <time>2018-12-06T13:27:35Z</time>
      </trkpt>
      <trkpt lat="44.27714" lon="6.08379">
        <ele>1395.97</ele>
        <time>2018-12-06T13:27:49Z</time>
      </trkpt>
      <trkpt lat="44.27712" lon="6.084">
        <ele>1394.53</ele>
        <time>2018-12-06T13:28:05Z</time>
      </trkpt>
      <trkpt lat="44.27712" lon="6.08411">
        <ele>1394.05</ele>
        <time>2018-12-06T13:28:12Z</time>
      </trkpt>
      <trkpt lat="44.2771" lon="6.08432">
        <ele>1393.09</ele>
        <time>2018-12-06T13:28:27Z</time>
      </trkpt>
      <trkpt lat="44.27709" lon="6.08434">
        <ele>1392.61</ele>
        <time>2018-12-06T13:28:30Z</time>
      </trkpt>
      <trkpt lat="44.27703" lon="6.08432">
        <ele>1392.13</ele>
        <time>2018-12-06T13:28:35Z</time>
      </trkpt>
      <trkpt lat="44.27702" lon="6.08427">
        <ele>1391.65</ele>
        <time>2018-12-06T13:28:38Z</time>
      </trkpt>
      <trkpt lat="44.27702" lon="6.08415">
        <ele>1390.68</ele>
        <time>2018-12-06T13:28:47Z</time>
      </trkpt>
      <trkpt lat="44.27699" lon="6.08401">
        <ele>1389.24</ele>
        <time>2018-12-06T13:28:58Z</time>
      </trkpt>
      <trkpt lat="44.27692" lon="6.08378">
        <ele>1387.8</ele>
        <time>2018-12-06T13:29:16Z</time>
      </trkpt>
      <trkpt lat="44.27692" lon="6.08373">
        <ele>1387.32</ele>
        <time>2018-12-06T13:29:19Z</time>
      </trkpt>
      <trkpt lat="44.27689" lon="6.08363">
        <ele>1385.88</ele>
        <time>2018-12-06T13:29:27Z</time>
      </trkpt>
      <trkpt lat="44.27684" lon="6.08343">
        <ele>1383.96</ele>
        <time>2018-12-06T13:29:43Z</time>
      </trkpt>
      <trkpt lat="44.27683" lon="6.08339">
        <ele>1383.47</ele>
        <time>2018-12-06T13:29:46Z</time>
      </trkpt>
      <trkpt lat="44.27681" lon="6.0832">
        <ele>1381.55</ele>
        <time>2018-12-06T13:30:01Z</time>
      </trkpt>
      <trkpt lat="44.27686" lon="6.08297">
        <ele>1379.63</ele>
        <time>2018-12-06T13:30:16Z</time>
      </trkpt>
      <trkpt lat="44.27686" lon="6.08296">
        <ele>1379.15</ele>
        <time>2018-12-06T13:30:17Z</time>
      </trkpt>
      <trkpt lat="44.27691" lon="6.08278">
        <ele>1377.71</ele>
        <time>2018-12-06T13:30:31Z</time>
      </trkpt>
      <trkpt lat="44.27683" lon="6.08275">
        <ele>1375.78</ele>
        <time>2018-12-06T13:30:46Z</time>
      </trkpt>
      <trkpt lat="44.27682" lon="6.08279">
        <ele>1375.3</ele>
        <time>2018-12-06T13:30:49Z</time>
      </trkpt>
      <trkpt lat="44.27672" lon="6.08295">
        <ele>1373.38</ele>
        <time>2018-12-06T13:31:04Z</time>
      </trkpt>
      <trkpt lat="44.27658" lon="6.08311">
        <ele>1370.5</ele>
        <time>2018-12-06T13:31:24Z</time>
      </trkpt>
      <trkpt lat="44.27649" lon="6.08329">
        <ele>1368.57</ele>
        <time>2018-12-06T13:31:40Z</time>
      </trkpt>
      <trkpt lat="44.27639" lon="6.08342">
        <ele>1367.61</ele>
        <time>2018-12-06T13:31:52Z</time>
      </trkpt>
      <trkpt lat="44.27635" lon="6.08341">
        <ele>1367.61</ele>
        <time>2018-12-06T13:31:55Z</time>
      </trkpt>
      <trkpt lat="44.27633" lon="6.08331">
        <ele>1367.13</ele>
        <time>2018-12-06T13:32:02Z</time>
      </trkpt>
      <trkpt lat="44.27636" lon="6.08322">
        <ele>1367.13</ele>
        <time>2018-12-06T13:32:10Z</time>
      </trkpt>
      <trkpt lat="44.27646" lon="6.08302">
        <ele>1364.25</ele>
        <time>2018-12-06T13:32:25Z</time>
      </trkpt>
      <trkpt lat="44.27653" lon="6.08281">
        <ele>1362.33</ele>
        <time>2018-12-06T13:32:41Z</time>
      </trkpt>
      <trkpt lat="44.27657" lon="6.0826">
        <ele>1360.4</ele>
        <time>2018-12-06T13:32:56Z</time>
      </trkpt>
      <trkpt lat="44.27663" lon="6.08245">
        <ele>1358.96</ele>
        <time>2018-12-06T13:33:09Z</time>
      </trkpt>
      <trkpt lat="44.2767" lon="6.08222">
        <ele>1356.56</ele>
        <time>2018-12-06T13:33:27Z</time>
      </trkpt>
      <trkpt lat="44.27674" lon="6.08195">
        <ele>1353.67</ele>
        <time>2018-12-06T13:33:46Z</time>
      </trkpt>
      <trkpt lat="44.27678" lon="6.08175">
        <ele>1352.23</ele>
        <time>2018-12-06T13:34:02Z</time>
      </trkpt>
      <trkpt lat="44.27679" lon="6.08165">
        <ele>1350.79</ele>
        <time>2018-12-06T13:34:14Z</time>
      </trkpt>
      <trkpt lat="44.27678" lon="6.08163">
        <ele>1350.79</ele>
        <time>2018-12-06T13:34:32Z</time>
      </trkpt>
      <trkpt lat="44.27675" lon="6.08164">
        <ele>1351.27</ele>
        <time>2018-12-06T13:34:56Z</time>
      </trkpt>
      <trkpt lat="44.27673" lon="6.08165">
        <ele>1350.79</ele>
        <time>2018-12-06T13:34:58Z</time>
      </trkpt>
      <trkpt lat="44.27666" lon="6.08183">
        <ele>1348.39</ele>
        <time>2018-12-06T13:35:14Z</time>
      </trkpt>
      <trkpt lat="44.27656" lon="6.08196">
        <ele>1346.94</ele>
        <time>2018-12-06T13:35:31Z</time>
      </trkpt>
      <trkpt lat="44.27646" lon="6.0821">
        <ele>1345.5</ele>
        <time>2018-12-06T13:35:47Z</time>
      </trkpt>
      <trkpt lat="44.27631" lon="6.08214">
        <ele>1344.06</ele>
        <time>2018-12-06T13:36:01Z</time>
      </trkpt>
      <trkpt lat="44.27618" lon="6.08213">
        <ele>1342.62</ele>
        <time>2018-12-06T13:36:14Z</time>
      </trkpt>
      <trkpt lat="44.2761" lon="6.08189">
        <ele>1341.18</ele>
        <time>2018-12-06T13:36:32Z</time>
      </trkpt>
      <trkpt lat="44.27618" lon="6.08168">
        <ele>1340.22</ele>
        <time>2018-12-06T13:36:49Z</time>
      </trkpt>
      <trkpt lat="44.27629" lon="6.08149">
        <ele>1338.77</ele>
        <time>2018-12-06T13:37:06Z</time>
      </trkpt>
      <trkpt lat="44.27641" lon="6.08139">
        <ele>1337.33</ele>
        <time>2018-12-06T13:37:20Z</time>
      </trkpt>
      <trkpt lat="44.27645" lon="6.08136">
        <ele>1337.33</ele>
        <time>2018-12-06T13:37:24Z</time>
      </trkpt>
      <trkpt lat="44.2766" lon="6.0812">
        <ele>1335.41</ele>
        <time>2018-12-06T13:37:42Z</time>
      </trkpt>
      <trkpt lat="44.27666" lon="6.0811">
        <ele>1334.45</ele>
        <time>2018-12-06T13:37:52Z</time>
      </trkpt>
      <trkpt lat="44.27677" lon="6.08088">
        <ele>1331.56</ele>
        <time>2018-12-06T13:38:11Z</time>
      </trkpt>
      <trkpt lat="44.27689" lon="6.08068">
        <ele>1329.64</ele>
        <time>2018-12-06T13:38:28Z</time>
      </trkpt>
      <trkpt lat="44.27692" lon="6.08064">
        <ele>1329.16</ele>
        <time>2018-12-06T13:38:33Z</time>
      </trkpt>
      <trkpt lat="44.27704" lon="6.08046">
        <ele>1327.24</ele>
        <time>2018-12-06T13:38:50Z</time>
      </trkpt>
      <trkpt lat="44.27716" lon="6.08028">
        <ele>1324.83</ele>
        <time>2018-12-06T13:39:07Z</time>
      </trkpt>
      <trkpt lat="44.27728" lon="6.08007">
        <ele>1322.43</ele>
        <time>2018-12-06T13:39:25Z</time>
      </trkpt>
      <trkpt lat="44.27739" lon="6.07985">
        <ele>1319.55</ele>
        <time>2018-12-06T13:39:44Z</time>
      </trkpt>
      <trkpt lat="44.27755" lon="6.07963">
        <ele>1317.62</ele>
        <time>2018-12-06T13:40:05Z</time>
      </trkpt>
      <trkpt lat="44.27771" lon="6.07949">
        <ele>1315.7</ele>
        <time>2018-12-06T13:40:24Z</time>
      </trkpt>
      <trkpt lat="44.27783" lon="6.07936">
        <ele>1313.78</ele>
        <time>2018-12-06T13:40:40Z</time>
      </trkpt>
      <trkpt lat="44.27788" lon="6.07932">
        <ele>1312.82</ele>
        <time>2018-12-06T13:40:46Z</time>
      </trkpt>
      <trkpt lat="44.27802" lon="6.07924">
        <ele>1310.9</ele>
        <time>2018-12-06T13:41:02Z</time>
      </trkpt>
      <trkpt lat="44.2782" lon="6.07918">
        <ele>1308.49</ele>
        <time>2018-12-06T13:41:19Z</time>
      </trkpt>
      <trkpt lat="44.27837" lon="6.07921">
        <ele>1307.05</ele>
        <time>2018-12-06T13:41:34Z</time>
      </trkpt>
      <trkpt lat="44.27848" lon="6.07924">
        <ele>1305.61</ele>
        <time>2018-12-06T13:41:45Z</time>
      </trkpt>
      <trkpt lat="44.27867" lon="6.07909">
        <ele>1305.13</ele>
        <time>2018-12-06T13:42:05Z</time>
      </trkpt>
      <trkpt lat="44.27886" lon="6.07902">
        <ele>1302.72</ele>
        <time>2018-12-06T13:42:24Z</time>
      </trkpt>
      <trkpt lat="44.27893" lon="6.079">
        <ele>1301.28</ele>
        <time>2018-12-06T13:42:39Z</time>
      </trkpt>
      <trkpt lat="44.27892" lon="6.07897">
        <ele>1300.8</ele>
        <time>2018-12-06T13:42:56Z</time>
      </trkpt>
      <trkpt lat="44.27894" lon="6.07894">
        <ele>1300.32</ele>
        <time>2018-12-06T13:43:00Z</time>
      </trkpt>
      <trkpt lat="44.27895" lon="6.07878">
        <ele>1296.96</ele>
        <time>2018-12-06T13:43:13Z</time>
      </trkpt>
      <trkpt lat="44.27885" lon="6.07874">
        <ele>1295.51</ele>
        <time>2018-12-06T13:43:28Z</time>
      </trkpt>
      <trkpt lat="44.27877" lon="6.07871">
        <ele>1295.03</ele>
        <time>2018-12-06T13:43:36Z</time>
      </trkpt>
      <trkpt lat="44.27873" lon="6.0787">
        <ele>1294.55</ele>
        <time>2018-12-06T13:43:40Z</time>
      </trkpt>
      <trkpt lat="44.27865" lon="6.07865">
        <ele>1294.07</ele>
        <time>2018-12-06T13:43:54Z</time>
      </trkpt>
      <trkpt lat="44.27865" lon="6.07865">
        <ele>1294.07</ele>
        <time>2018-12-06T13:43:55Z</time>
      </trkpt>
      <trkpt lat="44.27856" lon="6.07881">
        <ele>1293.11</ele>
        <time>2018-12-06T13:44:10Z</time>
      </trkpt>
      <trkpt lat="44.27848" lon="6.07886">
        <ele>1291.67</ele>
        <time>2018-12-06T13:44:20Z</time>
      </trkpt>
      <trkpt lat="44.27834" lon="6.07871">
        <ele>1289.27</ele>
        <time>2018-12-06T13:44:37Z</time>
      </trkpt>
      <trkpt lat="44.27825" lon="6.07854">
        <ele>1287.34</ele>
        <time>2018-12-06T13:44:52Z</time>
      </trkpt>
      <trkpt lat="44.27815" lon="6.07829">
        <ele>1284.46</ele>
        <time>2018-12-06T13:45:12Z</time>
      </trkpt>
      <trkpt lat="44.27803" lon="6.0782">
        <ele>1282.54</ele>
        <time>2018-12-06T13:45:27Z</time>
      </trkpt>
      <trkpt lat="44.27791" lon="6.07808">
        <ele>1280.13</ele>
        <time>2018-12-06T13:45:43Z</time>
      </trkpt>
      <trkpt lat="44.27781" lon="6.07797">
        <ele>1278.21</ele>
        <time>2018-12-06T13:45:59Z</time>
      </trkpt>
      <trkpt lat="44.2778" lon="6.07795">
        <ele>1277.73</ele>
        <time>2018-12-06T13:46:01Z</time>
      </trkpt>
      <trkpt lat="44.27768" lon="6.07787">
        <ele>1276.77</ele>
        <time>2018-12-06T13:46:16Z</time>
      </trkpt>
      <trkpt lat="44.27767" lon="6.07785">
        <ele>1275.81</ele>
        <time>2018-12-06T13:46:18Z</time>
      </trkpt>
      <trkpt lat="44.27763" lon="6.0776">
        <ele>1273.88</ele>
        <time>2018-12-06T13:46:37Z</time>
      </trkpt>
      <trkpt lat="44.27764" lon="6.07753">
        <ele>1272.92</ele>
        <time>2018-12-06T13:46:43Z</time>
      </trkpt>
      <trkpt lat="44.27767" lon="6.07747">
        <ele>1272.44</ele>
        <time>2018-12-06T13:46:47Z</time>
      </trkpt>
      <trkpt lat="44.27766" lon="6.07726">
        <ele>1271</ele>
        <time>2018-12-06T13:47:02Z</time>
      </trkpt>
      <trkpt lat="44.27768" lon="6.07709">
        <ele>1269.08</ele>
        <time>2018-12-06T13:47:16Z</time>
      </trkpt>
      <trkpt lat="44.27772" lon="6.07691">
        <ele>1267.64</ele>
        <time>2018-12-06T13:47:30Z</time>
      </trkpt>
      <trkpt lat="44.27773" lon="6.07673">
        <ele>1265.71</ele>
        <time>2018-12-06T13:47:42Z</time>
      </trkpt>
      <trkpt lat="44.27777" lon="6.0766">
        <ele>1264.27</ele>
        <time>2018-12-06T13:47:53Z</time>
      </trkpt>
      <trkpt lat="44.27781" lon="6.07641">
        <ele>1261.87</ele>
        <time>2018-12-06T13:48:07Z</time>
      </trkpt>
      <trkpt lat="44.27783" lon="6.07622">
        <ele>1260.43</ele>
        <time>2018-12-06T13:48:20Z</time>
      </trkpt>
      <trkpt lat="44.27787" lon="6.07599">
        <ele>1258.98</ele>
        <time>2018-12-06T13:48:35Z</time>
      </trkpt>
      <trkpt lat="44.27787" lon="6.07575">
        <ele>1257.06</ele>
        <time>2018-12-06T13:48:50Z</time>
      </trkpt>
      <trkpt lat="44.27785" lon="6.0755">
        <ele>1254.18</ele>
        <time>2018-12-06T13:49:06Z</time>
      </trkpt>
      <trkpt lat="44.2778" lon="6.07531">
        <ele>1252.74</ele>
        <time>2018-12-06T13:49:21Z</time>
      </trkpt>
      <trkpt lat="44.27776" lon="6.0752">
        <ele>1251.77</ele>
        <time>2018-12-06T13:49:34Z</time>
      </trkpt>
      <trkpt lat="44.27767" lon="6.07512">
        <ele>1250.81</ele>
        <time>2018-12-06T13:49:44Z</time>
      </trkpt>
      <trkpt lat="44.27762" lon="6.07508">
        <ele>1250.33</ele>
        <time>2018-12-06T13:49:58Z</time>
      </trkpt>
      <trkpt lat="44.27757" lon="6.0751">
        <ele>1249.85</ele>
        <time>2018-12-06T13:50:10Z</time>
      </trkpt>
      <trkpt lat="44.27744" lon="6.07517">
        <ele>1248.89</ele>
        <time>2018-12-06T13:50:26Z</time>
      </trkpt>
      <trkpt lat="44.27728" lon="6.07526">
        <ele>1247.45</ele>
        <time>2018-12-06T13:50:43Z</time>
      </trkpt>
      <trkpt lat="44.27711" lon="6.07534">
        <ele>1245.04</ele>
        <time>2018-12-06T13:51:01Z</time>
      </trkpt>
      <trkpt lat="44.27699" lon="6.07546">
        <ele>1244.08</ele>
        <time>2018-12-06T13:51:19Z</time>
      </trkpt>
      <trkpt lat="44.27699" lon="6.07548">
        <ele>1243.6</ele>
        <time>2018-12-06T13:51:44Z</time>
      </trkpt>
      <trkpt lat="44.27696" lon="6.07553">
        <ele>1243.6</ele>
        <time>2018-12-06T13:51:58Z</time>
      </trkpt>
      <trkpt lat="44.27696" lon="6.07551">
        <ele>1243.6</ele>
        <time>2018-12-06T13:52:21Z</time>
      </trkpt>
      <trkpt lat="44.27695" lon="6.07552">
        <ele>1243.6</ele>
        <time>2018-12-06T13:52:34Z</time>
      </trkpt>
      <trkpt lat="44.27694" lon="6.07551">
        <ele>1243.12</ele>
        <time>2018-12-06T13:52:46Z</time>
      </trkpt>
      <trkpt lat="44.27691" lon="6.07551">
        <ele>1243.12</ele>
        <time>2018-12-06T13:52:53Z</time>
      </trkpt>
      <trkpt lat="44.27691" lon="6.07535">
        <ele>1241.68</ele>
        <time>2018-12-06T13:53:08Z</time>
      </trkpt>
      <trkpt lat="44.27703" lon="6.07525">
        <ele>1239.76</ele>
        <time>2018-12-06T13:53:24Z</time>
      </trkpt>
      <trkpt lat="44.27719" lon="6.07511">
        <ele>1237.35</ele>
        <time>2018-12-06T13:53:44Z</time>
      </trkpt>
      <trkpt lat="44.27727" lon="6.07498">
        <ele>1235.43</ele>
        <time>2018-12-06T13:53:56Z</time>
      </trkpt>
      <trkpt lat="44.27741" lon="6.07484">
        <ele>1233.51</ele>
        <time>2018-12-06T13:54:13Z</time>
      </trkpt>
      <trkpt lat="44.27744" lon="6.07477">
        <ele>1233.03</ele>
        <time>2018-12-06T13:54:19Z</time>
      </trkpt>
      <trkpt lat="44.27754" lon="6.07451">
        <ele>1230.62</ele>
        <time>2018-12-06T13:54:39Z</time>
      </trkpt>
      <trkpt lat="44.27762" lon="6.07429">
        <ele>1228.7</ele>
        <time>2018-12-06T13:54:57Z</time>
      </trkpt>
      <trkpt lat="44.27768" lon="6.07404">
        <ele>1225.82</ele>
        <time>2018-12-06T13:55:15Z</time>
      </trkpt>
      <trkpt lat="44.27769" lon="6.07381">
        <ele>1223.9</ele>
        <time>2018-12-06T13:55:32Z</time>
      </trkpt>
      <trkpt lat="44.27769" lon="6.07357">
        <ele>1221.97</ele>
        <time>2018-12-06T13:55:49Z</time>
      </trkpt>
      <trkpt lat="44.27766" lon="6.07331">
        <ele>1219.57</ele>
        <time>2018-12-06T13:56:07Z</time>
      </trkpt>
      <trkpt lat="44.27764" lon="6.07306">
        <ele>1217.65</ele>
        <time>2018-12-06T13:56:25Z</time>
      </trkpt>
      <trkpt lat="44.27771" lon="6.07284">
        <ele>1215.24</ele>
        <time>2018-12-06T13:56:42Z</time>
      </trkpt>
      <trkpt lat="44.27773" lon="6.07273">
        <ele>1214.28</ele>
        <time>2018-12-06T13:56:50Z</time>
      </trkpt>
      <trkpt lat="44.27774" lon="6.07269">
        <ele>1213.32</ele>
        <time>2018-12-06T13:56:53Z</time>
      </trkpt>
      <trkpt lat="44.27778" lon="6.07244">
        <ele>1210.92</ele>
        <time>2018-12-06T13:57:11Z</time>
      </trkpt>
      <trkpt lat="44.27779" lon="6.07232">
        <ele>1209.96</ele>
        <time>2018-12-06T13:57:26Z</time>
      </trkpt>
      <trkpt lat="44.2778" lon="6.0723">
        <ele>1209.96</ele>
        <time>2018-12-06T13:57:42Z</time>
      </trkpt>
      <trkpt lat="44.27779" lon="6.07228">
        <ele>1209.96</ele>
        <time>2018-12-06T13:57:58Z</time>
      </trkpt>
      <trkpt lat="44.27774" lon="6.07217">
        <ele>1209</ele>
        <time>2018-12-06T13:58:12Z</time>
      </trkpt>
      <trkpt lat="44.2777" lon="6.07214">
        <ele>1208.51</ele>
        <time>2018-12-06T13:58:18Z</time>
      </trkpt>
      <trkpt lat="44.27754" lon="6.07205">
        <ele>1207.07</ele>
        <time>2018-12-06T13:58:34Z</time>
      </trkpt>
      <trkpt lat="44.27741" lon="6.07191">
        <ele>1205.15</ele>
        <time>2018-12-06T13:58:51Z</time>
      </trkpt>
      <trkpt lat="44.27734" lon="6.0717">
        <ele>1203.23</ele>
        <time>2018-12-06T13:59:08Z</time>
      </trkpt>
      <trkpt lat="44.27737" lon="6.07152">
        <ele>1201.3</ele>
        <time>2018-12-06T13:59:22Z</time>
      </trkpt>
      <trkpt lat="44.27736" lon="6.07135">
        <ele>1199.38</ele>
        <time>2018-12-06T13:59:35Z</time>
      </trkpt>
      <trkpt lat="44.27721" lon="6.07121">
        <ele>1196.02</ele>
        <time>2018-12-06T13:59:53Z</time>
      </trkpt>
      <trkpt lat="44.27714" lon="6.07097">
        <ele>1193.61</ele>
        <time>2018-12-06T14:00:11Z</time>
      </trkpt>
      <trkpt lat="44.27712" lon="6.07067">
        <ele>1192.65</ele>
        <time>2018-12-06T14:00:31Z</time>
      </trkpt>
      <trkpt lat="44.27714" lon="6.07044">
        <ele>1191.69</ele>
        <time>2018-12-06T14:00:47Z</time>
      </trkpt>
      <trkpt lat="44.27716" lon="6.07014">
        <ele>1189.77</ele>
        <time>2018-12-06T14:01:07Z</time>
      </trkpt>
      <trkpt lat="44.27716" lon="6.06988">
        <ele>1188.33</ele>
        <time>2018-12-06T14:01:24Z</time>
      </trkpt>
      <trkpt lat="44.27708" lon="6.06962">
        <ele>1185.92</ele>
        <time>2018-12-06T14:01:42Z</time>
      </trkpt>
      <trkpt lat="44.27709" lon="6.0695">
        <ele>1184.48</ele>
        <time>2018-12-06T14:01:52Z</time>
      </trkpt>
      <trkpt lat="44.27717" lon="6.06947">
        <ele>1182.56</ele>
        <time>2018-12-06T14:02:00Z</time>
      </trkpt>
      <trkpt lat="44.27737" lon="6.06939">
        <ele>1180.16</ele>
        <time>2018-12-06T14:02:20Z</time>
      </trkpt>
      <trkpt lat="44.27745" lon="6.06941">
        <ele>1179.19</ele>
        <time>2018-12-06T14:02:28Z</time>
      </trkpt>
      <trkpt lat="44.27749" lon="6.06946">
        <ele>1178.71</ele>
        <time>2018-12-06T14:02:32Z</time>
      </trkpt>
      <trkpt lat="44.27767" lon="6.06963">
        <ele>1176.79</ele>
        <time>2018-12-06T14:02:52Z</time>
      </trkpt>
      <trkpt lat="44.27789" lon="6.06973">
        <ele>1175.83</ele>
        <time>2018-12-06T14:03:12Z</time>
      </trkpt>
      <trkpt lat="44.2781" lon="6.06978">
        <ele>1174.87</ele>
        <time>2018-12-06T14:03:31Z</time>
      </trkpt>
      <trkpt lat="44.2783" lon="6.0698">
        <ele>1173.91</ele>
        <time>2018-12-06T14:03:49Z</time>
      </trkpt>
      <trkpt lat="44.27837" lon="6.06988">
        <ele>1172.47</ele>
        <time>2018-12-06T14:03:57Z</time>
      </trkpt>
      <trkpt lat="44.27845" lon="6.07003">
        <ele>1170.54</ele>
        <time>2018-12-06T14:04:10Z</time>
      </trkpt>
      <trkpt lat="44.27849" lon="6.07003">
        <ele>1170.06</ele>
        <time>2018-12-06T14:04:14Z</time>
      </trkpt>
      <trkpt lat="44.27856" lon="6.06986">
        <ele>1167.66</ele>
        <time>2018-12-06T14:04:29Z</time>
      </trkpt>
      <trkpt lat="44.2786" lon="6.06963">
        <ele>1164.77</ele>
        <time>2018-12-06T14:04:46Z</time>
      </trkpt>
      <trkpt lat="44.27863" lon="6.06939">
        <ele>1161.89</ele>
        <time>2018-12-06T14:05:03Z</time>
      </trkpt>
      <trkpt lat="44.27871" lon="6.06914">
        <ele>1159.97</ele>
        <time>2018-12-06T14:05:21Z</time>
      </trkpt>
      <trkpt lat="44.27879" lon="6.06893">
        <ele>1158.53</ele>
        <time>2018-12-06T14:05:37Z</time>
      </trkpt>
      <trkpt lat="44.27891" lon="6.06871">
        <ele>1157.56</ele>
        <time>2018-12-06T14:05:55Z</time>
      </trkpt>
      <trkpt lat="44.27905" lon="6.06858">
        <ele>1156.12</ele>
        <time>2018-12-06T14:06:11Z</time>
      </trkpt>
      <trkpt lat="44.27919" lon="6.06853">
        <ele>1154.2</ele>
        <time>2018-12-06T14:06:25Z</time>
      </trkpt>
      <trkpt lat="44.27935" lon="6.06842">
        <ele>1152.28</ele>
        <time>2018-12-06T14:06:41Z</time>
      </trkpt>
      <trkpt lat="44.27946" lon="6.06825">
        <ele>1149.87</ele>
        <time>2018-12-06T14:06:57Z</time>
      </trkpt>
      <trkpt lat="44.27949" lon="6.0681">
        <ele>1146.51</ele>
        <time>2018-12-06T14:07:11Z</time>
      </trkpt>
      <trkpt lat="44.27951" lon="6.06789">
        <ele>1143.63</ele>
        <time>2018-12-06T14:07:26Z</time>
      </trkpt>
      <trkpt lat="44.27952" lon="6.06766">
        <ele>1140.74</ele>
        <time>2018-12-06T14:07:43Z</time>
      </trkpt>
      <trkpt lat="44.27951" lon="6.0674">
        <ele>1139.78</ele>
        <time>2018-12-06T14:08:00Z</time>
      </trkpt>
      <trkpt lat="44.27951" lon="6.06726">
        <ele>1139.3</ele>
        <time>2018-12-06T14:08:09Z</time>
      </trkpt>
      <trkpt lat="44.27956" lon="6.06697">
        <ele>1139.3</ele>
        <time>2018-12-06T14:08:28Z</time>
      </trkpt>
      <trkpt lat="44.27958" lon="6.0668">
        <ele>1139.3</ele>
        <time>2018-12-06T14:08:41Z</time>
      </trkpt>
      <trkpt lat="44.27957" lon="6.06665">
        <ele>1138.82</ele>
        <time>2018-12-06T14:08:53Z</time>
      </trkpt>
      <trkpt lat="44.27958" lon="6.06653">
        <ele>1139.3</ele>
        <time>2018-12-06T14:09:08Z</time>
      </trkpt>
      <trkpt lat="44.27958" lon="6.06643">
        <ele>1141.22</ele>
        <time>2018-12-06T14:09:21Z</time>
      </trkpt>
      <trkpt lat="44.27961" lon="6.06636">
        <ele>1143.63</ele>
        <time>2018-12-06T14:09:36Z</time>
      </trkpt>
      <trkpt lat="44.27956" lon="6.06635">
        <ele>1144.59</ele>
        <time>2018-12-06T14:09:47Z</time>
      </trkpt>
      <trkpt lat="44.27954" lon="6.06622">
        <ele>1146.51</ele>
        <time>2018-12-06T14:10:00Z</time>
      </trkpt>
      <trkpt lat="44.27955" lon="6.06618">
        <ele>1146.99</ele>
        <time>2018-12-06T14:10:11Z</time>
      </trkpt>
      <trkpt lat="44.27956" lon="6.06612">
        <ele>1148.43</ele>
        <time>2018-12-06T14:10:25Z</time>
      </trkpt>
      <trkpt lat="44.27959" lon="6.0661">
        <ele>1149.87</ele>
        <time>2018-12-06T14:10:33Z</time>
      </trkpt>
      <trkpt lat="44.27964" lon="6.06602">
        <ele>1151.8</ele>
        <time>2018-12-06T14:10:46Z</time>
      </trkpt>
      <trkpt lat="44.27968" lon="6.06593">
        <ele>1152.28</ele>
        <time>2018-12-06T14:10:59Z</time>
      </trkpt>
      <trkpt lat="44.2797" lon="6.06592">
        <ele>1151.8</ele>
        <time>2018-12-06T14:11:15Z</time>
      </trkpt>
      <trkpt lat="44.2797" lon="6.06592">
        <ele>1152.76</ele>
        <time>2018-12-06T14:11:33Z</time>
      </trkpt>
      <trkpt lat="44.27969" lon="6.06591">
        <ele>1152.28</ele>
        <time>2018-12-06T14:12:00Z</time>
      </trkpt>
      <trkpt lat="44.2797" lon="6.0659">
        <ele>1151.8</ele>
        <time>2018-12-06T14:12:15Z</time>
      </trkpt>
      <trkpt lat="44.27971" lon="6.06588">
        <ele>1151.32</ele>
        <time>2018-12-06T14:12:30Z</time>
      </trkpt>
      <trkpt lat="44.27972" lon="6.06589">
        <ele>1151.8</ele>
        <time>2018-12-06T14:12:51Z</time>
      </trkpt>
      <trkpt lat="44.27971" lon="6.06589">
        <ele>1151.8</ele>
        <time>2018-12-06T14:13:10Z</time>
      </trkpt>
      <trkpt lat="44.27972" lon="6.0659">
        <ele>1151.8</ele>
        <time>2018-12-06T14:13:27Z</time>
      </trkpt>
      <trkpt lat="44.27971" lon="6.06589">
        <ele>1151.8</ele>
        <time>2018-12-06T14:13:49Z</time>
      </trkpt>
      <trkpt lat="44.27971" lon="6.06589">
        <ele>1151.8</ele>
        <time>2018-12-06T14:14:17Z</time>
      </trkpt>
      <trkpt lat="44.27971" lon="6.06591">
        <ele>1152.28</ele>
        <time>2018-12-06T14:14:42Z</time>
      </trkpt>
      <trkpt lat="44.27971" lon="6.0659">
        <ele>1152.28</ele>
        <time>2018-12-06T14:15:03Z</time>
      </trkpt>
      <trkpt lat="44.27971" lon="6.0659">
        <ele>1152.28</ele>
        <time>2018-12-06T14:15:26Z</time>
      </trkpt>
      <trkpt lat="44.2797" lon="6.06588">
        <ele>1151.8</ele>
        <time>2018-12-06T14:15:55Z</time>
      </trkpt>
      <trkpt lat="44.2797" lon="6.06589">
        <ele>1151.8</ele>
        <time>2018-12-06T14:16:24Z</time>
      </trkpt>
      <trkpt lat="44.2797" lon="6.06588">
        <ele>1152.28</ele>
        <time>2018-12-06T14:16:45Z</time>
      </trkpt>
      <trkpt lat="44.2797" lon="6.06592">
        <ele>1152.28</ele>
        <time>2018-12-06T14:17:08Z</time>
      </trkpt>
      <trkpt lat="44.27968" lon="6.06596">
        <ele>1152.76</ele>
        <time>2018-12-06T14:17:21Z</time>
      </trkpt>
      <trkpt lat="44.27968" lon="6.06596">
        <ele>1152.76</ele>
        <time>2018-12-06T14:17:54Z</time>
      </trkpt>
      <trkpt lat="44.27969" lon="6.06594">
        <ele>1152.76</ele>
        <time>2018-12-06T14:18:09Z</time>
      </trkpt>
      <trkpt lat="44.27969" lon="6.06595">
        <ele>1152.76</ele>
        <time>2018-12-06T14:18:32Z</time>
      </trkpt>
      <trkpt lat="44.27967" lon="6.06596">
        <ele>1152.28</ele>
        <time>2018-12-06T14:18:45Z</time>
      </trkpt>
      <trkpt lat="44.27963" lon="6.06606">
        <ele>1151.8</ele>
        <time>2018-12-06T14:19:00Z</time>
      </trkpt>
      <trkpt lat="44.27961" lon="6.06609">
        <ele>1151.8</ele>
        <time>2018-12-06T14:19:26Z</time>
      </trkpt>
      <trkpt lat="44.2796" lon="6.06612">
        <ele>1150.84</ele>
        <time>2018-12-06T14:19:41Z</time>
      </trkpt>
      <trkpt lat="44.27955" lon="6.06613">
        <ele>1149.39</ele>
        <time>2018-12-06T14:19:59Z</time>
      </trkpt>
      <trkpt lat="44.27956" lon="6.06624">
        <ele>1148.43</ele>
        <time>2018-12-06T14:20:10Z</time>
      </trkpt>
      <trkpt lat="44.27955" lon="6.06625">
        <ele>1148.43</ele>
        <time>2018-12-06T14:20:11Z</time>
      </trkpt>
      <trkpt lat="44.27955" lon="6.06629">
        <ele>1146.51</ele>
        <time>2018-12-06T14:20:13Z</time>
      </trkpt>
      <trkpt lat="44.27958" lon="6.06637">
        <ele>1145.55</ele>
        <time>2018-12-06T14:20:27Z</time>
      </trkpt>
      <trkpt lat="44.2796" lon="6.0664">
        <ele>1144.11</ele>
        <time>2018-12-06T14:20:34Z</time>
      </trkpt>
      <trkpt lat="44.27958" lon="6.06651">
        <ele>1140.74</ele>
        <time>2018-12-06T14:20:46Z</time>
      </trkpt>
      <trkpt lat="44.27954" lon="6.06662">
        <ele>1138.34</ele>
        <time>2018-12-06T14:21:00Z</time>
      </trkpt>
      <trkpt lat="44.27945" lon="6.06653">
        <ele>1137.86</ele>
        <time>2018-12-06T14:21:11Z</time>
      </trkpt>
      <trkpt lat="44.27933" lon="6.06649">
        <ele>1135.45</ele>
        <time>2018-12-06T14:21:23Z</time>
      </trkpt>
      <trkpt lat="44.27929" lon="6.06648">
        <ele>1134.01</ele>
        <time>2018-12-06T14:21:29Z</time>
      </trkpt>
      <trkpt lat="44.27923" lon="6.0665">
        <ele>1133.05</ele>
        <time>2018-12-06T14:21:35Z</time>
      </trkpt>
      <trkpt lat="44.2791" lon="6.06656">
        <ele>1131.61</ele>
        <time>2018-12-06T14:21:50Z</time>
      </trkpt>
      <trkpt lat="44.279" lon="6.06666">
        <ele>1130.65</ele>
        <time>2018-12-06T14:22:09Z</time>
      </trkpt>
      <trkpt lat="44.27897" lon="6.06667">
        <ele>1129.69</ele>
        <time>2018-12-06T14:22:25Z</time>
      </trkpt>
      <trkpt lat="44.27897" lon="6.06667">
        <ele>1129.69</ele>
        <time>2018-12-06T14:22:26Z</time>
      </trkpt>
    </trkseg>
  </trk>
</gpx>